<?xml version="1.0" encoding="UTF-8" standalone="no" ?>
<gpx xmlns="http://www.topografix.com/GPX/1/1" xmlns:xsi="http://www.w3.org/2001/XMLSchema-instance" xsi:schemaLocation="http://www.topografix.com/GPX/1/1 http://www.topografix.com/GPX/1/1/gpx.xsd" version="1.1" creator="VisuGPX - https://www.visugpx.com">
  <metadata>
    <name>Montarnaud-Pic Baudille-Montarnaud</name>
  </metadata>
  <trk>
    <name><![CDATA[Montarnaud-Pic Baudille-Montarnaud_1]]></name>
    <trkseg>
      <trkpt lat="43.65345" lon="3.6779">
        <ele>262.032501</ele>
        <time>2019-03-01T11:32:50Z</time>
      </trkpt>
      <trkpt lat="43.6535" lon="3.67786">
        <ele>262.360016</ele>
        <time>2019-03-01T11:32:53Z</time>
      </trkpt>
      <trkpt lat="43.65354" lon="3.67779">
        <ele>262.295013</ele>
        <time>2019-03-01T11:32:55Z</time>
      </trkpt>
      <trkpt lat="43.65373" lon="3.67767">
        <ele>263.627502</ele>
        <time>2019-03-01T11:33:04Z</time>
      </trkpt>
      <trkpt lat="43.65376" lon="3.67774">
        <ele>264.42749</ele>
        <time>2019-03-01T11:33:26Z</time>
      </trkpt>
      <trkpt lat="43.6537" lon="3.6778">
        <ele>264.139984</ele>
        <time>2019-03-01T09:41:55Z</time>
      </trkpt>
      <trkpt lat="43.6537" lon="3.6778">
        <ele>264.139984</ele>
        <time>2019-03-01T09:41:55Z</time>
      </trkpt>
      <trkpt lat="43.65376" lon="3.67777">
        <ele>264.554993</ele>
        <time>2019-03-01T09:42:08Z</time>
      </trkpt>
      <trkpt lat="43.65377" lon="3.6778">
        <ele>264.92749</ele>
        <time>2019-03-01T09:42:15Z</time>
      </trkpt>
      <trkpt lat="43.65376" lon="3.67779">
        <ele>264.707489</ele>
        <time>2019-03-01T09:42:19Z</time>
      </trkpt>
      <trkpt lat="43.65393" lon="3.67759">
        <ele>265.504608</ele>
        <time>2019-03-01T09:42:32Z</time>
      </trkpt>
      <trkpt lat="43.65426" lon="3.6773">
        <ele>267.749084</ele>
        <time>2019-03-01T09:42:44Z</time>
      </trkpt>
      <trkpt lat="43.65454" lon="3.67711">
        <ele>270.230011</ele>
        <time>2019-03-01T09:42:53Z</time>
      </trkpt>
      <trkpt lat="43.65472" lon="3.67709">
        <ele>272.494995</ele>
        <time>2019-03-01T09:42:59Z</time>
      </trkpt>
      <trkpt lat="43.655" lon="3.6772">
        <ele>275.492493</ele>
        <time>2019-03-01T09:43:08Z</time>
      </trkpt>
      <trkpt lat="43.65522" lon="3.6772">
        <ele>276.962494</ele>
        <time>2019-03-01T09:43:17Z</time>
      </trkpt>
      <trkpt lat="43.65523" lon="3.67723">
        <ele>277.217499</ele>
        <time>2019-03-01T09:43:38Z</time>
      </trkpt>
      <trkpt lat="43.65529" lon="3.67721">
        <ele>277.290009</ele>
        <time>2019-03-01T09:43:41Z</time>
      </trkpt>
      <trkpt lat="43.65573" lon="3.67744">
        <ele>279.018921</ele>
        <time>2019-03-01T09:43:51Z</time>
      </trkpt>
      <trkpt lat="43.65652" lon="3.67775">
        <ele>272.570007</ele>
        <time>2019-03-01T09:44:03Z</time>
      </trkpt>
      <trkpt lat="43.65677" lon="3.6778">
        <ele>272.426514</ele>
        <time>2019-03-01T09:44:06Z</time>
      </trkpt>
      <trkpt lat="43.65701" lon="3.67778">
        <ele>272.904877</ele>
        <time>2019-03-01T09:44:09Z</time>
      </trkpt>
      <trkpt lat="43.65795" lon="3.67744">
        <ele>277.448395</ele>
        <time>2019-03-01T09:44:27Z</time>
      </trkpt>
      <trkpt lat="43.65876" lon="3.67733">
        <ele>282.040009</ele>
        <time>2019-03-01T09:44:48Z</time>
      </trkpt>
      <trkpt lat="43.65892" lon="3.67745">
        <ele>282.818756</ele>
        <time>2019-03-01T09:44:51Z</time>
      </trkpt>
      <trkpt lat="43.65924" lon="3.67738">
        <ele>281.061737</ele>
        <time>2019-03-01T09:44:57Z</time>
      </trkpt>
      <trkpt lat="43.65944" lon="3.67744">
        <ele>279.691681</ele>
        <time>2019-03-01T09:45:00Z</time>
      </trkpt>
      <trkpt lat="43.65963" lon="3.67754">
        <ele>278.519043</ele>
        <time>2019-03-01T09:45:03Z</time>
      </trkpt>
      <trkpt lat="43.66005" lon="3.67796">
        <ele>276.473663</ele>
        <time>2019-03-01T09:45:09Z</time>
      </trkpt>
      <trkpt lat="43.66029" lon="3.67799">
        <ele>275.378418</ele>
        <time>2019-03-01T09:45:12Z</time>
      </trkpt>
      <trkpt lat="43.66051" lon="3.67805">
        <ele>275.788239</ele>
        <time>2019-03-01T09:45:15Z</time>
      </trkpt>
      <trkpt lat="43.6607" lon="3.67803">
        <ele>275.683044</ele>
        <time>2019-03-01T09:45:18Z</time>
      </trkpt>
      <trkpt lat="43.66147" lon="3.67759">
        <ele>275.809174</ele>
        <time>2019-03-01T09:45:33Z</time>
      </trkpt>
      <trkpt lat="43.66157" lon="3.67775">
        <ele>276.481873</ele>
        <time>2019-03-01T09:45:36Z</time>
      </trkpt>
      <trkpt lat="43.66192" lon="3.67789">
        <ele>276.953033</ele>
        <time>2019-03-01T09:45:45Z</time>
      </trkpt>
      <trkpt lat="43.6621" lon="3.67783">
        <ele>277</ele>
        <time>2019-03-01T09:45:51Z</time>
      </trkpt>
      <trkpt lat="43.66218" lon="3.67788">
        <ele>277</ele>
        <time>2019-03-01T09:45:54Z</time>
      </trkpt>
      <trkpt lat="43.66251" lon="3.6777">
        <ele>276.567566</ele>
        <time>2019-03-01T09:46:03Z</time>
      </trkpt>
      <trkpt lat="43.66264" lon="3.67766">
        <ele>275.953369</ele>
        <time>2019-03-01T09:46:06Z</time>
      </trkpt>
      <trkpt lat="43.66279" lon="3.67769">
        <ele>275.178711</ele>
        <time>2019-03-01T09:46:09Z</time>
      </trkpt>
      <trkpt lat="43.66297" lon="3.6778">
        <ele>273.940002</ele>
        <time>2019-03-01T09:46:12Z</time>
      </trkpt>
      <trkpt lat="43.66314" lon="3.67801">
        <ele>272.475006</ele>
        <time>2019-03-01T09:46:15Z</time>
      </trkpt>
      <trkpt lat="43.66332" lon="3.6781">
        <ele>271.123749</ele>
        <time>2019-03-01T09:46:18Z</time>
      </trkpt>
      <trkpt lat="43.66369" lon="3.67821">
        <ele>268.171417</ele>
        <time>2019-03-01T09:46:24Z</time>
      </trkpt>
      <trkpt lat="43.66414" lon="3.67839">
        <ele>269.150421</ele>
        <time>2019-03-01T09:46:36Z</time>
      </trkpt>
      <trkpt lat="43.66414" lon="3.67846">
        <ele>269.025879</ele>
        <time>2019-03-01T09:46:48Z</time>
      </trkpt>
      <trkpt lat="43.66419" lon="3.67841">
        <ele>269.406738</ele>
        <time>2019-03-01T09:47:02Z</time>
      </trkpt>
      <trkpt lat="43.6642" lon="3.67845">
        <ele>269.39447</ele>
        <time>2019-03-01T09:47:08Z</time>
      </trkpt>
      <trkpt lat="43.66422" lon="3.6784">
        <ele>269.612488</ele>
        <time>2019-03-01T09:47:11Z</time>
      </trkpt>
      <trkpt lat="43.66427" lon="3.67853">
        <ele>269.791473</ele>
        <time>2019-03-01T09:47:20Z</time>
      </trkpt>
      <trkpt lat="43.66468" lon="3.67906">
        <ele>271.760437</ele>
        <time>2019-03-01T09:47:32Z</time>
      </trkpt>
      <trkpt lat="43.66497" lon="3.67926">
        <ele>271.170319</ele>
        <time>2019-03-01T09:47:38Z</time>
      </trkpt>
      <trkpt lat="43.66513" lon="3.67928">
        <ele>271.047668</ele>
        <time>2019-03-01T09:47:41Z</time>
      </trkpt>
      <trkpt lat="43.66578" lon="3.67914">
        <ele>272.006592</ele>
        <time>2019-03-01T09:47:53Z</time>
      </trkpt>
      <trkpt lat="43.66613" lon="3.67912">
        <ele>273.756683</ele>
        <time>2019-03-01T09:47:59Z</time>
      </trkpt>
      <trkpt lat="43.66627" lon="3.67908">
        <ele>275.667114</ele>
        <time>2019-03-01T09:48:02Z</time>
      </trkpt>
      <trkpt lat="43.66648" lon="3.67906">
        <ele>277.515594</ele>
        <time>2019-03-01T09:48:08Z</time>
      </trkpt>
      <trkpt lat="43.66665" lon="3.67895">
        <ele>280.185669</ele>
        <time>2019-03-01T09:48:14Z</time>
      </trkpt>
      <trkpt lat="43.6668" lon="3.67899">
        <ele>280.575745</ele>
        <time>2019-03-01T09:48:17Z</time>
      </trkpt>
      <trkpt lat="43.66714" lon="3.67895">
        <ele>283.398621</ele>
        <time>2019-03-01T09:48:24Z</time>
      </trkpt>
      <trkpt lat="43.66746" lon="3.67899">
        <ele>285.062073</ele>
        <time>2019-03-01T09:48:32Z</time>
      </trkpt>
      <trkpt lat="43.66811" lon="3.67933">
        <ele>286.987366</ele>
        <time>2019-03-01T09:48:48Z</time>
      </trkpt>
      <trkpt lat="43.66832" lon="3.67938">
        <ele>288.649994</ele>
        <time>2019-03-01T09:48:52Z</time>
      </trkpt>
      <trkpt lat="43.6685" lon="3.67937">
        <ele>289.793243</ele>
        <time>2019-03-01T09:48:56Z</time>
      </trkpt>
      <trkpt lat="43.6687" lon="3.67943">
        <ele>291.462158</ele>
        <time>2019-03-01T09:49:00Z</time>
      </trkpt>
      <trkpt lat="43.66907" lon="3.67969">
        <ele>292.738708</ele>
        <time>2019-03-01T09:49:08Z</time>
      </trkpt>
      <trkpt lat="43.66926" lon="3.67978">
        <ele>293</ele>
        <time>2019-03-01T09:49:12Z</time>
      </trkpt>
      <trkpt lat="43.66947" lon="3.67983">
        <ele>293</ele>
        <time>2019-03-01T09:49:16Z</time>
      </trkpt>
      <trkpt lat="43.6698" lon="3.67985">
        <ele>292.75528</ele>
        <time>2019-03-01T09:49:22Z</time>
      </trkpt>
      <trkpt lat="43.67055" lon="3.67962">
        <ele>295.466156</ele>
        <time>2019-03-01T09:49:36Z</time>
      </trkpt>
      <trkpt lat="43.67087" lon="3.67957">
        <ele>297.531067</ele>
        <time>2019-03-01T09:49:42Z</time>
      </trkpt>
      <trkpt lat="43.67123" lon="3.67944">
        <ele>299.685486</ele>
        <time>2019-03-01T09:49:51Z</time>
      </trkpt>
      <trkpt lat="43.6715" lon="3.67919">
        <ele>302.089783</ele>
        <time>2019-03-01T09:50:00Z</time>
      </trkpt>
      <trkpt lat="43.67154" lon="3.6792">
        <ele>302.559692</ele>
        <time>2019-03-01T09:50:03Z</time>
      </trkpt>
      <trkpt lat="43.67159" lon="3.67916">
        <ele>303.297821</ele>
        <time>2019-03-01T09:50:06Z</time>
      </trkpt>
      <trkpt lat="43.67163" lon="3.67908">
        <ele>304.018738</ele>
        <time>2019-03-01T09:50:09Z</time>
      </trkpt>
      <trkpt lat="43.67178" lon="3.67893">
        <ele>306.608398</ele>
        <time>2019-03-01T09:50:15Z</time>
      </trkpt>
      <trkpt lat="43.67197" lon="3.67887">
        <ele>308.469666</ele>
        <time>2019-03-01T09:50:21Z</time>
      </trkpt>
      <trkpt lat="43.67204" lon="3.67889">
        <ele>309.201172</ele>
        <time>2019-03-01T09:50:24Z</time>
      </trkpt>
      <trkpt lat="43.67211" lon="3.67885">
        <ele>309.625916</ele>
        <time>2019-03-01T09:50:27Z</time>
      </trkpt>
      <trkpt lat="43.6723" lon="3.67867">
        <ele>310.43634</ele>
        <time>2019-03-01T09:50:33Z</time>
      </trkpt>
      <trkpt lat="43.67257" lon="3.67851">
        <ele>311.195435</ele>
        <time>2019-03-01T09:50:42Z</time>
      </trkpt>
      <trkpt lat="43.67282" lon="3.67843">
        <ele>312.61438</ele>
        <time>2019-03-01T09:50:51Z</time>
      </trkpt>
      <trkpt lat="43.67329" lon="3.67812">
        <ele>313.53894</ele>
        <time>2019-03-01T09:51:03Z</time>
      </trkpt>
      <trkpt lat="43.67349" lon="3.67794">
        <ele>312.100311</ele>
        <time>2019-03-01T09:51:09Z</time>
      </trkpt>
      <trkpt lat="43.67387" lon="3.67786">
        <ele>310.188385</ele>
        <time>2019-03-01T09:51:24Z</time>
      </trkpt>
      <trkpt lat="43.67467" lon="3.67683">
        <ele>303.944977</ele>
        <time>2019-03-01T09:52:00Z</time>
      </trkpt>
      <trkpt lat="43.67484" lon="3.67674">
        <ele>304.069305</ele>
        <time>2019-03-01T09:52:03Z</time>
      </trkpt>
      <trkpt lat="43.67498" lon="3.6766">
        <ele>304.666046</ele>
        <time>2019-03-01T09:52:06Z</time>
      </trkpt>
      <trkpt lat="43.67524" lon="3.67626">
        <ele>302.184113</ele>
        <time>2019-03-01T09:52:12Z</time>
      </trkpt>
      <trkpt lat="43.67556" lon="3.67597">
        <ele>302.332947</ele>
        <time>2019-03-01T09:52:18Z</time>
      </trkpt>
      <trkpt lat="43.67565" lon="3.67578">
        <ele>301.983887</ele>
        <time>2019-03-01T09:52:21Z</time>
      </trkpt>
      <trkpt lat="43.67571" lon="3.67557">
        <ele>301.709839</ele>
        <time>2019-03-01T09:52:24Z</time>
      </trkpt>
      <trkpt lat="43.67581" lon="3.67538">
        <ele>302.283997</ele>
        <time>2019-03-01T09:52:27Z</time>
      </trkpt>
      <trkpt lat="43.67593" lon="3.67526">
        <ele>303.481812</ele>
        <time>2019-03-01T09:52:30Z</time>
      </trkpt>
      <trkpt lat="43.67606" lon="3.675">
        <ele>303.42749</ele>
        <time>2019-03-01T09:52:36Z</time>
      </trkpt>
      <trkpt lat="43.67627" lon="3.67441">
        <ele>302.880493</ele>
        <time>2019-03-01T09:52:48Z</time>
      </trkpt>
      <trkpt lat="43.67644" lon="3.6744">
        <ele>303.999939</ele>
        <time>2019-03-01T09:52:54Z</time>
      </trkpt>
      <trkpt lat="43.67651" lon="3.67434">
        <ele>304.01889</ele>
        <time>2019-03-01T09:52:57Z</time>
      </trkpt>
      <trkpt lat="43.67663" lon="3.67392">
        <ele>302.690002</ele>
        <time>2019-03-01T09:53:27Z</time>
      </trkpt>
      <trkpt lat="43.67667" lon="3.67392">
        <ele>302.825012</ele>
        <time>2019-03-01T09:53:33Z</time>
      </trkpt>
      <trkpt lat="43.67679" lon="3.67354">
        <ele>300.839996</ele>
        <time>2019-03-01T09:53:42Z</time>
      </trkpt>
      <trkpt lat="43.67699" lon="3.67252">
        <ele>289.25589</ele>
        <time>2019-03-01T09:53:54Z</time>
      </trkpt>
      <trkpt lat="43.67706" lon="3.67233">
        <ele>287.525696</ele>
        <time>2019-03-01T09:53:57Z</time>
      </trkpt>
      <trkpt lat="43.67707" lon="3.67218">
        <ele>286.413635</ele>
        <time>2019-03-01T09:54:00Z</time>
      </trkpt>
      <trkpt lat="43.67711" lon="3.67208">
        <ele>285.721802</ele>
        <time>2019-03-01T09:54:03Z</time>
      </trkpt>
      <trkpt lat="43.67719" lon="3.67143">
        <ele>281.304779</ele>
        <time>2019-03-01T09:54:12Z</time>
      </trkpt>
      <trkpt lat="43.67746" lon="3.67007">
        <ele>271.170288</ele>
        <time>2019-03-01T09:54:27Z</time>
      </trkpt>
      <trkpt lat="43.67764" lon="3.66934">
        <ele>261.971313</ele>
        <time>2019-03-01T09:54:36Z</time>
      </trkpt>
      <trkpt lat="43.67773" lon="3.66867">
        <ele>250.950119</ele>
        <time>2019-03-01T09:54:45Z</time>
      </trkpt>
      <trkpt lat="43.67786" lon="3.66849">
        <ele>247.990173</ele>
        <time>2019-03-01T09:54:48Z</time>
      </trkpt>
      <trkpt lat="43.67793" lon="3.66821">
        <ele>245.270599</ele>
        <time>2019-03-01T09:54:51Z</time>
      </trkpt>
      <trkpt lat="43.67807" lon="3.66797">
        <ele>243.043045</ele>
        <time>2019-03-01T09:54:54Z</time>
      </trkpt>
      <trkpt lat="43.67811" lon="3.66763">
        <ele>241.176331</ele>
        <time>2019-03-01T09:55:00Z</time>
      </trkpt>
      <trkpt lat="43.67796" lon="3.66728">
        <ele>238.869003</ele>
        <time>2019-03-01T09:55:27Z</time>
      </trkpt>
      <trkpt lat="43.67792" lon="3.66729">
        <ele>238.859558</ele>
        <time>2019-03-01T09:55:40Z</time>
      </trkpt>
      <trkpt lat="43.67793" lon="3.66707">
        <ele>237.393997</ele>
        <time>2019-03-01T09:55:51Z</time>
      </trkpt>
      <trkpt lat="43.67792" lon="3.66695">
        <ele>236.566147</ele>
        <time>2019-03-01T09:55:53Z</time>
      </trkpt>
      <trkpt lat="43.67802" lon="3.66583">
        <ele>228.713043</ele>
        <time>2019-03-01T09:56:07Z</time>
      </trkpt>
      <trkpt lat="43.6779" lon="3.66537">
        <ele>226.402603</ele>
        <time>2019-03-01T09:56:13Z</time>
      </trkpt>
      <trkpt lat="43.67781" lon="3.66522">
        <ele>226.03653</ele>
        <time>2019-03-01T09:56:15Z</time>
      </trkpt>
      <trkpt lat="43.67769" lon="3.66465">
        <ele>223.681595</ele>
        <time>2019-03-01T09:56:21Z</time>
      </trkpt>
      <trkpt lat="43.67771" lon="3.66441">
        <ele>222.302994</ele>
        <time>2019-03-01T09:56:23Z</time>
      </trkpt>
      <trkpt lat="43.6777" lon="3.66379">
        <ele>219.962494</ele>
        <time>2019-03-01T09:56:29Z</time>
      </trkpt>
      <trkpt lat="43.67774" lon="3.66322">
        <ele>218.463837</ele>
        <time>2019-03-01T09:56:34Z</time>
      </trkpt>
      <trkpt lat="43.67781" lon="3.66282">
        <ele>217.589951</ele>
        <time>2019-03-01T09:56:40Z</time>
      </trkpt>
      <trkpt lat="43.67793" lon="3.66241">
        <ele>217.148758</ele>
        <time>2019-03-01T09:56:46Z</time>
      </trkpt>
      <trkpt lat="43.67794" lon="3.6622">
        <ele>216.53009</ele>
        <time>2019-03-01T09:56:48Z</time>
      </trkpt>
      <trkpt lat="43.67797" lon="3.66206">
        <ele>216.167557</ele>
        <time>2019-03-01T09:56:50Z</time>
      </trkpt>
      <trkpt lat="43.67803" lon="3.66198">
        <ele>216.075668</ele>
        <time>2019-03-01T09:56:52Z</time>
      </trkpt>
      <trkpt lat="43.67817" lon="3.6619">
        <ele>216.131668</ele>
        <time>2019-03-01T09:56:56Z</time>
      </trkpt>
      <trkpt lat="43.67824" lon="3.6619">
        <ele>216.327911</ele>
        <time>2019-03-01T09:56:58Z</time>
      </trkpt>
      <trkpt lat="43.67862" lon="3.66176">
        <ele>216.547501</ele>
        <time>2019-03-01T09:57:14Z</time>
      </trkpt>
      <trkpt lat="43.67862" lon="3.66179">
        <ele>216.597076</ele>
        <time>2019-03-01T09:57:18Z</time>
      </trkpt>
      <trkpt lat="43.67914" lon="3.66155">
        <ele>216.894669</ele>
        <time>2019-03-01T09:57:35Z</time>
      </trkpt>
      <trkpt lat="43.6793" lon="3.66145">
        <ele>217</ele>
        <time>2019-03-01T09:57:38Z</time>
      </trkpt>
      <trkpt lat="43.67937" lon="3.66132">
        <ele>217</ele>
        <time>2019-03-01T09:57:40Z</time>
      </trkpt>
      <trkpt lat="43.67946" lon="3.66123">
        <ele>217</ele>
        <time>2019-03-01T09:57:42Z</time>
      </trkpt>
      <trkpt lat="43.67955" lon="3.661">
        <ele>217.892502</ele>
        <time>2019-03-01T09:57:46Z</time>
      </trkpt>
      <trkpt lat="43.67957" lon="3.66083">
        <ele>218.721252</ele>
        <time>2019-03-01T09:57:49Z</time>
      </trkpt>
      <trkpt lat="43.67958" lon="3.66026">
        <ele>222.277847</ele>
        <time>2019-03-01T09:58:00Z</time>
      </trkpt>
      <trkpt lat="43.67961" lon="3.66017">
        <ele>223.044342</ele>
        <time>2019-03-01T09:58:02Z</time>
      </trkpt>
      <trkpt lat="43.67969" lon="3.66007">
        <ele>223.948425</ele>
        <time>2019-03-01T09:58:05Z</time>
      </trkpt>
      <trkpt lat="43.67987" lon="3.65994">
        <ele>225.12793</ele>
        <time>2019-03-01T09:58:10Z</time>
      </trkpt>
      <trkpt lat="43.68007" lon="3.65974">
        <ele>227.684311</ele>
        <time>2019-03-01T09:58:16Z</time>
      </trkpt>
      <trkpt lat="43.6804" lon="3.65956">
        <ele>231.691162</ele>
        <time>2019-03-01T09:58:31Z</time>
      </trkpt>
      <trkpt lat="43.68025" lon="3.65951">
        <ele>231.35527</ele>
        <time>2019-03-01T09:58:37Z</time>
      </trkpt>
      <trkpt lat="43.68013" lon="3.65943">
        <ele>231.780197</ele>
        <time>2019-03-01T09:58:40Z</time>
      </trkpt>
      <trkpt lat="43.67921" lon="3.65905">
        <ele>233.492661</ele>
        <time>2019-03-01T09:58:58Z</time>
      </trkpt>
      <trkpt lat="43.6786" lon="3.65862">
        <ele>233.197495</ele>
        <time>2019-03-01T09:59:09Z</time>
      </trkpt>
      <trkpt lat="43.67826" lon="3.65847">
        <ele>231.380386</ele>
        <time>2019-03-01T09:59:14Z</time>
      </trkpt>
      <trkpt lat="43.67758" lon="3.65789">
        <ele>229.595001</ele>
        <time>2019-03-01T09:59:24Z</time>
      </trkpt>
      <trkpt lat="43.67741" lon="3.6579">
        <ele>227.035004</ele>
        <time>2019-03-01T09:59:26Z</time>
      </trkpt>
      <trkpt lat="43.67727" lon="3.65782">
        <ele>226.25</ele>
        <time>2019-03-01T09:59:28Z</time>
      </trkpt>
      <trkpt lat="43.67687" lon="3.65772">
        <ele>223.067078</ele>
        <time>2019-03-01T09:59:33Z</time>
      </trkpt>
      <trkpt lat="43.67673" lon="3.65763">
        <ele>222.71077</ele>
        <time>2019-03-01T09:59:35Z</time>
      </trkpt>
      <trkpt lat="43.67661" lon="3.65751">
        <ele>222.68045</ele>
        <time>2019-03-01T09:59:37Z</time>
      </trkpt>
      <trkpt lat="43.67596" lon="3.65667">
        <ele>221.824997</ele>
        <time>2019-03-01T09:59:48Z</time>
      </trkpt>
      <trkpt lat="43.6755" lon="3.65624">
        <ele>219.979507</ele>
        <time>2019-03-01T09:59:55Z</time>
      </trkpt>
      <trkpt lat="43.67489" lon="3.65531">
        <ele>216.014999</ele>
        <time>2019-03-01T10:00:07Z</time>
      </trkpt>
      <trkpt lat="43.67456" lon="3.65492">
        <ele>212.761246</ele>
        <time>2019-03-01T10:00:13Z</time>
      </trkpt>
      <trkpt lat="43.6743" lon="3.65468">
        <ele>210.963715</ele>
        <time>2019-03-01T10:00:19Z</time>
      </trkpt>
      <trkpt lat="43.67425" lon="3.6546">
        <ele>210.854797</ele>
        <time>2019-03-01T10:00:22Z</time>
      </trkpt>
      <trkpt lat="43.67429" lon="3.65449">
        <ele>211.685577</ele>
        <time>2019-03-01T10:00:25Z</time>
      </trkpt>
      <trkpt lat="43.6746" lon="3.65428">
        <ele>214.82019</ele>
        <time>2019-03-01T10:00:37Z</time>
      </trkpt>
      <trkpt lat="43.67498" lon="3.65389">
        <ele>219.722534</ele>
        <time>2019-03-01T10:00:52Z</time>
      </trkpt>
      <trkpt lat="43.6755" lon="3.65354">
        <ele>223.082443</ele>
        <time>2019-03-01T10:01:07Z</time>
      </trkpt>
      <trkpt lat="43.67582" lon="3.65337">
        <ele>226.665024</ele>
        <time>2019-03-01T10:01:18Z</time>
      </trkpt>
      <trkpt lat="43.67606" lon="3.65335">
        <ele>227.896301</ele>
        <time>2019-03-01T10:01:27Z</time>
      </trkpt>
      <trkpt lat="43.67632" lon="3.65321">
        <ele>229.68573</ele>
        <time>2019-03-01T10:01:36Z</time>
      </trkpt>
      <trkpt lat="43.67643" lon="3.65321">
        <ele>230.084793</ele>
        <time>2019-03-01T10:01:39Z</time>
      </trkpt>
      <trkpt lat="43.67652" lon="3.65318">
        <ele>230.498276</ele>
        <time>2019-03-01T10:01:42Z</time>
      </trkpt>
      <trkpt lat="43.67669" lon="3.6532">
        <ele>231.173492</ele>
        <time>2019-03-01T10:01:47Z</time>
      </trkpt>
      <trkpt lat="43.67704" lon="3.65306">
        <ele>233.466003</ele>
        <time>2019-03-01T10:02:00Z</time>
      </trkpt>
      <trkpt lat="43.67708" lon="3.65307">
        <ele>233.774506</ele>
        <time>2019-03-01T10:02:02Z</time>
      </trkpt>
      <trkpt lat="43.67713" lon="3.65304">
        <ele>233.990387</ele>
        <time>2019-03-01T10:02:04Z</time>
      </trkpt>
      <trkpt lat="43.67719" lon="3.65285">
        <ele>233.851059</ele>
        <time>2019-03-01T10:02:10Z</time>
      </trkpt>
      <trkpt lat="43.6772" lon="3.65275">
        <ele>233.648605</ele>
        <time>2019-03-01T10:02:16Z</time>
      </trkpt>
      <trkpt lat="43.67727" lon="3.65275">
        <ele>233.791168</ele>
        <time>2019-03-01T10:02:40Z</time>
      </trkpt>
      <trkpt lat="43.67726" lon="3.65271">
        <ele>233.658081</ele>
        <time>2019-03-01T10:02:51Z</time>
      </trkpt>
      <trkpt lat="43.6771" lon="3.65269">
        <ele>233.356995</ele>
        <time>2019-03-01T10:03:00Z</time>
      </trkpt>
      <trkpt lat="43.67706" lon="3.65262">
        <ele>233.260406</ele>
        <time>2019-03-01T10:03:22Z</time>
      </trkpt>
      <trkpt lat="43.67703" lon="3.65263">
        <ele>233.255814</ele>
        <time>2019-03-01T10:03:28Z</time>
      </trkpt>
      <trkpt lat="43.67705" lon="3.65258">
        <ele>233.233368</ele>
        <time>2019-03-01T10:03:38Z</time>
      </trkpt>
      <trkpt lat="43.67702" lon="3.65262">
        <ele>233.2509</ele>
        <time>2019-03-01T10:03:53Z</time>
      </trkpt>
      <trkpt lat="43.67702" lon="3.65248">
        <ele>233.235733</ele>
        <time>2019-03-01T10:04:02Z</time>
      </trkpt>
      <trkpt lat="43.67693" lon="3.65227">
        <ele>233.146255</ele>
        <time>2019-03-01T10:04:08Z</time>
      </trkpt>
      <trkpt lat="43.67666" lon="3.65197">
        <ele>233.29361</ele>
        <time>2019-03-01T10:04:17Z</time>
      </trkpt>
      <trkpt lat="43.67664" lon="3.65187">
        <ele>233.256378</ele>
        <time>2019-03-01T10:04:19Z</time>
      </trkpt>
      <trkpt lat="43.67619" lon="3.65126">
        <ele>232.600006</ele>
        <time>2019-03-01T10:04:36Z</time>
      </trkpt>
      <trkpt lat="43.67605" lon="3.6511">
        <ele>232.154999</ele>
        <time>2019-03-01T10:04:41Z</time>
      </trkpt>
      <trkpt lat="43.676" lon="3.65096">
        <ele>231.038742</ele>
        <time>2019-03-01T10:04:44Z</time>
      </trkpt>
      <trkpt lat="43.67569" lon="3.65043">
        <ele>226.854401</ele>
        <time>2019-03-01T10:04:57Z</time>
      </trkpt>
      <trkpt lat="43.67513" lon="3.64972">
        <ele>223.756256</ele>
        <time>2019-03-01T10:05:14Z</time>
      </trkpt>
      <trkpt lat="43.67499" lon="3.64948">
        <ele>222.797501</ele>
        <time>2019-03-01T10:05:20Z</time>
      </trkpt>
      <trkpt lat="43.67501" lon="3.64942">
        <ele>222.171249</ele>
        <time>2019-03-01T10:05:26Z</time>
      </trkpt>
      <trkpt lat="43.67492" lon="3.64936">
        <ele>222.345001</ele>
        <time>2019-03-01T10:05:29Z</time>
      </trkpt>
      <trkpt lat="43.67464" lon="3.64901">
        <ele>224.466797</ele>
        <time>2019-03-01T10:05:37Z</time>
      </trkpt>
      <trkpt lat="43.6746" lon="3.64893">
        <ele>224.721619</ele>
        <time>2019-03-01T10:05:39Z</time>
      </trkpt>
      <trkpt lat="43.67452" lon="3.64884">
        <ele>225.670273</ele>
        <time>2019-03-01T10:05:42Z</time>
      </trkpt>
      <trkpt lat="43.67445" lon="3.64871">
        <ele>226.21907</ele>
        <time>2019-03-01T10:05:45Z</time>
      </trkpt>
      <trkpt lat="43.67436" lon="3.64865">
        <ele>226.759689</ele>
        <time>2019-03-01T10:05:47Z</time>
      </trkpt>
      <trkpt lat="43.67421" lon="3.64841">
        <ele>227.943741</ele>
        <time>2019-03-01T10:05:55Z</time>
      </trkpt>
      <trkpt lat="43.67403" lon="3.64829">
        <ele>228.976105</ele>
        <time>2019-03-01T10:06:01Z</time>
      </trkpt>
      <trkpt lat="43.67394" lon="3.64826">
        <ele>228.940033</ele>
        <time>2019-03-01T10:06:04Z</time>
      </trkpt>
      <trkpt lat="43.67375" lon="3.64812">
        <ele>228.523438</ele>
        <time>2019-03-01T10:06:12Z</time>
      </trkpt>
      <trkpt lat="43.67339" lon="3.64796">
        <ele>227.777939</ele>
        <time>2019-03-01T10:06:23Z</time>
      </trkpt>
      <trkpt lat="43.67301" lon="3.64809">
        <ele>228.052917</ele>
        <time>2019-03-01T10:06:33Z</time>
      </trkpt>
      <trkpt lat="43.67265" lon="3.64816">
        <ele>227.914993</ele>
        <time>2019-03-01T10:06:41Z</time>
      </trkpt>
      <trkpt lat="43.67229" lon="3.64804">
        <ele>227.195007</ele>
        <time>2019-03-01T10:06:50Z</time>
      </trkpt>
      <trkpt lat="43.67206" lon="3.64801">
        <ele>227.014999</ele>
        <time>2019-03-01T10:06:55Z</time>
      </trkpt>
      <trkpt lat="43.6717" lon="3.64789">
        <ele>226.193909</ele>
        <time>2019-03-01T10:07:04Z</time>
      </trkpt>
      <trkpt lat="43.67135" lon="3.64772">
        <ele>225.263138</ele>
        <time>2019-03-01T10:07:12Z</time>
      </trkpt>
      <trkpt lat="43.67116" lon="3.64769">
        <ele>225.059998</ele>
        <time>2019-03-01T10:07:15Z</time>
      </trkpt>
      <trkpt lat="43.67049" lon="3.64736">
        <ele>223.962006</ele>
        <time>2019-03-01T10:07:26Z</time>
      </trkpt>
      <trkpt lat="43.67034" lon="3.64725">
        <ele>223.619995</ele>
        <time>2019-03-01T10:07:29Z</time>
      </trkpt>
      <trkpt lat="43.6698" lon="3.64698">
        <ele>223.550003</ele>
        <time>2019-03-01T10:07:40Z</time>
      </trkpt>
      <trkpt lat="43.66956" lon="3.64688">
        <ele>224.070007</ele>
        <time>2019-03-01T10:07:45Z</time>
      </trkpt>
      <trkpt lat="43.66911" lon="3.64629">
        <ele>223.020004</ele>
        <time>2019-03-01T10:07:56Z</time>
      </trkpt>
      <trkpt lat="43.6691" lon="3.6461">
        <ele>222.142975</ele>
        <time>2019-03-01T10:07:59Z</time>
      </trkpt>
      <trkpt lat="43.66918" lon="3.64601">
        <ele>221.331253</ele>
        <time>2019-03-01T10:08:01Z</time>
      </trkpt>
      <trkpt lat="43.66932" lon="3.64593">
        <ele>220.316254</ele>
        <time>2019-03-01T10:08:04Z</time>
      </trkpt>
      <trkpt lat="43.66967" lon="3.64585">
        <ele>218.458557</ele>
        <time>2019-03-01T10:08:10Z</time>
      </trkpt>
      <trkpt lat="43.6703" lon="3.64557">
        <ele>215.615005</ele>
        <time>2019-03-01T10:08:21Z</time>
      </trkpt>
      <trkpt lat="43.67077" lon="3.6452">
        <ele>213.352509</ele>
        <time>2019-03-01T10:08:29Z</time>
      </trkpt>
      <trkpt lat="43.67132" lon="3.64482">
        <ele>210.860001</ele>
        <time>2019-03-01T10:08:40Z</time>
      </trkpt>
      <trkpt lat="43.6715" lon="3.64474">
        <ele>210.29187</ele>
        <time>2019-03-01T10:08:43Z</time>
      </trkpt>
      <trkpt lat="43.67187" lon="3.64451">
        <ele>209.363754</ele>
        <time>2019-03-01T10:08:50Z</time>
      </trkpt>
      <trkpt lat="43.67222" lon="3.64417">
        <ele>208.587494</ele>
        <time>2019-03-01T10:08:56Z</time>
      </trkpt>
      <trkpt lat="43.67236" lon="3.64408">
        <ele>208.472504</ele>
        <time>2019-03-01T10:08:58Z</time>
      </trkpt>
      <trkpt lat="43.67275" lon="3.64397">
        <ele>208.954742</ele>
        <time>2019-03-01T10:09:04Z</time>
      </trkpt>
      <trkpt lat="43.67332" lon="3.64393">
        <ele>210.523712</ele>
        <time>2019-03-01T10:09:14Z</time>
      </trkpt>
      <trkpt lat="43.67385" lon="3.64395">
        <ele>212.485001</ele>
        <time>2019-03-01T10:09:24Z</time>
      </trkpt>
      <trkpt lat="43.67434" lon="3.64381">
        <ele>213.226898</ele>
        <time>2019-03-01T10:09:35Z</time>
      </trkpt>
      <trkpt lat="43.67492" lon="3.64356">
        <ele>212.936493</ele>
        <time>2019-03-01T10:09:47Z</time>
      </trkpt>
      <trkpt lat="43.67525" lon="3.64347">
        <ele>212.418198</ele>
        <time>2019-03-01T10:09:53Z</time>
      </trkpt>
      <trkpt lat="43.67541" lon="3.64338">
        <ele>211.625061</ele>
        <time>2019-03-01T10:09:56Z</time>
      </trkpt>
      <trkpt lat="43.67607" lon="3.64285">
        <ele>208.127502</ele>
        <time>2019-03-01T10:10:08Z</time>
      </trkpt>
      <trkpt lat="43.67624" lon="3.64277">
        <ele>207.613754</ele>
        <time>2019-03-01T10:10:11Z</time>
      </trkpt>
      <trkpt lat="43.67643" lon="3.64276">
        <ele>207.368744</ele>
        <time>2019-03-01T10:10:14Z</time>
      </trkpt>
      <trkpt lat="43.67695" lon="3.64257">
        <ele>206.706253</ele>
        <time>2019-03-01T10:10:23Z</time>
      </trkpt>
      <trkpt lat="43.67761" lon="3.64224">
        <ele>205.483749</ele>
        <time>2019-03-01T10:10:35Z</time>
      </trkpt>
      <trkpt lat="43.67865" lon="3.64194">
        <ele>203.964996</ele>
        <time>2019-03-01T10:10:53Z</time>
      </trkpt>
      <trkpt lat="43.67883" lon="3.64198">
        <ele>203.99292</ele>
        <time>2019-03-01T10:10:56Z</time>
      </trkpt>
      <trkpt lat="43.67918" lon="3.64195">
        <ele>203.691788</ele>
        <time>2019-03-01T10:11:02Z</time>
      </trkpt>
      <trkpt lat="43.68027" lon="3.64168">
        <ele>200.571136</ele>
        <time>2019-03-01T10:11:20Z</time>
      </trkpt>
      <trkpt lat="43.68096" lon="3.64161">
        <ele>196.338608</ele>
        <time>2019-03-01T10:11:29Z</time>
      </trkpt>
      <trkpt lat="43.68222" lon="3.64165">
        <ele>195.910751</ele>
        <time>2019-03-01T10:11:47Z</time>
      </trkpt>
      <trkpt lat="43.68267" lon="3.64177">
        <ele>198.057205</ele>
        <time>2019-03-01T10:11:56Z</time>
      </trkpt>
      <trkpt lat="43.68282" lon="3.64176">
        <ele>197.450363</ele>
        <time>2019-03-01T10:11:59Z</time>
      </trkpt>
      <trkpt lat="43.68315" lon="3.64149">
        <ele>195.184235</ele>
        <time>2019-03-01T10:12:05Z</time>
      </trkpt>
      <trkpt lat="43.68416" lon="3.64078">
        <ele>194.852463</ele>
        <time>2019-03-01T10:12:23Z</time>
      </trkpt>
      <trkpt lat="43.68442" lon="3.6407">
        <ele>196.462906</ele>
        <time>2019-03-01T10:12:29Z</time>
      </trkpt>
      <trkpt lat="43.68464" lon="3.64044">
        <ele>197.501251</ele>
        <time>2019-03-01T10:12:35Z</time>
      </trkpt>
      <trkpt lat="43.68488" lon="3.64027">
        <ele>198.827499</ele>
        <time>2019-03-01T10:12:41Z</time>
      </trkpt>
      <trkpt lat="43.68519" lon="3.63987">
        <ele>199.992737</ele>
        <time>2019-03-01T10:12:50Z</time>
      </trkpt>
      <trkpt lat="43.68532" lon="3.63976">
        <ele>200.698456</ele>
        <time>2019-03-01T10:12:53Z</time>
      </trkpt>
      <trkpt lat="43.68564" lon="3.63909">
        <ele>202.550949</ele>
        <time>2019-03-01T10:13:05Z</time>
      </trkpt>
      <trkpt lat="43.68575" lon="3.63874">
        <ele>203.205536</ele>
        <time>2019-03-01T10:13:11Z</time>
      </trkpt>
      <trkpt lat="43.68594" lon="3.63828">
        <ele>204.227493</ele>
        <time>2019-03-01T10:13:20Z</time>
      </trkpt>
      <trkpt lat="43.68602" lon="3.63794">
        <ele>204.404999</ele>
        <time>2019-03-01T10:13:26Z</time>
      </trkpt>
      <trkpt lat="43.6861" lon="3.63779">
        <ele>204.566254</ele>
        <time>2019-03-01T10:13:29Z</time>
      </trkpt>
      <trkpt lat="43.68654" lon="3.63734">
        <ele>204.782501</ele>
        <time>2019-03-01T10:13:41Z</time>
      </trkpt>
      <trkpt lat="43.68676" lon="3.63694">
        <ele>205.051559</ele>
        <time>2019-03-01T10:13:47Z</time>
      </trkpt>
      <trkpt lat="43.6869" lon="3.63676">
        <ele>205.42128</ele>
        <time>2019-03-01T10:13:50Z</time>
      </trkpt>
      <trkpt lat="43.68705" lon="3.63663">
        <ele>205.720245</ele>
        <time>2019-03-01T10:13:53Z</time>
      </trkpt>
      <trkpt lat="43.68742" lon="3.6361">
        <ele>205.694992</ele>
        <time>2019-03-01T10:14:02Z</time>
      </trkpt>
      <trkpt lat="43.68773" lon="3.63551">
        <ele>205.373749</ele>
        <time>2019-03-01T10:14:11Z</time>
      </trkpt>
      <trkpt lat="43.68804" lon="3.63469">
        <ele>204.012115</ele>
        <time>2019-03-01T10:14:26Z</time>
      </trkpt>
      <trkpt lat="43.68814" lon="3.63456">
        <ele>203.372559</ele>
        <time>2019-03-01T10:14:29Z</time>
      </trkpt>
      <trkpt lat="43.68827" lon="3.63461">
        <ele>203.167023</ele>
        <time>2019-03-01T10:14:32Z</time>
      </trkpt>
      <trkpt lat="43.6885" lon="3.6348">
        <ele>203.317505</ele>
        <time>2019-03-01T10:14:38Z</time>
      </trkpt>
      <trkpt lat="43.68859" lon="3.63472">
        <ele>202.721985</ele>
        <time>2019-03-01T10:14:41Z</time>
      </trkpt>
      <trkpt lat="43.68861" lon="3.6345">
        <ele>201.510483</ele>
        <time>2019-03-01T10:14:44Z</time>
      </trkpt>
      <trkpt lat="43.68856" lon="3.63425">
        <ele>200.617691</ele>
        <time>2019-03-01T10:14:47Z</time>
      </trkpt>
      <trkpt lat="43.68836" lon="3.63381">
        <ele>199.127975</ele>
        <time>2019-03-01T10:14:53Z</time>
      </trkpt>
      <trkpt lat="43.6881" lon="3.63339">
        <ele>198.462494</ele>
        <time>2019-03-01T10:14:59Z</time>
      </trkpt>
      <trkpt lat="43.68796" lon="3.63322">
        <ele>198.384995</ele>
        <time>2019-03-01T10:15:02Z</time>
      </trkpt>
      <trkpt lat="43.68789" lon="3.63288">
        <ele>196.697144</ele>
        <time>2019-03-01T10:15:08Z</time>
      </trkpt>
      <trkpt lat="43.68789" lon="3.6328">
        <ele>195.957565</ele>
        <time>2019-03-01T10:15:11Z</time>
      </trkpt>
      <trkpt lat="43.68803" lon="3.63276">
        <ele>194.8647</ele>
        <time>2019-03-01T10:15:34Z</time>
      </trkpt>
      <trkpt lat="43.68801" lon="3.63275">
        <ele>194.896881</ele>
        <time>2019-03-01T10:15:40Z</time>
      </trkpt>
      <trkpt lat="43.68815" lon="3.63261">
        <ele>193.215973</ele>
        <time>2019-03-01T10:16:00Z</time>
      </trkpt>
      <trkpt lat="43.68865" lon="3.63253">
        <ele>190.925201</ele>
        <time>2019-03-01T10:16:09Z</time>
      </trkpt>
      <trkpt lat="43.68876" lon="3.63239">
        <ele>189.735397</ele>
        <time>2019-03-01T10:16:12Z</time>
      </trkpt>
      <trkpt lat="43.68887" lon="3.63218">
        <ele>188.408737</ele>
        <time>2019-03-01T10:16:15Z</time>
      </trkpt>
      <trkpt lat="43.68896" lon="3.63193">
        <ele>187.144073</ele>
        <time>2019-03-01T10:16:18Z</time>
      </trkpt>
      <trkpt lat="43.68929" lon="3.63165">
        <ele>185.497498</ele>
        <time>2019-03-01T10:16:24Z</time>
      </trkpt>
      <trkpt lat="43.68938" lon="3.63143">
        <ele>185.289993</ele>
        <time>2019-03-01T10:16:27Z</time>
      </trkpt>
      <trkpt lat="43.68941" lon="3.63121">
        <ele>185.229996</ele>
        <time>2019-03-01T10:16:30Z</time>
      </trkpt>
      <trkpt lat="43.68942" lon="3.63096">
        <ele>185.189392</ele>
        <time>2019-03-01T10:16:33Z</time>
      </trkpt>
      <trkpt lat="43.68945" lon="3.63071">
        <ele>185.067917</ele>
        <time>2019-03-01T10:16:36Z</time>
      </trkpt>
      <trkpt lat="43.68964" lon="3.63012">
        <ele>185.535004</ele>
        <time>2019-03-01T10:16:44Z</time>
      </trkpt>
      <trkpt lat="43.68992" lon="3.62949">
        <ele>186.472214</ele>
        <time>2019-03-01T10:16:54Z</time>
      </trkpt>
      <trkpt lat="43.69033" lon="3.62903">
        <ele>187.543503</ele>
        <time>2019-03-01T10:17:04Z</time>
      </trkpt>
      <trkpt lat="43.69055" lon="3.6287">
        <ele>188.922943</ele>
        <time>2019-03-01T10:17:10Z</time>
      </trkpt>
      <trkpt lat="43.69064" lon="3.62844">
        <ele>190.59903</ele>
        <time>2019-03-01T10:17:14Z</time>
      </trkpt>
      <trkpt lat="43.69075" lon="3.62788">
        <ele>195.441467</ele>
        <time>2019-03-01T10:17:26Z</time>
      </trkpt>
      <trkpt lat="43.69072" lon="3.6278">
        <ele>195.743637</ele>
        <time>2019-03-01T10:17:28Z</time>
      </trkpt>
      <trkpt lat="43.69086" lon="3.62732">
        <ele>199.839996</ele>
        <time>2019-03-01T10:17:38Z</time>
      </trkpt>
      <trkpt lat="43.69133" lon="3.62656">
        <ele>202.876862</ele>
        <time>2019-03-01T10:18:01Z</time>
      </trkpt>
      <trkpt lat="43.69138" lon="3.62644">
        <ele>203</ele>
        <time>2019-03-01T10:18:04Z</time>
      </trkpt>
      <trkpt lat="43.6914" lon="3.62584">
        <ele>202.055145</ele>
        <time>2019-03-01T10:18:16Z</time>
      </trkpt>
      <trkpt lat="43.69156" lon="3.62531">
        <ele>200.588745</ele>
        <time>2019-03-01T10:18:25Z</time>
      </trkpt>
      <trkpt lat="43.69165" lon="3.62515">
        <ele>200.541245</ele>
        <time>2019-03-01T10:18:28Z</time>
      </trkpt>
      <trkpt lat="43.69199" lon="3.62469">
        <ele>201.088608</ele>
        <time>2019-03-01T10:18:37Z</time>
      </trkpt>
      <trkpt lat="43.69249" lon="3.62424">
        <ele>199.413193</ele>
        <time>2019-03-01T10:18:49Z</time>
      </trkpt>
      <trkpt lat="43.69275" lon="3.62406">
        <ele>199.721771</ele>
        <time>2019-03-01T10:18:55Z</time>
      </trkpt>
      <trkpt lat="43.69296" lon="3.6238">
        <ele>197.96843</ele>
        <time>2019-03-01T10:19:01Z</time>
      </trkpt>
      <trkpt lat="43.6933" lon="3.62318">
        <ele>200.150543</ele>
        <time>2019-03-01T10:19:13Z</time>
      </trkpt>
      <trkpt lat="43.69362" lon="3.6227">
        <ele>199.587051</ele>
        <time>2019-03-01T10:19:25Z</time>
      </trkpt>
      <trkpt lat="43.69373" lon="3.62243">
        <ele>200.619537</ele>
        <time>2019-03-01T10:19:31Z</time>
      </trkpt>
      <trkpt lat="43.69389" lon="3.62219">
        <ele>198.485672</ele>
        <time>2019-03-01T10:19:37Z</time>
      </trkpt>
      <trkpt lat="43.69419" lon="3.62157">
        <ele>197.095505</ele>
        <time>2019-03-01T10:19:49Z</time>
      </trkpt>
      <trkpt lat="43.69479" lon="3.6201">
        <ele>193.620224</ele>
        <time>2019-03-01T10:20:13Z</time>
      </trkpt>
      <trkpt lat="43.69493" lon="3.61984">
        <ele>192.862961</ele>
        <time>2019-03-01T10:20:19Z</time>
      </trkpt>
      <trkpt lat="43.69496" lon="3.61986">
        <ele>192.855316</ele>
        <time>2019-03-01T10:20:27Z</time>
      </trkpt>
      <trkpt lat="43.69492" lon="3.61961">
        <ele>192.399246</ele>
        <time>2019-03-01T10:20:42Z</time>
      </trkpt>
      <trkpt lat="43.69464" lon="3.61892">
        <ele>190.367905</ele>
        <time>2019-03-01T10:20:54Z</time>
      </trkpt>
      <trkpt lat="43.69458" lon="3.61871">
        <ele>189.679993</ele>
        <time>2019-03-01T10:20:57Z</time>
      </trkpt>
      <trkpt lat="43.69455" lon="3.61822">
        <ele>188.029999</ele>
        <time>2019-03-01T10:21:03Z</time>
      </trkpt>
      <trkpt lat="43.69459" lon="3.61775">
        <ele>186.592499</ele>
        <time>2019-03-01T10:21:09Z</time>
      </trkpt>
      <trkpt lat="43.69458" lon="3.61758">
        <ele>186</ele>
        <time>2019-03-01T10:21:12Z</time>
      </trkpt>
      <trkpt lat="43.69464" lon="3.61726">
        <ele>184.574997</ele>
        <time>2019-03-01T10:21:18Z</time>
      </trkpt>
      <trkpt lat="43.69471" lon="3.61713">
        <ele>183.783752</ele>
        <time>2019-03-01T10:21:21Z</time>
      </trkpt>
      <trkpt lat="43.69483" lon="3.61644">
        <ele>180.633667</ele>
        <time>2019-03-01T10:21:33Z</time>
      </trkpt>
      <trkpt lat="43.6949" lon="3.61633">
        <ele>179.871796</ele>
        <time>2019-03-01T10:21:36Z</time>
      </trkpt>
      <trkpt lat="43.69492" lon="3.61611">
        <ele>178.623642</ele>
        <time>2019-03-01T10:21:48Z</time>
      </trkpt>
      <trkpt lat="43.69495" lon="3.61607">
        <ele>178.255386</ele>
        <time>2019-03-01T10:21:57Z</time>
      </trkpt>
      <trkpt lat="43.69492" lon="3.61597">
        <ele>177.866043</ele>
        <time>2019-03-01T10:22:03Z</time>
      </trkpt>
      <trkpt lat="43.69467" lon="3.61564">
        <ele>176.244766</ele>
        <time>2019-03-01T10:22:12Z</time>
      </trkpt>
      <trkpt lat="43.69453" lon="3.61541">
        <ele>174.01152</ele>
        <time>2019-03-01T10:22:18Z</time>
      </trkpt>
      <trkpt lat="43.69432" lon="3.61522">
        <ele>173.037201</ele>
        <time>2019-03-01T10:22:24Z</time>
      </trkpt>
      <trkpt lat="43.69427" lon="3.6149">
        <ele>169.208969</ele>
        <time>2019-03-01T10:22:30Z</time>
      </trkpt>
      <trkpt lat="43.69413" lon="3.61466">
        <ele>166.854645</ele>
        <time>2019-03-01T10:22:36Z</time>
      </trkpt>
      <trkpt lat="43.69408" lon="3.61451">
        <ele>165.550858</ele>
        <time>2019-03-01T10:22:39Z</time>
      </trkpt>
      <trkpt lat="43.69407" lon="3.61412">
        <ele>162.450516</ele>
        <time>2019-03-01T10:22:45Z</time>
      </trkpt>
      <trkpt lat="43.69397" lon="3.61374">
        <ele>161.144745</ele>
        <time>2019-03-01T10:22:51Z</time>
      </trkpt>
      <trkpt lat="43.69398" lon="3.61332">
        <ele>157.891235</ele>
        <time>2019-03-01T10:22:57Z</time>
      </trkpt>
      <trkpt lat="43.69394" lon="3.61306">
        <ele>156.728287</ele>
        <time>2019-03-01T10:23:00Z</time>
      </trkpt>
      <trkpt lat="43.69401" lon="3.61194">
        <ele>148.037399</ele>
        <time>2019-03-01T10:23:12Z</time>
      </trkpt>
      <trkpt lat="43.69398" lon="3.61147">
        <ele>146.001511</ele>
        <time>2019-03-01T10:23:18Z</time>
      </trkpt>
      <trkpt lat="43.69381" lon="3.61072">
        <ele>145.887421</ele>
        <time>2019-03-01T10:23:27Z</time>
      </trkpt>
      <trkpt lat="43.69376" lon="3.6106">
        <ele>144.156143</ele>
        <time>2019-03-01T10:23:30Z</time>
      </trkpt>
      <trkpt lat="43.69358" lon="3.61037">
        <ele>141.973068</ele>
        <time>2019-03-01T10:23:36Z</time>
      </trkpt>
      <trkpt lat="43.69349" lon="3.61028">
        <ele>141.62262</ele>
        <time>2019-03-01T10:23:39Z</time>
      </trkpt>
      <trkpt lat="43.69326" lon="3.6102">
        <ele>142.431412</ele>
        <time>2019-03-01T10:23:45Z</time>
      </trkpt>
      <trkpt lat="43.69294" lon="3.61026">
        <ele>144.643707</ele>
        <time>2019-03-01T10:23:53Z</time>
      </trkpt>
      <trkpt lat="43.69288" lon="3.61022">
        <ele>144.993622</ele>
        <time>2019-03-01T10:23:55Z</time>
      </trkpt>
      <trkpt lat="43.69287" lon="3.61013">
        <ele>143.731506</ele>
        <time>2019-03-01T10:23:57Z</time>
      </trkpt>
      <trkpt lat="43.693" lon="3.60961">
        <ele>137.341599</ele>
        <time>2019-03-01T10:24:07Z</time>
      </trkpt>
      <trkpt lat="43.693" lon="3.60951">
        <ele>136.571899</ele>
        <time>2019-03-01T10:24:09Z</time>
      </trkpt>
      <trkpt lat="43.6932" lon="3.6086">
        <ele>128.569107</ele>
        <time>2019-03-01T10:24:23Z</time>
      </trkpt>
      <trkpt lat="43.69321" lon="3.6082">
        <ele>127.534859</ele>
        <time>2019-03-01T10:24:29Z</time>
      </trkpt>
      <trkpt lat="43.69335" lon="3.60761">
        <ele>119.880669</ele>
        <time>2019-03-01T10:24:39Z</time>
      </trkpt>
      <trkpt lat="43.69335" lon="3.6075">
        <ele>118.563812</ele>
        <time>2019-03-01T10:24:41Z</time>
      </trkpt>
      <trkpt lat="43.69331" lon="3.60723">
        <ele>116.534065</ele>
        <time>2019-03-01T10:24:47Z</time>
      </trkpt>
      <trkpt lat="43.69321" lon="3.60709">
        <ele>116.890175</ele>
        <time>2019-03-01T10:24:51Z</time>
      </trkpt>
      <trkpt lat="43.69314" lon="3.60705">
        <ele>117.917152</ele>
        <time>2019-03-01T10:24:55Z</time>
      </trkpt>
      <trkpt lat="43.69313" lon="3.60701">
        <ele>117.517365</ele>
        <time>2019-03-01T10:24:57Z</time>
      </trkpt>
      <trkpt lat="43.69305" lon="3.60701">
        <ele>119.308601</ele>
        <time>2019-03-01T10:25:45Z</time>
      </trkpt>
      <trkpt lat="43.69307" lon="3.60693">
        <ele>117.464996</ele>
        <time>2019-03-01T10:26:00Z</time>
      </trkpt>
      <trkpt lat="43.69318" lon="3.60683">
        <ele>113.172501</ele>
        <time>2019-03-01T10:26:21Z</time>
      </trkpt>
      <trkpt lat="43.69321" lon="3.60685">
        <ele>112.813751</ele>
        <time>2019-03-01T10:26:26Z</time>
      </trkpt>
      <trkpt lat="43.69318" lon="3.60675">
        <ele>111.407501</ele>
        <time>2019-03-01T10:26:42Z</time>
      </trkpt>
      <trkpt lat="43.69321" lon="3.60677">
        <ele>111.262497</ele>
        <time>2019-03-01T10:26:49Z</time>
      </trkpt>
      <trkpt lat="43.69319" lon="3.60671">
        <ele>110.253746</ele>
        <time>2019-03-01T10:26:56Z</time>
      </trkpt>
      <trkpt lat="43.69322" lon="3.6067">
        <ele>109.567497</ele>
        <time>2019-03-01T10:26:58Z</time>
      </trkpt>
      <trkpt lat="43.69329" lon="3.60677">
        <ele>109.665001</ele>
        <time>2019-03-01T10:27:02Z</time>
      </trkpt>
      <trkpt lat="43.6933" lon="3.60685">
        <ele>111.158752</ele>
        <time>2019-03-01T10:27:04Z</time>
      </trkpt>
      <trkpt lat="43.69351" lon="3.60737">
        <ele>111.876274</ele>
        <time>2019-03-01T10:27:18Z</time>
      </trkpt>
      <trkpt lat="43.69361" lon="3.60781">
        <ele>111.842247</ele>
        <time>2019-03-01T10:27:26Z</time>
      </trkpt>
      <trkpt lat="43.6936" lon="3.60787">
        <ele>112.567955</ele>
        <time>2019-03-01T10:27:28Z</time>
      </trkpt>
      <trkpt lat="43.69363" lon="3.60795">
        <ele>112.116325</ele>
        <time>2019-03-01T10:27:30Z</time>
      </trkpt>
      <trkpt lat="43.69365" lon="3.60814">
        <ele>113.358406</ele>
        <time>2019-03-01T10:27:36Z</time>
      </trkpt>
      <trkpt lat="43.69368" lon="3.60819">
        <ele>112.900253</ele>
        <time>2019-03-01T10:27:38Z</time>
      </trkpt>
      <trkpt lat="43.69371" lon="3.60815">
        <ele>111.459534</ele>
        <time>2019-03-01T10:27:40Z</time>
      </trkpt>
      <trkpt lat="43.69383" lon="3.60783">
        <ele>103.883003</ele>
        <time>2019-03-01T10:27:46Z</time>
      </trkpt>
      <trkpt lat="43.69396" lon="3.6073">
        <ele>98.739548</ele>
        <time>2019-03-01T10:27:54Z</time>
      </trkpt>
      <trkpt lat="43.69394" lon="3.60684">
        <ele>97.033699</ele>
        <time>2019-03-01T10:28:02Z</time>
      </trkpt>
      <trkpt lat="43.69397" lon="3.60644">
        <ele>96.378197</ele>
        <time>2019-03-01T10:28:14Z</time>
      </trkpt>
      <trkpt lat="43.69395" lon="3.60638">
        <ele>96.175247</ele>
        <time>2019-03-01T10:28:19Z</time>
      </trkpt>
      <trkpt lat="43.69402" lon="3.60634">
        <ele>97.342102</ele>
        <time>2019-03-01T10:28:35Z</time>
      </trkpt>
      <trkpt lat="43.69396" lon="3.6063">
        <ele>96.883698</ele>
        <time>2019-03-01T10:28:42Z</time>
      </trkpt>
      <trkpt lat="43.69394" lon="3.60618">
        <ele>97.579811</ele>
        <time>2019-03-01T10:28:50Z</time>
      </trkpt>
      <trkpt lat="43.69385" lon="3.60601">
        <ele>96.764542</ele>
        <time>2019-03-01T10:28:56Z</time>
      </trkpt>
      <trkpt lat="43.69378" lon="3.60596">
        <ele>96.414444</ele>
        <time>2019-03-01T10:28:58Z</time>
      </trkpt>
      <trkpt lat="43.69344" lon="3.60535">
        <ele>94.292152</ele>
        <time>2019-03-01T10:29:10Z</time>
      </trkpt>
      <trkpt lat="43.6933" lon="3.60518">
        <ele>93.521873</ele>
        <time>2019-03-01T10:29:14Z</time>
      </trkpt>
      <trkpt lat="43.69303" lon="3.60474">
        <ele>91.824997</ele>
        <time>2019-03-01T10:29:22Z</time>
      </trkpt>
      <trkpt lat="43.69292" lon="3.6045">
        <ele>91.402016</ele>
        <time>2019-03-01T10:29:26Z</time>
      </trkpt>
      <trkpt lat="43.69288" lon="3.60421">
        <ele>91.983749</ele>
        <time>2019-03-01T10:29:30Z</time>
      </trkpt>
      <trkpt lat="43.69291" lon="3.60407">
        <ele>92.202797</ele>
        <time>2019-03-01T10:29:32Z</time>
      </trkpt>
      <trkpt lat="43.69288" lon="3.60354">
        <ele>91.142502</ele>
        <time>2019-03-01T10:29:39Z</time>
      </trkpt>
      <trkpt lat="43.69289" lon="3.60339">
        <ele>90.665199</ele>
        <time>2019-03-01T10:29:41Z</time>
      </trkpt>
      <trkpt lat="43.69299" lon="3.603">
        <ele>90.005676</ele>
        <time>2019-03-01T10:29:47Z</time>
      </trkpt>
      <trkpt lat="43.69309" lon="3.60275">
        <ele>91.668602</ele>
        <time>2019-03-01T10:29:53Z</time>
      </trkpt>
      <trkpt lat="43.69307" lon="3.60267">
        <ele>91.219398</ele>
        <time>2019-03-01T10:30:00Z</time>
      </trkpt>
      <trkpt lat="43.69311" lon="3.60268">
        <ele>91.860924</ele>
        <time>2019-03-01T10:30:04Z</time>
      </trkpt>
      <trkpt lat="43.69309" lon="3.60266">
        <ele>91.453949</ele>
        <time>2019-03-01T10:30:06Z</time>
      </trkpt>
      <trkpt lat="43.69311" lon="3.60267">
        <ele>91.830627</ele>
        <time>2019-03-01T10:30:08Z</time>
      </trkpt>
      <trkpt lat="43.69309" lon="3.60264">
        <ele>91.465302</ele>
        <time>2019-03-01T10:30:16Z</time>
      </trkpt>
      <trkpt lat="43.69311" lon="3.60265">
        <ele>91.770027</ele>
        <time>2019-03-01T10:30:20Z</time>
      </trkpt>
      <trkpt lat="43.69297" lon="3.60255">
        <ele>90.158752</ele>
        <time>2019-03-01T10:30:28Z</time>
      </trkpt>
      <trkpt lat="43.69292" lon="3.60248">
        <ele>90.272499</ele>
        <time>2019-03-01T10:30:30Z</time>
      </trkpt>
      <trkpt lat="43.69289" lon="3.60232">
        <ele>90.52375</ele>
        <time>2019-03-01T10:30:34Z</time>
      </trkpt>
      <trkpt lat="43.69289" lon="3.60213">
        <ele>90.822502</ele>
        <time>2019-03-01T10:30:44Z</time>
      </trkpt>
      <trkpt lat="43.69286" lon="3.60207">
        <ele>90.928749</ele>
        <time>2019-03-01T10:30:50Z</time>
      </trkpt>
      <trkpt lat="43.69288" lon="3.60202">
        <ele>91</ele>
        <time>2019-03-01T10:30:56Z</time>
      </trkpt>
      <trkpt lat="43.69286" lon="3.60187">
        <ele>91</ele>
        <time>2019-03-01T10:31:02Z</time>
      </trkpt>
      <trkpt lat="43.69283" lon="3.60182">
        <ele>91</ele>
        <time>2019-03-01T10:31:04Z</time>
      </trkpt>
      <trkpt lat="43.69282" lon="3.60169">
        <ele>91</ele>
        <time>2019-03-01T10:31:08Z</time>
      </trkpt>
      <trkpt lat="43.69276" lon="3.60161">
        <ele>91</ele>
        <time>2019-03-01T10:31:12Z</time>
      </trkpt>
      <trkpt lat="43.69266" lon="3.6014">
        <ele>91</ele>
        <time>2019-03-01T10:31:18Z</time>
      </trkpt>
      <trkpt lat="43.69262" lon="3.60124">
        <ele>90.835197</ele>
        <time>2019-03-01T10:31:22Z</time>
      </trkpt>
      <trkpt lat="43.69263" lon="3.601">
        <ele>90.610634</ele>
        <time>2019-03-01T10:31:26Z</time>
      </trkpt>
      <trkpt lat="43.69259" lon="3.60079">
        <ele>90.118935</ele>
        <time>2019-03-01T10:31:30Z</time>
      </trkpt>
      <trkpt lat="43.69252" lon="3.60063">
        <ele>91.253716</ele>
        <time>2019-03-01T10:31:36Z</time>
      </trkpt>
      <trkpt lat="43.69249" lon="3.60045">
        <ele>91.647659</ele>
        <time>2019-03-01T10:31:42Z</time>
      </trkpt>
      <trkpt lat="43.69251" lon="3.6003">
        <ele>90.952499</ele>
        <time>2019-03-01T10:31:46Z</time>
      </trkpt>
      <trkpt lat="43.69245" lon="3.60017">
        <ele>91.182999</ele>
        <time>2019-03-01T10:31:50Z</time>
      </trkpt>
      <trkpt lat="43.69236" lon="3.60007">
        <ele>92.384125</ele>
        <time>2019-03-01T10:31:54Z</time>
      </trkpt>
      <trkpt lat="43.69225" lon="3.60002">
        <ele>93.062187</ele>
        <time>2019-03-01T10:31:58Z</time>
      </trkpt>
      <trkpt lat="43.69211" lon="3.59983">
        <ele>93.059204</ele>
        <time>2019-03-01T10:32:04Z</time>
      </trkpt>
      <trkpt lat="43.69184" lon="3.59981">
        <ele>94.025391</ele>
        <time>2019-03-01T10:32:12Z</time>
      </trkpt>
      <trkpt lat="43.69158" lon="3.59983">
        <ele>94.974823</ele>
        <time>2019-03-01T10:32:20Z</time>
      </trkpt>
      <trkpt lat="43.69146" lon="3.59994">
        <ele>94.596611</ele>
        <time>2019-03-01T10:32:26Z</time>
      </trkpt>
      <trkpt lat="43.69141" lon="3.59993">
        <ele>94.778534</ele>
        <time>2019-03-01T10:32:28Z</time>
      </trkpt>
      <trkpt lat="43.69138" lon="3.59998">
        <ele>94.427498</ele>
        <time>2019-03-01T10:32:30Z</time>
      </trkpt>
      <trkpt lat="43.69129" lon="3.6">
        <ele>94.405052</ele>
        <time>2019-03-01T10:32:34Z</time>
      </trkpt>
      <trkpt lat="43.69104" lon="3.60014">
        <ele>93.825378</ele>
        <time>2019-03-01T10:32:44Z</time>
      </trkpt>
      <trkpt lat="43.69088" lon="3.60012">
        <ele>93.824249</ele>
        <time>2019-03-01T10:32:50Z</time>
      </trkpt>
      <trkpt lat="43.69086" lon="3.60008">
        <ele>94.655937</ele>
        <time>2019-03-01T10:32:56Z</time>
      </trkpt>
      <trkpt lat="43.69087" lon="3.6001">
        <ele>94.282654</ele>
        <time>2019-03-01T10:32:58Z</time>
      </trkpt>
      <trkpt lat="43.69083" lon="3.60004">
        <ele>95.450066</ele>
        <time>2019-03-01T10:33:13Z</time>
      </trkpt>
      <trkpt lat="43.69084" lon="3.60011">
        <ele>94.060471</ele>
        <time>2019-03-01T10:33:37Z</time>
      </trkpt>
      <trkpt lat="43.69081" lon="3.60008">
        <ele>94.690559</ele>
        <time>2019-03-01T10:33:43Z</time>
      </trkpt>
      <trkpt lat="43.69078" lon="3.60011">
        <ele>94.195</ele>
        <time>2019-03-01T10:33:48Z</time>
      </trkpt>
      <trkpt lat="43.69072" lon="3.6001">
        <ele>94.430885</ele>
        <time>2019-03-01T10:33:54Z</time>
      </trkpt>
      <trkpt lat="43.69059" lon="3.60019">
        <ele>95.519783</ele>
        <time>2019-03-01T10:34:00Z</time>
      </trkpt>
      <trkpt lat="43.69045" lon="3.60042">
        <ele>98.463799</ele>
        <time>2019-03-01T10:34:10Z</time>
      </trkpt>
      <trkpt lat="43.6904" lon="3.60044">
        <ele>98.495163</ele>
        <time>2019-03-01T10:34:12Z</time>
      </trkpt>
      <trkpt lat="43.69027" lon="3.60042">
        <ele>97.977501</ele>
        <time>2019-03-01T10:34:16Z</time>
      </trkpt>
      <trkpt lat="43.69005" lon="3.60044">
        <ele>98.262497</ele>
        <time>2019-03-01T10:34:24Z</time>
      </trkpt>
      <trkpt lat="43.68995" lon="3.6003">
        <ele>96.889999</ele>
        <time>2019-03-01T10:34:30Z</time>
      </trkpt>
      <trkpt lat="43.68972" lon="3.60033">
        <ele>96.597496</ele>
        <time>2019-03-01T10:34:38Z</time>
      </trkpt>
      <trkpt lat="43.68958" lon="3.60031">
        <ele>95.772499</ele>
        <time>2019-03-01T10:34:44Z</time>
      </trkpt>
      <trkpt lat="43.68954" lon="3.60023">
        <ele>94.779999</ele>
        <time>2019-03-01T10:34:48Z</time>
      </trkpt>
      <trkpt lat="43.68943" lon="3.60011">
        <ele>93.212502</ele>
        <time>2019-03-01T10:34:54Z</time>
      </trkpt>
      <trkpt lat="43.6893" lon="3.60009">
        <ele>92.108627</ele>
        <time>2019-03-01T10:35:00Z</time>
      </trkpt>
      <trkpt lat="43.68925" lon="3.60005">
        <ele>92.173378</ele>
        <time>2019-03-01T10:35:02Z</time>
      </trkpt>
      <trkpt lat="43.68892" lon="3.59991">
        <ele>90.460327</ele>
        <time>2019-03-01T10:35:16Z</time>
      </trkpt>
      <trkpt lat="43.68885" lon="3.59991">
        <ele>90.043159</ele>
        <time>2019-03-01T10:35:20Z</time>
      </trkpt>
      <trkpt lat="43.68884" lon="3.59988">
        <ele>89.907646</ele>
        <time>2019-03-01T10:35:22Z</time>
      </trkpt>
      <trkpt lat="43.68879" lon="3.59988">
        <ele>89.602707</ele>
        <time>2019-03-01T10:35:35Z</time>
      </trkpt>
      <trkpt lat="43.68881" lon="3.59982">
        <ele>89.487175</ele>
        <time>2019-03-01T10:35:46Z</time>
      </trkpt>
      <trkpt lat="43.68879" lon="3.59984">
        <ele>89.390182</ele>
        <time>2019-03-01T10:35:53Z</time>
      </trkpt>
      <trkpt lat="43.68876" lon="3.59978">
        <ele>88.846107</ele>
        <time>2019-03-01T10:36:10Z</time>
      </trkpt>
      <trkpt lat="43.68875" lon="3.5998">
        <ele>88.779503</ele>
        <time>2019-03-01T10:36:16Z</time>
      </trkpt>
      <trkpt lat="43.68874" lon="3.59975">
        <ele>88.4496</ele>
        <time>2019-03-01T10:36:23Z</time>
      </trkpt>
      <trkpt lat="43.68864" lon="3.59979">
        <ele>87.543587</ele>
        <time>2019-03-01T10:36:33Z</time>
      </trkpt>
      <trkpt lat="43.68865" lon="3.59969">
        <ele>86.658791</ele>
        <time>2019-03-01T10:36:43Z</time>
      </trkpt>
      <trkpt lat="43.6886" lon="3.59974">
        <ele>86.543907</ele>
        <time>2019-03-01T10:36:48Z</time>
      </trkpt>
      <trkpt lat="43.68859" lon="3.59963">
        <ele>84.773972</ele>
        <time>2019-03-01T10:36:58Z</time>
      </trkpt>
      <trkpt lat="43.68857" lon="3.59965">
        <ele>84.717796</ele>
        <time>2019-03-01T10:37:08Z</time>
      </trkpt>
      <trkpt lat="43.68855" lon="3.59959">
        <ele>83.45018</ele>
        <time>2019-03-01T10:37:28Z</time>
      </trkpt>
      <trkpt lat="43.68847" lon="3.59957">
        <ele>84.250023</ele>
        <time>2019-03-01T10:37:41Z</time>
      </trkpt>
      <trkpt lat="43.68845" lon="3.59963">
        <ele>85.500999</ele>
        <time>2019-03-01T10:37:45Z</time>
      </trkpt>
      <trkpt lat="43.6884" lon="3.59964">
        <ele>86.450096</ele>
        <time>2019-03-01T10:37:58Z</time>
      </trkpt>
      <trkpt lat="43.68839" lon="3.59959">
        <ele>85.8965</ele>
        <time>2019-03-01T10:38:08Z</time>
      </trkpt>
      <trkpt lat="43.68833" lon="3.59949">
        <ele>86.144547</ele>
        <time>2019-03-01T10:38:14Z</time>
      </trkpt>
      <trkpt lat="43.68833" lon="3.59942">
        <ele>85.574501</ele>
        <time>2019-03-01T10:38:23Z</time>
      </trkpt>
      <trkpt lat="43.68828" lon="3.59931">
        <ele>86.145348</ele>
        <time>2019-03-01T10:38:32Z</time>
      </trkpt>
      <trkpt lat="43.68832" lon="3.5991">
        <ele>84.909355</ele>
        <time>2019-03-01T10:38:48Z</time>
      </trkpt>
      <trkpt lat="43.68828" lon="3.59899">
        <ele>84.492531</ele>
        <time>2019-03-01T10:38:54Z</time>
      </trkpt>
      <trkpt lat="43.68821" lon="3.59888">
        <ele>83.460548</ele>
        <time>2019-03-01T10:39:00Z</time>
      </trkpt>
      <trkpt lat="43.6881" lon="3.59886">
        <ele>82.564148</ele>
        <time>2019-03-01T10:39:06Z</time>
      </trkpt>
      <trkpt lat="43.68802" lon="3.59875">
        <ele>83.403999</ele>
        <time>2019-03-01T10:39:12Z</time>
      </trkpt>
      <trkpt lat="43.68796" lon="3.5987">
        <ele>84.252251</ele>
        <time>2019-03-01T10:39:15Z</time>
      </trkpt>
      <trkpt lat="43.68794" lon="3.5986">
        <ele>84.002625</ele>
        <time>2019-03-01T10:39:31Z</time>
      </trkpt>
      <trkpt lat="43.68795" lon="3.59856">
        <ele>83.604752</ele>
        <time>2019-03-01T10:39:45Z</time>
      </trkpt>
      <trkpt lat="43.6879" lon="3.59864">
        <ele>84.685158</ele>
        <time>2019-03-01T10:40:06Z</time>
      </trkpt>
      <trkpt lat="43.68779" lon="3.59838">
        <ele>83.370781</ele>
        <time>2019-03-01T10:40:25Z</time>
      </trkpt>
      <trkpt lat="43.68769" lon="3.59826">
        <ele>82.138374</ele>
        <time>2019-03-01T10:40:30Z</time>
      </trkpt>
      <trkpt lat="43.68743" lon="3.59805">
        <ele>82.865974</ele>
        <time>2019-03-01T10:40:40Z</time>
      </trkpt>
      <trkpt lat="43.68728" lon="3.59801">
        <ele>83.759674</ele>
        <time>2019-03-01T10:40:45Z</time>
      </trkpt>
      <trkpt lat="43.68717" lon="3.59802">
        <ele>84.311241</ele>
        <time>2019-03-01T10:40:49Z</time>
      </trkpt>
      <trkpt lat="43.68706" lon="3.59798">
        <ele>83.463455</ele>
        <time>2019-03-01T10:40:52Z</time>
      </trkpt>
      <trkpt lat="43.68647" lon="3.59786">
        <ele>81.829193</ele>
        <time>2019-03-01T10:41:06Z</time>
      </trkpt>
      <trkpt lat="43.6864" lon="3.5978">
        <ele>81.523476</ele>
        <time>2019-03-01T10:41:09Z</time>
      </trkpt>
      <trkpt lat="43.68636" lon="3.5977">
        <ele>80.940857</ele>
        <time>2019-03-01T10:41:11Z</time>
      </trkpt>
      <trkpt lat="43.68625" lon="3.59762">
        <ele>80.57914</ele>
        <time>2019-03-01T10:41:16Z</time>
      </trkpt>
      <trkpt lat="43.68596" lon="3.59752">
        <ele>79.962502</ele>
        <time>2019-03-01T10:41:25Z</time>
      </trkpt>
      <trkpt lat="43.68557" lon="3.59721">
        <ele>81.263626</ele>
        <time>2019-03-01T10:41:43Z</time>
      </trkpt>
      <trkpt lat="43.68549" lon="3.59707">
        <ele>80.47525</ele>
        <time>2019-03-01T10:42:20Z</time>
      </trkpt>
      <trkpt lat="43.68543" lon="3.59672">
        <ele>78.401489</ele>
        <time>2019-03-01T10:42:40Z</time>
      </trkpt>
      <trkpt lat="43.68539" lon="3.59624">
        <ele>77.307373</ele>
        <time>2019-03-01T10:42:53Z</time>
      </trkpt>
      <trkpt lat="43.68532" lon="3.59593">
        <ele>77.016502</ele>
        <time>2019-03-01T10:42:59Z</time>
      </trkpt>
      <trkpt lat="43.68504" lon="3.59531">
        <ele>76.454468</ele>
        <time>2019-03-01T10:43:14Z</time>
      </trkpt>
      <trkpt lat="43.68492" lon="3.5952">
        <ele>76.685051</ele>
        <time>2019-03-01T10:43:19Z</time>
      </trkpt>
      <trkpt lat="43.68473" lon="3.59456">
        <ele>77.6</ele>
      </trkpt>
      <trkpt lat="43.68454" lon="3.59422">
        <ele>77.3</ele>
      </trkpt>
      <trkpt lat="43.68475" lon="3.59394">
        <ele>76.6</ele>
      </trkpt>
      <trkpt lat="43.6849" lon="3.59364">
        <ele>77</ele>
      </trkpt>
      <trkpt lat="43.68499" lon="3.59358">
        <ele>77.2</ele>
      </trkpt>
      <trkpt lat="43.68502" lon="3.59342">
        <ele>78.4</ele>
      </trkpt>
      <trkpt lat="43.68493" lon="3.59338">
        <ele>77.6</ele>
      </trkpt>
      <trkpt lat="43.6848" lon="3.59323">
        <ele>77.7</ele>
      </trkpt>
      <trkpt lat="43.68458" lon="3.59152">
        <ele>80.3</ele>
      </trkpt>
      <trkpt lat="43.68455" lon="3.59016">
        <ele>80.5</ele>
      </trkpt>
      <trkpt lat="43.68512" lon="3.5886">
        <ele>79.5</ele>
      </trkpt>
      <trkpt lat="43.68561" lon="3.58713">
        <ele>73.8</ele>
      </trkpt>
      <trkpt lat="43.68564" lon="3.58606">
        <ele>72</ele>
      </trkpt>
      <trkpt lat="43.69027" lon="3.58372">
        <ele>67.6</ele>
      </trkpt>
      <trkpt lat="43.69213" lon="3.58531">
        <ele>68.4</ele>
      </trkpt>
      <trkpt lat="43.69241" lon="3.58515">
        <ele>67.8</ele>
      </trkpt>
      <trkpt lat="43.69253" lon="3.58427">
        <ele>64.5</ele>
      </trkpt>
      <trkpt lat="43.69398" lon="3.58482">
        <ele>67.4</ele>
      </trkpt>
      <trkpt lat="43.69629" lon="3.58307">
        <ele>65.9</ele>
      </trkpt>
      <trkpt lat="43.69845" lon="3.58313">
        <ele>68.5</ele>
      </trkpt>
      <trkpt lat="43.69895" lon="3.58268">
        <ele>68.8</ele>
      </trkpt>
      <trkpt lat="43.69942" lon="3.58268">
        <ele>70.2</ele>
      </trkpt>
      <trkpt lat="43.69989" lon="3.58281">
        <ele>70.9</ele>
      </trkpt>
      <trkpt lat="43.70087" lon="3.58144">
        <ele>72.4</ele>
      </trkpt>
      <trkpt lat="43.70153" lon="3.58099">
        <ele>72.9</ele>
      </trkpt>
      <trkpt lat="43.70283" lon="3.58102">
        <ele>77.2</ele>
      </trkpt>
      <trkpt lat="43.70348" lon="3.58095">
        <ele>78.3</ele>
      </trkpt>
      <trkpt lat="43.70487" lon="3.5816">
        <ele>79.7</ele>
      </trkpt>
      <trkpt lat="43.70504" lon="3.57871">
        <ele>76.7</ele>
      </trkpt>
      <trkpt lat="43.70511" lon="3.57458">
        <ele>71.7</ele>
      </trkpt>
      <trkpt lat="43.70489" lon="3.57139">
        <ele>69.5</ele>
      </trkpt>
      <trkpt lat="43.70499" lon="3.56905">
        <ele>70.7</ele>
      </trkpt>
      <trkpt lat="43.70511" lon="3.56567">
        <ele>71</ele>
      </trkpt>
      <trkpt lat="43.70551" lon="3.56346">
        <ele>70.4</ele>
      </trkpt>
      <trkpt lat="43.70565" lon="3.5631">
        <ele>70.4</ele>
      </trkpt>
      <trkpt lat="43.70539" lon="3.56219">
        <ele>69.9</ele>
      </trkpt>
      <trkpt lat="43.70569" lon="3.56098">
        <ele>67.7</ele>
      </trkpt>
      <trkpt lat="43.70678" lon="3.55988">
        <ele>69.3</ele>
      </trkpt>
      <trkpt lat="43.70718" lon="3.5594">
        <ele>71.6</ele>
      </trkpt>
      <trkpt lat="43.70718" lon="3.5594">
        <ele>71.6</ele>
      </trkpt>
      <trkpt lat="43.70819" lon="3.55776">
        <ele>63.8</ele>
      </trkpt>
      <trkpt lat="43.70791" lon="3.55685">
        <ele>61.1</ele>
      </trkpt>
      <trkpt lat="43.70772" lon="3.55686">
        <ele>61.9</ele>
      </trkpt>
      <trkpt lat="43.70736" lon="3.5564">
        <ele>71.4</ele>
      </trkpt>
      <trkpt lat="43.70677" lon="3.55577">
        <ele>79.6</ele>
      </trkpt>
      <trkpt lat="43.70616" lon="3.55537">
        <ele>79</ele>
      </trkpt>
      <trkpt lat="43.70536" lon="3.55542">
        <ele>76.8</ele>
      </trkpt>
      <trkpt lat="43.70374" lon="3.55365">
        <ele>90.6</ele>
      </trkpt>
      <trkpt lat="43.70238" lon="3.55261">
        <ele>97.6</ele>
      </trkpt>
      <trkpt lat="43.70214" lon="3.55174">
        <ele>101.3</ele>
      </trkpt>
      <trkpt lat="43.70195" lon="3.55121">
        <ele>102.2</ele>
      </trkpt>
      <trkpt lat="43.70156" lon="3.55043">
        <ele>105</ele>
      </trkpt>
      <trkpt lat="43.70135" lon="3.54917">
        <ele>106.7</ele>
      </trkpt>
      <trkpt lat="43.70163" lon="3.54787">
        <ele>109.4</ele>
      </trkpt>
      <trkpt lat="43.70154" lon="3.54623">
        <ele>114.4</ele>
      </trkpt>
      <trkpt lat="43.70154" lon="3.54539">
        <ele>118.5</ele>
      </trkpt>
      <trkpt lat="43.70171" lon="3.54428">
        <ele>126.3</ele>
      </trkpt>
      <trkpt lat="43.70154" lon="3.54335">
        <ele>128.3</ele>
      </trkpt>
      <trkpt lat="43.70157" lon="3.54164">
        <ele>133.6</ele>
      </trkpt>
      <trkpt lat="43.70207" lon="3.54158">
        <ele>137.3</ele>
      </trkpt>
      <trkpt lat="43.70264" lon="3.54111">
        <ele>143.5</ele>
      </trkpt>
      <trkpt lat="43.70303" lon="3.5401">
        <ele>146.9</ele>
      </trkpt>
      <trkpt lat="43.70306" lon="3.53897">
        <ele>150.4</ele>
      </trkpt>
      <trkpt lat="43.70331" lon="3.5382">
        <ele>156.2</ele>
      </trkpt>
      <trkpt lat="43.70295" lon="3.53752">
        <ele>156.3</ele>
      </trkpt>
      <trkpt lat="43.70251" lon="3.53519">
        <ele>173.6</ele>
      </trkpt>
      <trkpt lat="43.70241" lon="3.53469">
        <ele>163.2</ele>
      </trkpt>
      <trkpt lat="43.70251" lon="3.53427">
        <ele>171.3</ele>
      </trkpt>
      <trkpt lat="43.70251" lon="3.53464">
        <ele>175.9</ele>
      </trkpt>
      <trkpt lat="43.70272" lon="3.53501">
        <ele>175.7</ele>
      </trkpt>
      <trkpt lat="43.70308" lon="3.53627">
        <ele>174.6</ele>
      </trkpt>
      <trkpt lat="43.70329" lon="3.53675">
        <ele>174.8</ele>
      </trkpt>
      <trkpt lat="43.70392" lon="3.53701">
        <ele>185.1</ele>
      </trkpt>
      <trkpt lat="43.70434" lon="3.53749">
        <ele>192.7</ele>
      </trkpt>
      <trkpt lat="43.70484" lon="3.53757">
        <ele>199.8</ele>
      </trkpt>
      <trkpt lat="43.70471" lon="3.53884">
        <ele>192.9</ele>
      </trkpt>
      <trkpt lat="43.70511" lon="3.53989">
        <ele>206.6</ele>
      </trkpt>
      <trkpt lat="43.70551" lon="3.54103">
        <ele>207.1</ele>
      </trkpt>
      <trkpt lat="43.70593" lon="3.54177">
        <ele>210.4</ele>
      </trkpt>
      <trkpt lat="43.70633" lon="3.54185">
        <ele>211</ele>
      </trkpt>
      <trkpt lat="43.70698" lon="3.54177">
        <ele>216.6</ele>
      </trkpt>
      <trkpt lat="43.70761" lon="3.54158">
        <ele>227.3</ele>
      </trkpt>
      <trkpt lat="43.70692" lon="3.54121">
        <ele>232.9</ele>
      </trkpt>
      <trkpt lat="43.70658" lon="3.54063">
        <ele>236.9</ele>
      </trkpt>
      <trkpt lat="43.70637" lon="3.53944">
        <ele>244.1</ele>
      </trkpt>
      <trkpt lat="43.70637" lon="3.53852">
        <ele>250.4</ele>
      </trkpt>
      <trkpt lat="43.70656" lon="3.53754">
        <ele>257.1</ele>
      </trkpt>
      <trkpt lat="43.70694" lon="3.53672">
        <ele>266.7</ele>
      </trkpt>
      <trkpt lat="43.70725" lon="3.53633">
        <ele>262.6</ele>
      </trkpt>
      <trkpt lat="43.70748" lon="3.53651">
        <ele>267.7</ele>
      </trkpt>
      <trkpt lat="43.70788" lon="3.53654">
        <ele>269.3</ele>
      </trkpt>
      <trkpt lat="43.70765" lon="3.53683">
        <ele>278.5</ele>
      </trkpt>
      <trkpt lat="43.70746" lon="3.53736">
        <ele>277.1</ele>
      </trkpt>
      <trkpt lat="43.70763" lon="3.53799">
        <ele>286.3</ele>
      </trkpt>
      <trkpt lat="43.7079" lon="3.53831">
        <ele>287.5</ele>
      </trkpt>
      <trkpt lat="43.71057" lon="3.53799">
        <ele>307</ele>
      </trkpt>
      <trkpt lat="43.71496" lon="3.53728">
        <ele>343.1</ele>
      </trkpt>
      <trkpt lat="43.71727" lon="3.53754">
        <ele>351</ele>
      </trkpt>
      <trkpt lat="43.7201" lon="3.53688">
        <ele>350.3</ele>
      </trkpt>
      <trkpt lat="43.72086" lon="3.53654">
        <ele>350.8</ele>
      </trkpt>
      <trkpt lat="43.72092" lon="3.53604">
        <ele>350.1</ele>
      </trkpt>
      <trkpt lat="43.72138" lon="3.53559">
        <ele>351.2</ele>
      </trkpt>
      <trkpt lat="43.72235" lon="3.5345">
        <ele>359.4</ele>
      </trkpt>
      <trkpt lat="43.72225" lon="3.53355">
        <ele>363.9</ele>
      </trkpt>
      <trkpt lat="43.72218" lon="3.53234">
        <ele>365.9</ele>
      </trkpt>
      <trkpt lat="43.7225" lon="3.53244">
        <ele>376.3</ele>
      </trkpt>
      <trkpt lat="43.7227" lon="3.53272">
        <ele>377.2</ele>
      </trkpt>
      <trkpt lat="43.72293" lon="3.53319">
        <ele>376.9</ele>
      </trkpt>
      <trkpt lat="43.72326" lon="3.53325">
        <ele>378.1</ele>
      </trkpt>
      <trkpt lat="43.72352" lon="3.53313">
        <ele>379.8</ele>
      </trkpt>
      <trkpt lat="43.72395" lon="3.53312">
        <ele>377.2</ele>
      </trkpt>
      <trkpt lat="43.7239" lon="3.53293">
        <ele>380.4</ele>
      </trkpt>
      <trkpt lat="43.7235" lon="3.53281">
        <ele>382.9</ele>
      </trkpt>
      <trkpt lat="43.72325" lon="3.53188">
        <ele>387.5</ele>
      </trkpt>
      <trkpt lat="43.72321" lon="3.5313">
        <ele>386.6</ele>
      </trkpt>
      <trkpt lat="43.72335" lon="3.53054">
        <ele>404.4</ele>
      </trkpt>
      <trkpt lat="43.72373" lon="3.52975">
        <ele>408.6</ele>
      </trkpt>
      <trkpt lat="43.72385" lon="3.5296">
        <ele>409.9</ele>
      </trkpt>
      <trkpt lat="43.72392" lon="3.52931">
        <ele>411.1</ele>
      </trkpt>
      <trkpt lat="43.72406" lon="3.52917">
        <ele>414</ele>
      </trkpt>
      <trkpt lat="43.72397" lon="3.52963">
        <ele>411.1</ele>
      </trkpt>
      <trkpt lat="43.72382" lon="3.53034">
        <ele>409.1</ele>
      </trkpt>
      <trkpt lat="43.7239" lon="3.53063">
        <ele>409.9</ele>
      </trkpt>
      <trkpt lat="43.72406" lon="3.53076">
        <ele>412.9</ele>
      </trkpt>
      <trkpt lat="43.72442" lon="3.53091">
        <ele>411.3</ele>
      </trkpt>
      <trkpt lat="43.72451" lon="3.53087">
        <ele>411.1</ele>
      </trkpt>
      <trkpt lat="43.72436" lon="3.53056">
        <ele>420.4</ele>
      </trkpt>
      <trkpt lat="43.72432" lon="3.53044">
        <ele>421</ele>
      </trkpt>
      <trkpt lat="43.72456" lon="3.52985">
        <ele>428.4</ele>
      </trkpt>
      <trkpt lat="43.72471" lon="3.52946">
        <ele>431.2</ele>
      </trkpt>
      <trkpt lat="43.7248" lon="3.52955">
        <ele>431.8</ele>
      </trkpt>
      <trkpt lat="43.72486" lon="3.52995">
        <ele>433.3</ele>
      </trkpt>
      <trkpt lat="43.72493" lon="3.52994">
        <ele>434.5</ele>
      </trkpt>
      <trkpt lat="43.725" lon="3.52942">
        <ele>434.9</ele>
      </trkpt>
      <trkpt lat="43.72512" lon="3.52828">
        <ele>448.3</ele>
      </trkpt>
      <trkpt lat="43.7253" lon="3.52763">
        <ele>453.9</ele>
      </trkpt>
      <trkpt lat="43.72523" lon="3.52748">
        <ele>452.8</ele>
      </trkpt>
      <trkpt lat="43.7252" lon="3.5272">
        <ele>453.7</ele>
      </trkpt>
      <trkpt lat="43.72536" lon="3.52672">
        <ele>455.7</ele>
      </trkpt>
      <trkpt lat="43.72566" lon="3.52619">
        <ele>455.7</ele>
      </trkpt>
      <trkpt lat="43.72618" lon="3.52557">
        <ele>469.1</ele>
      </trkpt>
      <trkpt lat="43.72638" lon="3.52525">
        <ele>471</ele>
      </trkpt>
      <trkpt lat="43.72665" lon="3.52465">
        <ele>465</ele>
      </trkpt>
      <trkpt lat="43.72691" lon="3.52432">
        <ele>477.2</ele>
      </trkpt>
      <trkpt lat="43.7274" lon="3.52403">
        <ele>480.4</ele>
      </trkpt>
      <trkpt lat="43.72792" lon="3.52345">
        <ele>482.3</ele>
      </trkpt>
      <trkpt lat="43.72826" lon="3.52278">
        <ele>488.1</ele>
      </trkpt>
      <trkpt lat="43.72876" lon="3.52236">
        <ele>499.1</ele>
      </trkpt>
      <trkpt lat="43.72891" lon="3.52222">
        <ele>500.2</ele>
      </trkpt>
      <trkpt lat="43.72907" lon="3.52222">
        <ele>500.4</ele>
      </trkpt>
      <trkpt lat="43.72911" lon="3.52226">
        <ele>500.3</ele>
      </trkpt>
      <trkpt lat="43.72914" lon="3.52238">
        <ele>499.6</ele>
      </trkpt>
      <trkpt lat="43.72904" lon="3.52249">
        <ele>499.4</ele>
      </trkpt>
      <trkpt lat="43.72878" lon="3.52312">
        <ele>493.9</ele>
      </trkpt>
      <trkpt lat="43.72878" lon="3.52377">
        <ele>489.5</ele>
      </trkpt>
      <trkpt lat="43.72884" lon="3.52381">
        <ele>489.8</ele>
      </trkpt>
      <trkpt lat="43.72925" lon="3.52368">
        <ele>503.3</ele>
      </trkpt>
      <trkpt lat="43.72942" lon="3.52382">
        <ele>504.3</ele>
      </trkpt>
      <trkpt lat="43.72972" lon="3.5238">
        <ele>508</ele>
      </trkpt>
      <trkpt lat="43.72979" lon="3.52391">
        <ele>509</ele>
      </trkpt>
      <trkpt lat="43.72979" lon="3.52404">
        <ele>509.7</ele>
      </trkpt>
      <trkpt lat="43.7295" lon="3.52424">
        <ele>504.1</ele>
      </trkpt>
      <trkpt lat="43.72941" lon="3.52453">
        <ele>503.8</ele>
      </trkpt>
      <trkpt lat="43.72931" lon="3.52556">
        <ele>502.8</ele>
      </trkpt>
      <trkpt lat="43.72942" lon="3.52584">
        <ele>498.6</ele>
      </trkpt>
      <trkpt lat="43.72958" lon="3.52592">
        <ele>500.4</ele>
      </trkpt>
      <trkpt lat="43.72979" lon="3.52589">
        <ele>505</ele>
      </trkpt>
      <trkpt lat="43.73046" lon="3.52579">
        <ele>525</ele>
      </trkpt>
      <trkpt lat="43.73079" lon="3.52589">
        <ele>525.7</ele>
      </trkpt>
      <trkpt lat="43.73103" lon="3.52637">
        <ele>527.2</ele>
      </trkpt>
      <trkpt lat="43.73195" lon="3.52694">
        <ele>536.2</ele>
      </trkpt>
      <trkpt lat="43.73234" lon="3.52715">
        <ele>537.8</ele>
      </trkpt>
      <trkpt lat="43.73249" lon="3.52725">
        <ele>538.3</ele>
      </trkpt>
      <trkpt lat="43.73261" lon="3.52694">
        <ele>542.2</ele>
      </trkpt>
      <trkpt lat="43.7331" lon="3.52524">
        <ele>552.8</ele>
      </trkpt>
      <trkpt lat="43.73383" lon="3.52418">
        <ele>554.7</ele>
      </trkpt>
      <trkpt lat="43.73456" lon="3.52323">
        <ele>547.5</ele>
      </trkpt>
      <trkpt lat="43.73485" lon="3.52268">
        <ele>544.6</ele>
      </trkpt>
      <trkpt lat="43.73501" lon="3.52215">
        <ele>532</ele>
      </trkpt>
      <trkpt lat="43.7354" lon="3.5218">
        <ele>526.9</ele>
      </trkpt>
      <trkpt lat="43.73539" lon="3.52156">
        <ele>526.7</ele>
      </trkpt>
      <trkpt lat="43.7352" lon="3.52121">
        <ele>529.7</ele>
      </trkpt>
      <trkpt lat="43.73508" lon="3.52062">
        <ele>530.3</ele>
      </trkpt>
      <trkpt lat="43.73522" lon="3.52038">
        <ele>524.7</ele>
      </trkpt>
      <trkpt lat="43.73573" lon="3.51749">
        <ele>514.4</ele>
      </trkpt>
      <trkpt lat="43.73526" lon="3.51785">
        <ele>521.8</ele>
      </trkpt>
      <trkpt lat="43.73494" lon="3.51601">
        <ele>516.9</ele>
      </trkpt>
      <trkpt lat="43.73556" lon="3.51479">
        <ele>487.7</ele>
      </trkpt>
      <trkpt lat="43.73599" lon="3.51383">
        <ele>462.7</ele>
      </trkpt>
      <trkpt lat="43.73599" lon="3.51318">
        <ele>465.5</ele>
      </trkpt>
      <trkpt lat="43.73642" lon="3.51247">
        <ele>456.7</ele>
      </trkpt>
      <trkpt lat="43.73664" lon="3.5118">
        <ele>458</ele>
      </trkpt>
      <trkpt lat="43.73701" lon="3.51137">
        <ele>448.1</ele>
      </trkpt>
      <trkpt lat="43.7375" lon="3.50978">
        <ele>441.4</ele>
      </trkpt>
      <trkpt lat="43.73784" lon="3.50954">
        <ele>436.4</ele>
      </trkpt>
      <trkpt lat="43.73828" lon="3.50898">
        <ele>430.6</ele>
      </trkpt>
      <trkpt lat="43.73855" lon="3.5086">
        <ele>426</ele>
      </trkpt>
      <trkpt lat="43.73901" lon="3.50855">
        <ele>425.2</ele>
      </trkpt>
      <trkpt lat="43.73944" lon="3.50834">
        <ele>424.2</ele>
      </trkpt>
      <trkpt lat="43.74013" lon="3.50806">
        <ele>425.5</ele>
      </trkpt>
      <trkpt lat="43.7406" lon="3.50711">
        <ele>428.3</ele>
      </trkpt>
      <trkpt lat="43.74008" lon="3.50894">
        <ele>426.4</ele>
      </trkpt>
      <trkpt lat="43.73966" lon="3.50972">
        <ele>422.6</ele>
      </trkpt>
      <trkpt lat="43.73905" lon="3.51021">
        <ele>417.5</ele>
      </trkpt>
      <trkpt lat="43.73901" lon="3.51056">
        <ele>417</ele>
      </trkpt>
      <trkpt lat="43.73925" lon="3.51107">
        <ele>410.1</ele>
      </trkpt>
      <trkpt lat="43.73992" lon="3.51133">
        <ele>406.6</ele>
      </trkpt>
      <trkpt lat="43.74017" lon="3.51092">
        <ele>412</ele>
      </trkpt>
      <trkpt lat="43.74043" lon="3.51124">
        <ele>407.9</ele>
      </trkpt>
      <trkpt lat="43.74052" lon="3.5115">
        <ele>404.5</ele>
      </trkpt>
      <trkpt lat="43.74112" lon="3.51154">
        <ele>402.1</ele>
      </trkpt>
      <trkpt lat="43.74132" lon="3.51172">
        <ele>388.6</ele>
      </trkpt>
      <trkpt lat="43.74167" lon="3.51183">
        <ele>382.5</ele>
      </trkpt>
      <trkpt lat="43.74194" lon="3.51197">
        <ele>377</ele>
      </trkpt>
      <trkpt lat="43.74259" lon="3.51155">
        <ele>375</ele>
      </trkpt>
      <trkpt lat="43.74307" lon="3.51023">
        <ele>380.8</ele>
      </trkpt>
      <trkpt lat="43.74328" lon="3.51109">
        <ele>374.4</ele>
      </trkpt>
      <trkpt lat="43.7429" lon="3.51204">
        <ele>373.7</ele>
      </trkpt>
      <trkpt lat="43.74249" lon="3.51247">
        <ele>366.1</ele>
      </trkpt>
      <trkpt lat="43.74201" lon="3.51359">
        <ele>363.5</ele>
      </trkpt>
      <trkpt lat="43.74213" lon="3.51445">
        <ele>356.7</ele>
      </trkpt>
      <trkpt lat="43.74186" lon="3.51508">
        <ele>342.5</ele>
      </trkpt>
      <trkpt lat="43.74191" lon="3.51555">
        <ele>339.5</ele>
      </trkpt>
      <trkpt lat="43.74287" lon="3.51602">
        <ele>345.4</ele>
      </trkpt>
      <trkpt lat="43.74329" lon="3.51622">
        <ele>347.2</ele>
      </trkpt>
      <trkpt lat="43.74429" lon="3.51678">
        <ele>359.2</ele>
      </trkpt>
      <trkpt lat="43.74464" lon="3.51678">
        <ele>362.3</ele>
      </trkpt>
      <trkpt lat="43.74484" lon="3.51695">
        <ele>363.5</ele>
      </trkpt>
      <trkpt lat="43.74567" lon="3.51703">
        <ele>370.3</ele>
      </trkpt>
      <trkpt lat="43.74588" lon="3.51688">
        <ele>375.4</ele>
      </trkpt>
      <trkpt lat="43.74716" lon="3.51789">
        <ele>385.5</ele>
      </trkpt>
      <trkpt lat="43.74768" lon="3.51852">
        <ele>386.7</ele>
      </trkpt>
      <trkpt lat="43.74795" lon="3.51858">
        <ele>388.2</ele>
      </trkpt>
      <trkpt lat="43.7487" lon="3.51964">
        <ele>393.6</ele>
      </trkpt>
      <trkpt lat="43.74854" lon="3.52028">
        <ele>397.9</ele>
      </trkpt>
      <trkpt lat="43.74863" lon="3.52061">
        <ele>399.8</ele>
      </trkpt>
      <trkpt lat="43.74838" lon="3.52095">
        <ele>400.4</ele>
      </trkpt>
      <trkpt lat="43.74844" lon="3.52205">
        <ele>406.7</ele>
      </trkpt>
      <trkpt lat="43.74869" lon="3.5223">
        <ele>408.9</ele>
      </trkpt>
      <trkpt lat="43.7487" lon="3.52295">
        <ele>410.9</ele>
      </trkpt>
      <trkpt lat="43.7484" lon="3.52368">
        <ele>408.6</ele>
      </trkpt>
      <trkpt lat="43.74835" lon="3.52411">
        <ele>407.5</ele>
      </trkpt>
      <trkpt lat="43.74854" lon="3.52428">
        <ele>408.7</ele>
      </trkpt>
      <trkpt lat="43.74931" lon="3.52472">
        <ele>411.3</ele>
      </trkpt>
      <trkpt lat="43.74952" lon="3.52502">
        <ele>411.8</ele>
      </trkpt>
      <trkpt lat="43.74969" lon="3.52558">
        <ele>412.5</ele>
      </trkpt>
      <trkpt lat="43.75002" lon="3.52626">
        <ele>414.2</ele>
      </trkpt>
      <trkpt lat="43.75052" lon="3.52659">
        <ele>415.9</ele>
      </trkpt>
      <trkpt lat="43.75085" lon="3.52616">
        <ele>420.4</ele>
      </trkpt>
      <trkpt lat="43.75131" lon="3.52609">
        <ele>422.4</ele>
      </trkpt>
      <trkpt lat="43.75152" lon="3.52588">
        <ele>424.6</ele>
      </trkpt>
      <trkpt lat="43.75168" lon="3.52558">
        <ele>430.9</ele>
      </trkpt>
      <trkpt lat="43.75185" lon="3.52525">
        <ele>432.9</ele>
      </trkpt>
      <trkpt lat="43.7521" lon="3.52545">
        <ele>433</ele>
      </trkpt>
      <trkpt lat="43.75234" lon="3.52532">
        <ele>433.5</ele>
      </trkpt>
      <trkpt lat="43.75252" lon="3.52495">
        <ele>432</ele>
      </trkpt>
      <trkpt lat="43.75286" lon="3.5248">
        <ele>429.7</ele>
      </trkpt>
      <trkpt lat="43.75325" lon="3.52457">
        <ele>428.4</ele>
      </trkpt>
      <trkpt lat="43.75345" lon="3.52442">
        <ele>426.1</ele>
      </trkpt>
      <trkpt lat="43.75353" lon="3.52392">
        <ele>417.8</ele>
      </trkpt>
      <trkpt lat="43.75382" lon="3.52347">
        <ele>415.5</ele>
      </trkpt>
      <trkpt lat="43.75418" lon="3.524">
        <ele>418.7</ele>
      </trkpt>
      <trkpt lat="43.75448" lon="3.52403">
        <ele>417.6</ele>
      </trkpt>
      <trkpt lat="43.75472" lon="3.52396">
        <ele>416.7</ele>
      </trkpt>
      <trkpt lat="43.75512" lon="3.52373">
        <ele>418.8</ele>
      </trkpt>
      <trkpt lat="43.75538" lon="3.52392">
        <ele>418.7</ele>
      </trkpt>
      <trkpt lat="43.75595" lon="3.52407">
        <ele>420.8</ele>
      </trkpt>
      <trkpt lat="43.75645" lon="3.52413">
        <ele>423</ele>
      </trkpt>
      <trkpt lat="43.75689" lon="3.52416">
        <ele>426</ele>
      </trkpt>
      <trkpt lat="43.75711" lon="3.52437">
        <ele>425.9</ele>
      </trkpt>
      <trkpt lat="43.75724" lon="3.52474">
        <ele>426.7</ele>
      </trkpt>
      <trkpt lat="43.75708" lon="3.52538">
        <ele>428.2</ele>
      </trkpt>
      <trkpt lat="43.75699" lon="3.52599">
        <ele>428.2</ele>
      </trkpt>
      <trkpt lat="43.757" lon="3.52618">
        <ele>428.1</ele>
      </trkpt>
      <trkpt lat="43.75845" lon="3.52764">
        <ele>429.8</ele>
      </trkpt>
      <trkpt lat="43.75842" lon="3.52859">
        <ele>434.4</ele>
      </trkpt>
      <trkpt lat="43.75854" lon="3.52914">
        <ele>437.1</ele>
      </trkpt>
      <trkpt lat="43.75833" lon="3.52983">
        <ele>445.8</ele>
      </trkpt>
      <trkpt lat="43.75919" lon="3.52889">
        <ele>439.9</ele>
      </trkpt>
      <trkpt lat="43.75941" lon="3.52893">
        <ele>439.8</ele>
      </trkpt>
      <trkpt lat="43.75946" lon="3.52957">
        <ele>450.7</ele>
      </trkpt>
      <trkpt lat="43.75917" lon="3.52974">
        <ele>452.1</ele>
      </trkpt>
      <trkpt lat="43.75909" lon="3.52996">
        <ele>452.4</ele>
      </trkpt>
      <trkpt lat="43.75934" lon="3.53011">
        <ele>459.1</ele>
      </trkpt>
      <trkpt lat="43.75991" lon="3.532">
        <ele>476.9</ele>
      </trkpt>
      <trkpt lat="43.76042" lon="3.53254">
        <ele>492.5</ele>
      </trkpt>
      <trkpt lat="43.76105" lon="3.53294">
        <ele>495.2</ele>
      </trkpt>
      <trkpt lat="43.76157" lon="3.5339">
        <ele>503.6</ele>
      </trkpt>
      <trkpt lat="43.76142" lon="3.53435">
        <ele>504.4</ele>
      </trkpt>
      <trkpt lat="43.76257" lon="3.53418">
        <ele>488.9</ele>
      </trkpt>
      <trkpt lat="43.76281" lon="3.53534">
        <ele>485.1</ele>
      </trkpt>
      <trkpt lat="43.76271" lon="3.53574">
        <ele>487.3</ele>
      </trkpt>
      <trkpt lat="43.76337" lon="3.53517">
        <ele>476.7</ele>
      </trkpt>
      <trkpt lat="43.76422" lon="3.53492">
        <ele>470</ele>
      </trkpt>
      <trkpt lat="43.76451" lon="3.53447">
        <ele>471.8</ele>
      </trkpt>
      <trkpt lat="43.76457" lon="3.53399">
        <ele>471.2</ele>
      </trkpt>
      <trkpt lat="43.76467" lon="3.53331">
        <ele>470.2</ele>
      </trkpt>
      <trkpt lat="43.76498" lon="3.53302">
        <ele>470.4</ele>
      </trkpt>
      <trkpt lat="43.76545" lon="3.53305">
        <ele>472.2</ele>
      </trkpt>
      <trkpt lat="43.76568" lon="3.53248">
        <ele>470.3</ele>
      </trkpt>
      <trkpt lat="43.76602" lon="3.53138">
        <ele>471.2</ele>
      </trkpt>
      <trkpt lat="43.7658" lon="3.53062">
        <ele>469.9</ele>
      </trkpt>
      <trkpt lat="43.76592" lon="3.52974">
        <ele>475</ele>
      </trkpt>
      <trkpt lat="43.7667" lon="3.52914">
        <ele>480.5</ele>
      </trkpt>
      <trkpt lat="43.76737" lon="3.52841">
        <ele>484.9</ele>
      </trkpt>
      <trkpt lat="43.76811" lon="3.52821">
        <ele>491.9</ele>
      </trkpt>
      <trkpt lat="43.76911" lon="3.52943">
        <ele>493.6</ele>
      </trkpt>
      <trkpt lat="43.76972" lon="3.53045">
        <ele>493.3</ele>
      </trkpt>
      <trkpt lat="43.77042" lon="3.53155">
        <ele>492.9</ele>
      </trkpt>
      <trkpt lat="43.77154" lon="3.53155">
        <ele>501.3</ele>
      </trkpt>
      <trkpt lat="43.77222" lon="3.53197">
        <ele>508.4</ele>
      </trkpt>
      <trkpt lat="43.77259" lon="3.53197">
        <ele>515.8</ele>
      </trkpt>
      <trkpt lat="43.77336" lon="3.53169">
        <ele>524.6</ele>
      </trkpt>
      <trkpt lat="43.77408" lon="3.53161">
        <ele>534.6</ele>
      </trkpt>
      <trkpt lat="43.77463" lon="3.53127">
        <ele>546.1</ele>
      </trkpt>
      <trkpt lat="43.77508" lon="3.5309">
        <ele>558.1</ele>
      </trkpt>
      <trkpt lat="43.77553" lon="3.53064">
        <ele>568.3</ele>
      </trkpt>
      <trkpt lat="43.77387" lon="3.52852">
        <ele>578</ele>
      </trkpt>
      <trkpt lat="43.774" lon="3.52818">
        <ele>594.6</ele>
      </trkpt>
      <trkpt lat="43.77273" lon="3.52759">
        <ele>581.9</ele>
      </trkpt>
      <trkpt lat="43.77236" lon="3.52657">
        <ele>597.6</ele>
      </trkpt>
      <trkpt lat="43.7724" lon="3.52529">
        <ele>613.2</ele>
      </trkpt>
      <trkpt lat="43.77197" lon="3.52495">
        <ele>618.1</ele>
      </trkpt>
      <trkpt lat="43.77193" lon="3.52442">
        <ele>625.3</ele>
      </trkpt>
      <trkpt lat="43.77064" lon="3.52345">
        <ele>622.4</ele>
      </trkpt>
      <trkpt lat="43.77042" lon="3.52201">
        <ele>642.6</ele>
      </trkpt>
      <trkpt lat="43.76925" lon="3.52133">
        <ele>641.3</ele>
      </trkpt>
      <trkpt lat="43.76897" lon="3.52048">
        <ele>656</ele>
      </trkpt>
      <trkpt lat="43.76876" lon="3.52022">
        <ele>658.7</ele>
      </trkpt>
      <trkpt lat="43.76777" lon="3.51982">
        <ele>666.3</ele>
      </trkpt>
      <trkpt lat="43.76698" lon="3.51922">
        <ele>660.7</ele>
      </trkpt>
      <trkpt lat="43.76647" lon="3.51888">
        <ele>662.6</ele>
      </trkpt>
      <trkpt lat="43.76586" lon="3.51807">
        <ele>671.1</ele>
      </trkpt>
      <trkpt lat="43.76577" lon="3.51756">
        <ele>665.9</ele>
      </trkpt>
      <trkpt lat="43.7653" lon="3.51712">
        <ele>666.7</ele>
      </trkpt>
      <trkpt lat="43.76481" lon="3.51639">
        <ele>664.9</ele>
      </trkpt>
      <trkpt lat="43.76466" lon="3.51581">
        <ele>675.2</ele>
      </trkpt>
      <trkpt lat="43.76468" lon="3.51546">
        <ele>676</ele>
      </trkpt>
      <trkpt lat="43.7648" lon="3.51511">
        <ele>679.1</ele>
      </trkpt>
      <trkpt lat="43.76473" lon="3.51489">
        <ele>682.7</ele>
      </trkpt>
      <trkpt lat="43.7644" lon="3.51451">
        <ele>681.4</ele>
      </trkpt>
      <trkpt lat="43.76423" lon="3.51338">
        <ele>687.4</ele>
      </trkpt>
      <trkpt lat="43.76402" lon="3.51282">
        <ele>691</ele>
      </trkpt>
      <trkpt lat="43.76374" lon="3.51226">
        <ele>705.1</ele>
      </trkpt>
      <trkpt lat="43.76348" lon="3.51209">
        <ele>706.2</ele>
      </trkpt>
      <trkpt lat="43.76287" lon="3.5119">
        <ele>705.1</ele>
      </trkpt>
      <trkpt lat="43.7625" lon="3.51181">
        <ele>705.1</ele>
      </trkpt>
      <trkpt lat="43.76224" lon="3.51149">
        <ele>708</ele>
      </trkpt>
      <trkpt lat="43.76228" lon="3.51045">
        <ele>715.8</ele>
      </trkpt>
      <trkpt lat="43.7621" lon="3.50945">
        <ele>726</ele>
      </trkpt>
      <trkpt lat="43.76206" lon="3.50914">
        <ele>732.6</ele>
      </trkpt>
      <trkpt lat="43.76191" lon="3.50884">
        <ele>732.5</ele>
      </trkpt>
      <trkpt lat="43.76182" lon="3.5079">
        <ele>739.4</ele>
      </trkpt>
      <trkpt lat="43.7617" lon="3.50752">
        <ele>738.5</ele>
      </trkpt>
      <trkpt lat="43.76141" lon="3.50683">
        <ele>741.2</ele>
      </trkpt>
      <trkpt lat="43.76108" lon="3.50634">
        <ele>750.9</ele>
      </trkpt>
      <trkpt lat="43.76066" lon="3.50605">
        <ele>748.4</ele>
      </trkpt>
      <trkpt lat="43.76029" lon="3.50546">
        <ele>758.3</ele>
      </trkpt>
      <trkpt lat="43.75999" lon="3.50443">
        <ele>763.1</ele>
      </trkpt>
      <trkpt lat="43.75994" lon="3.50428">
        <ele>765.9</ele>
      </trkpt>
      <trkpt lat="43.7595" lon="3.5039">
        <ele>766.5</ele>
      </trkpt>
      <trkpt lat="43.75929" lon="3.50329">
        <ele>768.5</ele>
      </trkpt>
      <trkpt lat="43.75899" lon="3.50272">
        <ele>764.5</ele>
      </trkpt>
      <trkpt lat="43.7587" lon="3.50263">
        <ele>763</ele>
      </trkpt>
      <trkpt lat="43.75841" lon="3.50243">
        <ele>760.4</ele>
      </trkpt>
      <trkpt lat="43.75821" lon="3.50231">
        <ele>757.2</ele>
      </trkpt>
      <trkpt lat="43.75768" lon="3.50212">
        <ele>755</ele>
      </trkpt>
      <trkpt lat="43.75698" lon="3.50176">
        <ele>750.6</ele>
      </trkpt>
      <trkpt lat="43.75643" lon="3.50188">
        <ele>744.1</ele>
      </trkpt>
      <trkpt lat="43.7565" lon="3.50064">
        <ele>736.8</ele>
      </trkpt>
      <trkpt lat="43.75575" lon="3.50076">
        <ele>734.5</ele>
      </trkpt>
      <trkpt lat="43.75518" lon="3.50036">
        <ele>729.8</ele>
      </trkpt>
      <trkpt lat="43.75404" lon="3.49982">
        <ele>735</ele>
      </trkpt>
      <trkpt lat="43.75376" lon="3.4996">
        <ele>736.7</ele>
      </trkpt>
      <trkpt lat="43.7533" lon="3.4995">
        <ele>746.7</ele>
      </trkpt>
      <trkpt lat="43.75293" lon="3.49984">
        <ele>748.8</ele>
      </trkpt>
      <trkpt lat="43.75274" lon="3.49974">
        <ele>750.2</ele>
      </trkpt>
      <trkpt lat="43.75254" lon="3.50009">
        <ele>751.8</ele>
      </trkpt>
      <trkpt lat="43.75208" lon="3.49987">
        <ele>758.4</ele>
      </trkpt>
      <trkpt lat="43.75152" lon="3.4995">
        <ele>762.2</ele>
      </trkpt>
      <trkpt lat="43.75118" lon="3.4993">
        <ele>762.4</ele>
      </trkpt>
      <trkpt lat="43.75095" lon="3.49954">
        <ele>762.4</ele>
      </trkpt>
      <trkpt lat="43.75073" lon="3.49941">
        <ele>763.3</ele>
      </trkpt>
      <trkpt lat="43.75056" lon="3.49968">
        <ele>763.2</ele>
      </trkpt>
      <trkpt lat="43.75011" lon="3.49967">
        <ele>763.6</ele>
      </trkpt>
      <trkpt lat="43.74936" lon="3.49871">
        <ele>771.5</ele>
      </trkpt>
      <trkpt lat="43.74903" lon="3.49807">
        <ele>780.6</ele>
      </trkpt>
      <trkpt lat="43.74858" lon="3.49708">
        <ele>783.2</ele>
      </trkpt>
      <trkpt lat="43.7481" lon="3.49631">
        <ele>781.8</ele>
      </trkpt>
      <trkpt lat="43.74789" lon="3.49554">
        <ele>782.8</ele>
      </trkpt>
      <trkpt lat="43.74804" lon="3.49488">
        <ele>784.7</ele>
      </trkpt>
      <trkpt lat="43.74757" lon="3.49405">
        <ele>785</ele>
      </trkpt>
      <trkpt lat="43.74741" lon="3.49379">
        <ele>788.5</ele>
      </trkpt>
      <trkpt lat="43.74715" lon="3.4935">
        <ele>789.9</ele>
      </trkpt>
      <trkpt lat="43.74703" lon="3.49277">
        <ele>788.5</ele>
      </trkpt>
      <trkpt lat="43.74697" lon="3.49263">
        <ele>788.7</ele>
      </trkpt>
      <trkpt lat="43.74596" lon="3.49156">
        <ele>784.7</ele>
      </trkpt>
      <trkpt lat="43.74495" lon="3.4913">
        <ele>788.5</ele>
      </trkpt>
      <trkpt lat="43.74474" lon="3.49105">
        <ele>788.8</ele>
      </trkpt>
      <trkpt lat="43.74445" lon="3.49013">
        <ele>794.3</ele>
      </trkpt>
      <trkpt lat="43.74405" lon="3.48952">
        <ele>798.5</ele>
      </trkpt>
      <trkpt lat="43.74367" lon="3.48891">
        <ele>802.3</ele>
      </trkpt>
      <trkpt lat="43.74358" lon="3.48854">
        <ele>802.9</ele>
      </trkpt>
      <trkpt lat="43.7441" lon="3.4881">
        <ele>809.6</ele>
      </trkpt>
      <trkpt lat="43.74431" lon="3.48788">
        <ele>813.1</ele>
      </trkpt>
      <trkpt lat="43.7448" lon="3.48779">
        <ele>813.8</ele>
      </trkpt>
      <trkpt lat="43.74505" lon="3.48765">
        <ele>813.3</ele>
      </trkpt>
      <trkpt lat="43.74518" lon="3.48724">
        <ele>811.4</ele>
      </trkpt>
      <trkpt lat="43.7451" lon="3.48677">
        <ele>811.7</ele>
      </trkpt>
      <trkpt lat="43.7448" lon="3.48648">
        <ele>816</ele>
      </trkpt>
      <trkpt lat="43.74458" lon="3.48635">
        <ele>817.2</ele>
      </trkpt>
      <trkpt lat="43.74451" lon="3.48599">
        <ele>817.6</ele>
      </trkpt>
      <trkpt lat="43.74446" lon="3.48571">
        <ele>812</ele>
      </trkpt>
      <trkpt lat="43.74459" lon="3.48543">
        <ele>808.6</ele>
      </trkpt>
      <trkpt lat="43.74489" lon="3.48522">
        <ele>806.1</ele>
      </trkpt>
      <trkpt lat="43.74542" lon="3.48555">
        <ele>803</ele>
      </trkpt>
      <trkpt lat="43.74613" lon="3.48589">
        <ele>797.4</ele>
      </trkpt>
      <trkpt lat="43.74665" lon="3.48629">
        <ele>794.2</ele>
      </trkpt>
      <trkpt lat="43.74704" lon="3.48651">
        <ele>781</ele>
      </trkpt>
      <trkpt lat="43.74717" lon="3.48713">
        <ele>786.2</ele>
      </trkpt>
      <trkpt lat="43.74783" lon="3.48767">
        <ele>780.4</ele>
      </trkpt>
      <trkpt lat="43.74892" lon="3.48771">
        <ele>764.8</ele>
      </trkpt>
      <trkpt lat="43.74929" lon="3.48732">
        <ele>752.2</ele>
      </trkpt>
      <trkpt lat="43.74961" lon="3.48679">
        <ele>746.2</ele>
      </trkpt>
      <trkpt lat="43.75023" lon="3.48661">
        <ele>733.4</ele>
      </trkpt>
      <trkpt lat="43.75064" lon="3.48674">
        <ele>736.9</ele>
      </trkpt>
      <trkpt lat="43.75144" lon="3.48634">
        <ele>723.6</ele>
      </trkpt>
      <trkpt lat="43.75229" lon="3.48604">
        <ele>717.1</ele>
      </trkpt>
      <trkpt lat="43.75284" lon="3.48646">
        <ele>709.9</ele>
      </trkpt>
      <trkpt lat="43.75319" lon="3.48637">
        <ele>707.3</ele>
      </trkpt>
      <trkpt lat="43.75358" lon="3.48607">
        <ele>698.5</ele>
      </trkpt>
      <trkpt lat="43.75369" lon="3.48558">
        <ele>695.1</ele>
      </trkpt>
      <trkpt lat="43.75332" lon="3.48461">
        <ele>696.6</ele>
      </trkpt>
      <trkpt lat="43.75292" lon="3.48364">
        <ele>688</ele>
      </trkpt>
      <trkpt lat="43.7522" lon="3.48294">
        <ele>686</ele>
      </trkpt>
      <trkpt lat="43.75187" lon="3.48255">
        <ele>685.9</ele>
      </trkpt>
      <trkpt lat="43.75211" lon="3.48176">
        <ele>684.4</ele>
      </trkpt>
      <trkpt lat="43.75273" lon="3.48146">
        <ele>682.7</ele>
      </trkpt>
      <trkpt lat="43.75312" lon="3.48018">
        <ele>681.7</ele>
      </trkpt>
      <trkpt lat="43.75334" lon="3.47942">
        <ele>678.7</ele>
      </trkpt>
      <trkpt lat="43.75312" lon="3.46944">
        <ele>685.9</ele>
      </trkpt>
      <trkpt lat="43.75264" lon="3.46425">
        <ele>697.2</ele>
      </trkpt>
      <trkpt lat="43.75234" lon="3.4653">
        <ele>697.1</ele>
      </trkpt>
      <trkpt lat="43.75197" lon="3.46659">
        <ele>695.9</ele>
      </trkpt>
      <trkpt lat="43.75114" lon="3.46682">
        <ele>687</ele>
      </trkpt>
      <trkpt lat="43.75018" lon="3.46613">
        <ele>689.8</ele>
      </trkpt>
      <trkpt lat="43.74928" lon="3.46677">
        <ele>684.2</ele>
      </trkpt>
      <trkpt lat="43.74868" lon="3.46687">
        <ele>686.6</ele>
      </trkpt>
      <trkpt lat="43.74862" lon="3.46654">
        <ele>689.2</ele>
      </trkpt>
      <trkpt lat="43.74878" lon="3.46586">
        <ele>691.9</ele>
      </trkpt>
      <trkpt lat="43.74948" lon="3.46544">
        <ele>697.3</ele>
      </trkpt>
      <trkpt lat="43.74978" lon="3.46475">
        <ele>699.5</ele>
      </trkpt>
      <trkpt lat="43.74991" lon="3.46438">
        <ele>701.3</ele>
      </trkpt>
      <trkpt lat="43.74998" lon="3.4642">
        <ele>703.4</ele>
      </trkpt>
      <trkpt lat="43.74915" lon="3.46346">
        <ele>700.1</ele>
      </trkpt>
      <trkpt lat="43.74835" lon="3.46392">
        <ele>695.1</ele>
      </trkpt>
      <trkpt lat="43.74742" lon="3.4636">
        <ele>685.7</ele>
      </trkpt>
      <trkpt lat="43.74619" lon="3.46346">
        <ele>678.1</ele>
      </trkpt>
      <trkpt lat="43.74646" lon="3.46377">
        <ele>676.9</ele>
      </trkpt>
      <trkpt lat="43.74606" lon="3.46477">
        <ele>657.8</ele>
      </trkpt>
      <trkpt lat="43.74595" lon="3.46528">
        <ele>648.9</ele>
      </trkpt>
      <trkpt lat="43.74624" lon="3.46583">
        <ele>649.4</ele>
      </trkpt>
      <trkpt lat="43.74628" lon="3.46644">
        <ele>636.8</ele>
      </trkpt>
      <trkpt lat="43.74641" lon="3.46683">
        <ele>634.3</ele>
      </trkpt>
      <trkpt lat="43.74578" lon="3.46656">
        <ele>622.1</ele>
      </trkpt>
      <trkpt lat="43.74556" lon="3.46656">
        <ele>623.9</ele>
      </trkpt>
      <trkpt lat="43.74525" lon="3.46625">
        <ele>627.1</ele>
      </trkpt>
      <trkpt lat="43.74433" lon="3.46683">
        <ele>621.3</ele>
      </trkpt>
      <trkpt lat="43.74446" lon="3.4665">
        <ele>635.2</ele>
      </trkpt>
      <trkpt lat="43.74398" lon="3.46607">
        <ele>656</ele>
      </trkpt>
      <trkpt lat="43.74308" lon="3.46638">
        <ele>661</ele>
      </trkpt>
      <trkpt lat="43.74275" lon="3.46674">
        <ele>653.1</ele>
      </trkpt>
      <trkpt lat="43.74253" lon="3.46667">
        <ele>658.7</ele>
      </trkpt>
      <trkpt lat="43.74247" lon="3.46671">
        <ele>657.5</ele>
      </trkpt>
      <trkpt lat="43.74229" lon="3.46661">
        <ele>658.8</ele>
      </trkpt>
      <trkpt lat="43.74221" lon="3.46673">
        <ele>649.9</ele>
      </trkpt>
      <trkpt lat="43.74169" lon="3.46654">
        <ele>646</ele>
      </trkpt>
      <trkpt lat="43.74163" lon="3.46671">
        <ele>634.4</ele>
      </trkpt>
      <trkpt lat="43.74129" lon="3.46667">
        <ele>626.6</ele>
      </trkpt>
      <trkpt lat="43.74121" lon="3.46643">
        <ele>637</ele>
      </trkpt>
      <trkpt lat="43.74093" lon="3.46633">
        <ele>635.1</ele>
      </trkpt>
      <trkpt lat="43.74077" lon="3.46627">
        <ele>631.5</ele>
      </trkpt>
      <trkpt lat="43.74077" lon="3.46677">
        <ele>619.9</ele>
      </trkpt>
      <trkpt lat="43.74066" lon="3.46705">
        <ele>615.3</ele>
      </trkpt>
      <trkpt lat="43.74044" lon="3.46728">
        <ele>613</ele>
      </trkpt>
      <trkpt lat="43.74027" lon="3.46787">
        <ele>602.4</ele>
      </trkpt>
      <trkpt lat="43.74006" lon="3.46799">
        <ele>602.2</ele>
      </trkpt>
      <trkpt lat="43.73989" lon="3.46779">
        <ele>597.3</ele>
      </trkpt>
      <trkpt lat="43.73981" lon="3.46731">
        <ele>605.3</ele>
      </trkpt>
      <trkpt lat="43.73961" lon="3.4669">
        <ele>608.1</ele>
      </trkpt>
      <trkpt lat="43.73928" lon="3.46651">
        <ele>620.1</ele>
      </trkpt>
      <trkpt lat="43.73884" lon="3.4661">
        <ele>612.5</ele>
      </trkpt>
      <trkpt lat="43.73851" lon="3.46581">
        <ele>618.3</ele>
      </trkpt>
      <trkpt lat="43.73828" lon="3.46514">
        <ele>613.2</ele>
      </trkpt>
      <trkpt lat="43.73813" lon="3.46465">
        <ele>623.6</ele>
      </trkpt>
      <trkpt lat="43.73776" lon="3.46416">
        <ele>634.7</ele>
      </trkpt>
      <trkpt lat="43.73749" lon="3.46394">
        <ele>624.9</ele>
      </trkpt>
      <trkpt lat="43.73722" lon="3.46392">
        <ele>625.9</ele>
      </trkpt>
      <trkpt lat="43.737" lon="3.46382">
        <ele>626.4</ele>
      </trkpt>
      <trkpt lat="43.73676" lon="3.46381">
        <ele>625.8</ele>
      </trkpt>
      <trkpt lat="43.7367" lon="3.46348">
        <ele>624.6</ele>
      </trkpt>
      <trkpt lat="43.7365" lon="3.46322">
        <ele>619.5</ele>
      </trkpt>
      <trkpt lat="43.73721" lon="3.46079">
        <ele>602</ele>
      </trkpt>
      <trkpt lat="43.73723" lon="3.45934">
        <ele>594.9</ele>
      </trkpt>
      <trkpt lat="43.73712" lon="3.45818">
        <ele>594.3</ele>
      </trkpt>
      <trkpt lat="43.73664" lon="3.45684">
        <ele>571.1</ele>
      </trkpt>
      <trkpt lat="43.73657" lon="3.45566">
        <ele>575</ele>
      </trkpt>
      <trkpt lat="43.73647" lon="3.45529">
        <ele>573.3</ele>
      </trkpt>
      <trkpt lat="43.73593" lon="3.45471">
        <ele>568.1</ele>
      </trkpt>
      <trkpt lat="43.73523" lon="3.45367">
        <ele>551.1</ele>
      </trkpt>
      <trkpt lat="43.73527" lon="3.45329">
        <ele>545.7</ele>
      </trkpt>
      <trkpt lat="43.7356" lon="3.45299">
        <ele>548</ele>
      </trkpt>
      <trkpt lat="43.73603" lon="3.45284">
        <ele>553.7</ele>
      </trkpt>
      <trkpt lat="43.73655" lon="3.45268">
        <ele>551.2</ele>
      </trkpt>
      <trkpt lat="43.73659" lon="3.45239">
        <ele>542.2</ele>
      </trkpt>
      <trkpt lat="43.73621" lon="3.45234">
        <ele>539.7</ele>
      </trkpt>
      <trkpt lat="43.73538" lon="3.45254">
        <ele>541.4</ele>
      </trkpt>
      <trkpt lat="43.73478" lon="3.45312">
        <ele>527.2</ele>
      </trkpt>
      <trkpt lat="43.73463" lon="3.45382">
        <ele>526.3</ele>
      </trkpt>
      <trkpt lat="43.7352" lon="3.45503">
        <ele>531.5</ele>
      </trkpt>
      <trkpt lat="43.73533" lon="3.45543">
        <ele>534.6</ele>
      </trkpt>
      <trkpt lat="43.73521" lon="3.45595">
        <ele>527</ele>
      </trkpt>
      <trkpt lat="43.73498" lon="3.4567">
        <ele>515.2</ele>
      </trkpt>
      <trkpt lat="43.73497" lon="3.45723">
        <ele>506.3</ele>
      </trkpt>
      <trkpt lat="43.73507" lon="3.45771">
        <ele>516.4</ele>
      </trkpt>
      <trkpt lat="43.73526" lon="3.45801">
        <ele>516.9</ele>
      </trkpt>
      <trkpt lat="43.73529" lon="3.45807">
        <ele>516.8</ele>
      </trkpt>
      <trkpt lat="43.73538" lon="3.45824">
        <ele>517.6</ele>
      </trkpt>
      <trkpt lat="43.73545" lon="3.45848">
        <ele>512.1</ele>
      </trkpt>
      <trkpt lat="43.73547" lon="3.45853">
        <ele>512.1</ele>
      </trkpt>
      <trkpt lat="43.73547" lon="3.45854">
        <ele>512.95</ele>
      </trkpt>
      <trkpt lat="43.73552" lon="3.45925">
        <ele>508.55</ele>
      </trkpt>
      <trkpt lat="43.7355" lon="3.45956">
        <ele>507.45</ele>
      </trkpt>
      <trkpt lat="43.73542" lon="3.45992">
        <ele>504.98</ele>
      </trkpt>
      <trkpt lat="43.73522" lon="3.4601">
        <ele>502.79</ele>
      </trkpt>
      <trkpt lat="43.73472" lon="3.46031">
        <ele>499.06</ele>
      </trkpt>
      <trkpt lat="43.73406" lon="3.46051">
        <ele>492.4</ele>
      </trkpt>
      <trkpt lat="43.7334" lon="3.4607">
        <ele>489.52</ele>
      </trkpt>
      <trkpt lat="43.73309" lon="3.46071">
        <ele>487.32</ele>
      </trkpt>
      <trkpt lat="43.7328" lon="3.46078">
        <ele>484.81</ele>
      </trkpt>
      <trkpt lat="43.73247" lon="3.46071">
        <ele>480.45</ele>
      </trkpt>
      <trkpt lat="43.73215" lon="3.46052">
        <ele>476.79</ele>
      </trkpt>
      <trkpt lat="43.7314" lon="3.46022">
        <ele>474.37</ele>
      </trkpt>
      <trkpt lat="43.73099" lon="3.46001">
        <ele>473.14</ele>
      </trkpt>
      <trkpt lat="43.73047" lon="3.45985">
        <ele>469.64</ele>
      </trkpt>
      <trkpt lat="43.73017" lon="3.4598">
        <ele>467.92</ele>
      </trkpt>
      <trkpt lat="43.72999" lon="3.45982">
        <ele>467.69</ele>
      </trkpt>
      <trkpt lat="43.72984" lon="3.45987">
        <ele>467.69</ele>
      </trkpt>
      <trkpt lat="43.72974" lon="3.45997">
        <ele>467.15</ele>
      </trkpt>
      <trkpt lat="43.72969" lon="3.46005">
        <ele>467.15</ele>
      </trkpt>
      <trkpt lat="43.72962" lon="3.46025">
        <ele>466.95</ele>
      </trkpt>
      <trkpt lat="43.72961" lon="3.46049">
        <ele>466.48</ele>
      </trkpt>
      <trkpt lat="43.72981" lon="3.46156">
        <ele>464.86</ele>
      </trkpt>
      <trkpt lat="43.7299" lon="3.46174">
        <ele>464</ele>
      </trkpt>
      <trkpt lat="43.73027" lon="3.46226">
        <ele>458.35</ele>
      </trkpt>
      <trkpt lat="43.73067" lon="3.46309">
        <ele>451.15</ele>
      </trkpt>
      <trkpt lat="43.73079" lon="3.46377">
        <ele>446.42</ele>
      </trkpt>
      <trkpt lat="43.7309" lon="3.46445">
        <ele>440.1</ele>
      </trkpt>
      <trkpt lat="43.73092" lon="3.46465">
        <ele>437.38</ele>
      </trkpt>
      <trkpt lat="43.73064" lon="3.46563">
        <ele>428.75</ele>
      </trkpt>
      <trkpt lat="43.73047" lon="3.46596">
        <ele>426.3</ele>
      </trkpt>
      <trkpt lat="43.73024" lon="3.46622">
        <ele>424.25</ele>
      </trkpt>
      <trkpt lat="43.73015" lon="3.46626">
        <ele>423.44</ele>
      </trkpt>
      <trkpt lat="43.7298" lon="3.46632">
        <ele>422.71</ele>
      </trkpt>
      <trkpt lat="43.72967" lon="3.46641">
        <ele>420.41</ele>
      </trkpt>
      <trkpt lat="43.72959" lon="3.46657">
        <ele>420.41</ele>
      </trkpt>
      <trkpt lat="43.72953" lon="3.46684">
        <ele>419.56</ele>
      </trkpt>
      <trkpt lat="43.72955" lon="3.46728">
        <ele>416.05</ele>
      </trkpt>
      <trkpt lat="43.72952" lon="3.46757">
        <ele>414.22</ele>
      </trkpt>
      <trkpt lat="43.72947" lon="3.46766">
        <ele>413.37</ele>
      </trkpt>
      <trkpt lat="43.72939" lon="3.4677">
        <ele>412.56</ele>
      </trkpt>
      <trkpt lat="43.72927" lon="3.46771">
        <ele>411.7</ele>
      </trkpt>
      <trkpt lat="43.72871" lon="3.46767">
        <ele>406.95</ele>
      </trkpt>
      <trkpt lat="43.72814" lon="3.46763">
        <ele>401.73</ele>
      </trkpt>
      <trkpt lat="43.728" lon="3.46759">
        <ele>400.91</ele>
      </trkpt>
      <trkpt lat="43.72744" lon="3.46716">
        <ele>398.61</ele>
      </trkpt>
      <trkpt lat="43.72688" lon="3.46673">
        <ele>398.22</ele>
      </trkpt>
      <trkpt lat="43.72648" lon="3.46663">
        <ele>398.24</ele>
      </trkpt>
      <trkpt lat="43.72622" lon="3.46668">
        <ele>398.18</ele>
      </trkpt>
      <trkpt lat="43.7258" lon="3.46681">
        <ele>397.09</ele>
      </trkpt>
      <trkpt lat="43.7253" lon="3.46681">
        <ele>396.22</ele>
      </trkpt>
      <trkpt lat="43.72505" lon="3.46688">
        <ele>395.89</ele>
      </trkpt>
      <trkpt lat="43.72483" lon="3.46703">
        <ele>395.62</ele>
      </trkpt>
      <trkpt lat="43.72453" lon="3.46727">
        <ele>394.27</ele>
      </trkpt>
      <trkpt lat="43.72441" lon="3.46739">
        <ele>393.87</ele>
      </trkpt>
      <trkpt lat="43.72399" lon="3.46825">
        <ele>391.37</ele>
      </trkpt>
      <trkpt lat="43.72395" lon="3.46862">
        <ele>390.25</ele>
      </trkpt>
      <trkpt lat="43.72391" lon="3.46872">
        <ele>390.25</ele>
      </trkpt>
      <trkpt lat="43.72378" lon="3.46887">
        <ele>389.46</ele>
      </trkpt>
      <trkpt lat="43.72363" lon="3.46894">
        <ele>388.07</ele>
      </trkpt>
      <trkpt lat="43.72328" lon="3.46902">
        <ele>386.21</ele>
      </trkpt>
      <trkpt lat="43.7231" lon="3.46911">
        <ele>385.2</ele>
      </trkpt>
      <trkpt lat="43.72286" lon="3.4693">
        <ele>383.74</ele>
      </trkpt>
      <trkpt lat="43.72264" lon="3.46936">
        <ele>381.2</ele>
      </trkpt>
      <trkpt lat="43.72229" lon="3.46922">
        <ele>379.59</ele>
      </trkpt>
      <trkpt lat="43.72219" lon="3.46927">
        <ele>378.7</ele>
      </trkpt>
      <trkpt lat="43.72207" lon="3.46944">
        <ele>376.52</ele>
      </trkpt>
      <trkpt lat="43.72201" lon="3.4695">
        <ele>376.52</ele>
      </trkpt>
      <trkpt lat="43.72195" lon="3.46952">
        <ele>376.52</ele>
      </trkpt>
      <trkpt lat="43.7218" lon="3.46951">
        <ele>375.85</ele>
      </trkpt>
      <trkpt lat="43.72166" lon="3.46944">
        <ele>375.27</ele>
      </trkpt>
      <trkpt lat="43.7214" lon="3.46924">
        <ele>373.3</ele>
      </trkpt>
      <trkpt lat="43.72131" lon="3.4692">
        <ele>372.05</ele>
      </trkpt>
      <trkpt lat="43.72125" lon="3.46919">
        <ele>372.05</ele>
      </trkpt>
      <trkpt lat="43.72118" lon="3.46921">
        <ele>371.1</ele>
      </trkpt>
      <trkpt lat="43.72113" lon="3.46925">
        <ele>371.1</ele>
      </trkpt>
      <trkpt lat="43.72102" lon="3.46942">
        <ele>370.17</ele>
      </trkpt>
      <trkpt lat="43.72089" lon="3.4698">
        <ele>367.54</ele>
      </trkpt>
      <trkpt lat="43.7208" lon="3.46997">
        <ele>365.92</ele>
      </trkpt>
      <trkpt lat="43.72067" lon="3.47005">
        <ele>364.81</ele>
      </trkpt>
      <trkpt lat="43.72024" lon="3.47015">
        <ele>361.27</ele>
      </trkpt>
      <trkpt lat="43.7201" lon="3.47031">
        <ele>359.94</ele>
      </trkpt>
      <trkpt lat="43.71986" lon="3.47078">
        <ele>355.49</ele>
      </trkpt>
      <trkpt lat="43.71951" lon="3.47117">
        <ele>353.42</ele>
      </trkpt>
      <trkpt lat="43.71937" lon="3.47146">
        <ele>351.25</ele>
      </trkpt>
      <trkpt lat="43.71935" lon="3.47169">
        <ele>350.13</ele>
      </trkpt>
      <trkpt lat="43.71926" lon="3.47192">
        <ele>348.86</ele>
      </trkpt>
      <trkpt lat="43.71875" lon="3.47263">
        <ele>343.83</ele>
      </trkpt>
      <trkpt lat="43.71859" lon="3.47289">
        <ele>342</ele>
      </trkpt>
      <trkpt lat="43.71808" lon="3.4739">
        <ele>335.29</ele>
      </trkpt>
      <trkpt lat="43.71756" lon="3.4749">
        <ele>329.16</ele>
      </trkpt>
      <trkpt lat="43.71693" lon="3.47569">
        <ele>324.05</ele>
      </trkpt>
      <trkpt lat="43.71693" lon="3.47568">
        <ele>324.09</ele>
      </trkpt>
      <trkpt lat="43.71674" lon="3.47594">
        <ele>322.01</ele>
      </trkpt>
      <trkpt lat="43.71656" lon="3.47609">
        <ele>320.56</ele>
      </trkpt>
      <trkpt lat="43.71638" lon="3.47618">
        <ele>319.36</ele>
      </trkpt>
      <trkpt lat="43.71639" lon="3.47624">
        <ele>319.36</ele>
      </trkpt>
      <trkpt lat="43.71637" lon="3.4763">
        <ele>319.36</ele>
      </trkpt>
      <trkpt lat="43.71603" lon="3.47662">
        <ele>319.36</ele>
      </trkpt>
      <trkpt lat="43.71594" lon="3.47666">
        <ele>319.36</ele>
      </trkpt>
      <trkpt lat="43.7157" lon="3.47667">
        <ele>319.36</ele>
      </trkpt>
      <trkpt lat="43.71554" lon="3.4767">
        <ele>319.36</ele>
      </trkpt>
      <trkpt lat="43.71536" lon="3.47678">
        <ele>315.02</ele>
      </trkpt>
      <trkpt lat="43.71496" lon="3.47703">
        <ele>315.02</ele>
      </trkpt>
      <trkpt lat="43.71462" lon="3.47719">
        <ele>315.02</ele>
      </trkpt>
      <trkpt lat="43.71459" lon="3.47726">
        <ele>315.02</ele>
      </trkpt>
      <trkpt lat="43.71459" lon="3.47733">
        <ele>315.02</ele>
      </trkpt>
      <trkpt lat="43.71464" lon="3.4774">
        <ele>315.02</ele>
      </trkpt>
      <trkpt lat="43.71472" lon="3.47746">
        <ele>315.02</ele>
      </trkpt>
      <trkpt lat="43.7149" lon="3.47751">
        <ele>315.02</ele>
      </trkpt>
      <trkpt lat="43.71525" lon="3.47755">
        <ele>318.89</ele>
      </trkpt>
      <trkpt lat="43.71525" lon="3.47773">
        <ele>318.13</ele>
      </trkpt>
      <trkpt lat="43.71515" lon="3.47827">
        <ele>317.08</ele>
      </trkpt>
      <trkpt lat="43.71516" lon="3.47837">
        <ele>317.58</ele>
      </trkpt>
      <trkpt lat="43.7152" lon="3.47843">
        <ele>317.58</ele>
      </trkpt>
      <trkpt lat="43.71527" lon="3.47847">
        <ele>317.8</ele>
      </trkpt>
      <trkpt lat="43.71541" lon="3.47851">
        <ele>317.8</ele>
      </trkpt>
      <trkpt lat="43.71553" lon="3.47862">
        <ele>316.96</ele>
      </trkpt>
      <trkpt lat="43.71559" lon="3.47871">
        <ele>316.2</ele>
      </trkpt>
      <trkpt lat="43.71562" lon="3.47888">
        <ele>316.03</ele>
      </trkpt>
      <trkpt lat="43.71558" lon="3.47903">
        <ele>315.67</ele>
      </trkpt>
      <trkpt lat="43.71551" lon="3.47908">
        <ele>315.38</ele>
      </trkpt>
      <trkpt lat="43.71503" lon="3.47948">
        <ele>313.68</ele>
      </trkpt>
      <trkpt lat="43.71488" lon="3.47962">
        <ele>313.27</ele>
      </trkpt>
      <trkpt lat="43.71487" lon="3.47974">
        <ele>313.12</ele>
      </trkpt>
      <trkpt lat="43.71488" lon="3.4798">
        <ele>312.73</ele>
      </trkpt>
      <trkpt lat="43.71508" lon="3.47993">
        <ele>311.86</ele>
      </trkpt>
      <trkpt lat="43.71514" lon="3.48003">
        <ele>310.64</ele>
      </trkpt>
      <trkpt lat="43.71517" lon="3.48013">
        <ele>310.64</ele>
      </trkpt>
      <trkpt lat="43.71515" lon="3.48038">
        <ele>309.46</ele>
      </trkpt>
      <trkpt lat="43.71506" lon="3.48062">
        <ele>307.8</ele>
      </trkpt>
      <trkpt lat="43.71459" lon="3.48131">
        <ele>302.51</ele>
      </trkpt>
      <trkpt lat="43.71425" lon="3.4819">
        <ele>298.5</ele>
      </trkpt>
      <trkpt lat="43.7141" lon="3.48226">
        <ele>296.98</ele>
      </trkpt>
      <trkpt lat="43.71388" lon="3.48296">
        <ele>292.47</ele>
      </trkpt>
      <trkpt lat="43.71382" lon="3.48331">
        <ele>289.95</ele>
      </trkpt>
      <trkpt lat="43.71374" lon="3.4836">
        <ele>288.39</ele>
      </trkpt>
      <trkpt lat="43.71365" lon="3.48379">
        <ele>287.14</ele>
      </trkpt>
      <trkpt lat="43.71336" lon="3.48413">
        <ele>284.15</ele>
      </trkpt>
      <trkpt lat="43.71325" lon="3.48432">
        <ele>283.4</ele>
      </trkpt>
      <trkpt lat="43.71302" lon="3.48505">
        <ele>277.66</ele>
      </trkpt>
      <trkpt lat="43.71283" lon="3.48541">
        <ele>273.92</ele>
      </trkpt>
      <trkpt lat="43.71245" lon="3.48628">
        <ele>265.73</ele>
      </trkpt>
      <trkpt lat="43.71239" lon="3.48638">
        <ele>264.9</ele>
      </trkpt>
      <trkpt lat="43.71231" lon="3.48654">
        <ele>263.71</ele>
      </trkpt>
      <trkpt lat="43.71186" lon="3.48755">
        <ele>254.9</ele>
      </trkpt>
      <trkpt lat="43.71179" lon="3.48758">
        <ele>254.9</ele>
      </trkpt>
      <trkpt lat="43.71174" lon="3.48755">
        <ele>253.51</ele>
      </trkpt>
      <trkpt lat="43.71174" lon="3.48745">
        <ele>252.17</ele>
      </trkpt>
      <trkpt lat="43.71189" lon="3.48697">
        <ele>248.41</ele>
      </trkpt>
      <trkpt lat="43.7119" lon="3.48686">
        <ele>248.01</ele>
      </trkpt>
      <trkpt lat="43.71188" lon="3.48678">
        <ele>248.01</ele>
      </trkpt>
      <trkpt lat="43.71184" lon="3.48675">
        <ele>248.01</ele>
      </trkpt>
      <trkpt lat="43.71173" lon="3.4868">
        <ele>247.08</ele>
      </trkpt>
      <trkpt lat="43.71157" lon="3.48711">
        <ele>245.87</ele>
      </trkpt>
      <trkpt lat="43.71147" lon="3.48748">
        <ele>244.04</ele>
      </trkpt>
      <trkpt lat="43.71139" lon="3.48793">
        <ele>241.47</ele>
      </trkpt>
      <trkpt lat="43.7114" lon="3.48816">
        <ele>240.11</ele>
      </trkpt>
      <trkpt lat="43.71132" lon="3.48841">
        <ele>240.11</ele>
      </trkpt>
      <trkpt lat="43.71114" lon="3.4887">
        <ele>237.49</ele>
      </trkpt>
      <trkpt lat="43.71104" lon="3.4888">
        <ele>235.64</ele>
      </trkpt>
      <trkpt lat="43.71054" lon="3.48909">
        <ele>229.84</ele>
      </trkpt>
      <trkpt lat="43.71043" lon="3.48921">
        <ele>227.28</ele>
      </trkpt>
      <trkpt lat="43.71042" lon="3.48938">
        <ele>226.27</ele>
      </trkpt>
      <trkpt lat="43.71062" lon="3.48971">
        <ele>224.5</ele>
      </trkpt>
      <trkpt lat="43.71075" lon="3.48988">
        <ele>219.7</ele>
      </trkpt>
      <trkpt lat="43.71077" lon="3.48996">
        <ele>219.7</ele>
      </trkpt>
      <trkpt lat="43.71076" lon="3.49004">
        <ele>219.7</ele>
      </trkpt>
      <trkpt lat="43.71023" lon="3.49062">
        <ele>203.93</ele>
      </trkpt>
      <trkpt lat="43.70964" lon="3.49089">
        <ele>200.82</ele>
      </trkpt>
      <trkpt lat="43.70907" lon="3.49118">
        <ele>201.77</ele>
      </trkpt>
      <trkpt lat="43.70854" lon="3.49146">
        <ele>205.89</ele>
      </trkpt>
      <trkpt lat="43.70855" lon="3.49155">
        <ele>207.17</ele>
      </trkpt>
      <trkpt lat="43.70853" lon="3.49163">
        <ele>207.17</ele>
      </trkpt>
      <trkpt lat="43.70837" lon="3.49183">
        <ele>210.95</ele>
      </trkpt>
      <trkpt lat="43.70824" lon="3.49206">
        <ele>213.29</ele>
      </trkpt>
      <trkpt lat="43.70799" lon="3.49287">
        <ele>221.34</ele>
      </trkpt>
      <trkpt lat="43.70792" lon="3.49334">
        <ele>222.67</ele>
      </trkpt>
      <trkpt lat="43.70779" lon="3.4939">
        <ele>227.47</ele>
      </trkpt>
      <trkpt lat="43.70765" lon="3.4943">
        <ele>229.49</ele>
      </trkpt>
      <trkpt lat="43.70764" lon="3.49459">
        <ele>231.19</ele>
      </trkpt>
      <trkpt lat="43.70772" lon="3.49527">
        <ele>234.29</ele>
      </trkpt>
      <trkpt lat="43.70779" lon="3.49595">
        <ele>237.57</ele>
      </trkpt>
      <trkpt lat="43.7078" lon="3.4966">
        <ele>240.39</ele>
      </trkpt>
      <trkpt lat="43.70786" lon="3.49687">
        <ele>241.41</ele>
      </trkpt>
      <trkpt lat="43.70825" lon="3.49734">
        <ele>242.07</ele>
      </trkpt>
      <trkpt lat="43.70833" lon="3.49738">
        <ele>242.07</ele>
      </trkpt>
      <trkpt lat="43.7084" lon="3.49736">
        <ele>241.89</ele>
      </trkpt>
      <trkpt lat="43.70846" lon="3.49731">
        <ele>241.88</ele>
      </trkpt>
      <trkpt lat="43.70849" lon="3.49723">
        <ele>242.03</ele>
      </trkpt>
      <trkpt lat="43.70851" lon="3.49698">
        <ele>242.36</ele>
      </trkpt>
      <trkpt lat="43.70857" lon="3.4968">
        <ele>243.3</ele>
      </trkpt>
      <trkpt lat="43.70901" lon="3.49576">
        <ele>250.6</ele>
      </trkpt>
      <trkpt lat="43.70945" lon="3.49472">
        <ele>259.76</ele>
      </trkpt>
      <trkpt lat="43.70956" lon="3.49452">
        <ele>261.03</ele>
      </trkpt>
      <trkpt lat="43.70977" lon="3.49433">
        <ele>262.94</ele>
      </trkpt>
      <trkpt lat="43.71028" lon="3.49397">
        <ele>266.86</ele>
      </trkpt>
      <trkpt lat="43.71088" lon="3.4937">
        <ele>272.71</ele>
      </trkpt>
      <trkpt lat="43.71126" lon="3.49369">
        <ele>274.94</ele>
      </trkpt>
      <trkpt lat="43.71189" lon="3.49381">
        <ele>279.51</ele>
      </trkpt>
      <trkpt lat="43.7119" lon="3.49381">
        <ele>279.58</ele>
      </trkpt>
      <trkpt lat="43.7121" lon="3.49385">
        <ele>281.46</ele>
      </trkpt>
      <trkpt lat="43.71213" lon="3.49442">
        <ele>280.57</ele>
      </trkpt>
      <trkpt lat="43.71233" lon="3.49517">
        <ele>277.94</ele>
      </trkpt>
      <trkpt lat="43.71236" lon="3.49534">
        <ele>277.03</ele>
      </trkpt>
      <trkpt lat="43.71234" lon="3.49549">
        <ele>276.26</ele>
      </trkpt>
      <trkpt lat="43.71227" lon="3.49576">
        <ele>275.61</ele>
      </trkpt>
      <trkpt lat="43.71227" lon="3.49591">
        <ele>275.61</ele>
      </trkpt>
      <trkpt lat="43.71237" lon="3.49596">
        <ele>275.42</ele>
      </trkpt>
      <trkpt lat="43.71259" lon="3.49599">
        <ele>275.79</ele>
      </trkpt>
      <trkpt lat="43.71273" lon="3.49611">
        <ele>276.21</ele>
      </trkpt>
      <trkpt lat="43.713" lon="3.49626">
        <ele>278.66</ele>
      </trkpt>
      <trkpt lat="43.71337" lon="3.49661">
        <ele>280.7</ele>
      </trkpt>
      <trkpt lat="43.71351" lon="3.4967">
        <ele>281.19</ele>
      </trkpt>
      <trkpt lat="43.71389" lon="3.49675">
        <ele>281.29</ele>
      </trkpt>
      <trkpt lat="43.71402" lon="3.49686">
        <ele>281.09</ele>
      </trkpt>
      <trkpt lat="43.7141" lon="3.49707">
        <ele>280.66</ele>
      </trkpt>
      <trkpt lat="43.71409" lon="3.49733">
        <ele>280.15</ele>
      </trkpt>
      <trkpt lat="43.71401" lon="3.49769">
        <ele>278.91</ele>
      </trkpt>
      <trkpt lat="43.71401" lon="3.49786">
        <ele>278.33</ele>
      </trkpt>
      <trkpt lat="43.71405" lon="3.49803">
        <ele>277.55</ele>
      </trkpt>
      <trkpt lat="43.71444" lon="3.49848">
        <ele>276.33</ele>
      </trkpt>
      <trkpt lat="43.71472" lon="3.49888">
        <ele>275.3</ele>
      </trkpt>
      <trkpt lat="43.71486" lon="3.49903">
        <ele>274.28</ele>
      </trkpt>
      <trkpt lat="43.715" lon="3.49908">
        <ele>272.97</ele>
      </trkpt>
      <trkpt lat="43.71512" lon="3.4991">
        <ele>272.97</ele>
      </trkpt>
      <trkpt lat="43.71522" lon="3.49905">
        <ele>271.62</ele>
      </trkpt>
      <trkpt lat="43.71539" lon="3.4988">
        <ele>268.46</ele>
      </trkpt>
      <trkpt lat="43.71547" lon="3.49875">
        <ele>267.23</ele>
      </trkpt>
      <trkpt lat="43.71558" lon="3.49883">
        <ele>266.49</ele>
      </trkpt>
      <trkpt lat="43.71561" lon="3.49895">
        <ele>265.6</ele>
      </trkpt>
      <trkpt lat="43.71562" lon="3.49915">
        <ele>265.6</ele>
      </trkpt>
      <trkpt lat="43.71566" lon="3.4993">
        <ele>264.97</ele>
      </trkpt>
      <trkpt lat="43.7158" lon="3.4995">
        <ele>264.8</ele>
      </trkpt>
      <trkpt lat="43.71582" lon="3.4996">
        <ele>264.8</ele>
      </trkpt>
      <trkpt lat="43.71581" lon="3.49994">
        <ele>264.65</ele>
      </trkpt>
      <trkpt lat="43.71583" lon="3.5001">
        <ele>264.19</ele>
      </trkpt>
      <trkpt lat="43.71583" lon="3.50011">
        <ele>264.17</ele>
      </trkpt>
      <trkpt lat="43.71604" lon="3.50045">
        <ele>262.52</ele>
      </trkpt>
      <trkpt lat="43.7164" lon="3.50077">
        <ele>262.89</ele>
      </trkpt>
      <trkpt lat="43.71662" lon="3.50088">
        <ele>262.27</ele>
      </trkpt>
      <trkpt lat="43.71707" lon="3.50132">
        <ele>258.4</ele>
      </trkpt>
      <trkpt lat="43.71724" lon="3.50132">
        <ele>256.39</ele>
      </trkpt>
      <trkpt lat="43.71738" lon="3.50137">
        <ele>254.63</ele>
      </trkpt>
      <trkpt lat="43.71748" lon="3.50146">
        <ele>253.56</ele>
      </trkpt>
      <trkpt lat="43.71767" lon="3.50183">
        <ele>248.69</ele>
      </trkpt>
      <trkpt lat="43.71772" lon="3.50198">
        <ele>247.48</ele>
      </trkpt>
      <trkpt lat="43.7177" lon="3.50312">
        <ele>250.14</ele>
      </trkpt>
      <trkpt lat="43.71765" lon="3.50349">
        <ele>251.93</ele>
      </trkpt>
      <trkpt lat="43.71761" lon="3.50362">
        <ele>251.93</ele>
      </trkpt>
      <trkpt lat="43.71752" lon="3.50362">
        <ele>252.83</ele>
      </trkpt>
      <trkpt lat="43.71745" lon="3.50324">
        <ele>255.6</ele>
      </trkpt>
      <trkpt lat="43.71733" lon="3.50303">
        <ele>257.43</ele>
      </trkpt>
      <trkpt lat="43.71708" lon="3.50279">
        <ele>258.27</ele>
      </trkpt>
      <trkpt lat="43.7169" lon="3.50271">
        <ele>258.59</ele>
      </trkpt>
      <trkpt lat="43.71666" lon="3.5027">
        <ele>259.27</ele>
      </trkpt>
      <trkpt lat="43.71666" lon="3.50278">
        <ele>259.38</ele>
      </trkpt>
      <trkpt lat="43.71681" lon="3.50282">
        <ele>259.69</ele>
      </trkpt>
      <trkpt lat="43.71694" lon="3.50291">
        <ele>260.26</ele>
      </trkpt>
      <trkpt lat="43.71702" lon="3.50311">
        <ele>261.12</ele>
      </trkpt>
      <trkpt lat="43.71704" lon="3.50331">
        <ele>262.31</ele>
      </trkpt>
      <trkpt lat="43.7169" lon="3.50381">
        <ele>264.3</ele>
      </trkpt>
      <trkpt lat="43.71688" lon="3.50415">
        <ele>266.49</ele>
      </trkpt>
      <trkpt lat="43.71685" lon="3.50479">
        <ele>270.46</ele>
      </trkpt>
      <trkpt lat="43.71689" lon="3.5051">
        <ele>272.12</ele>
      </trkpt>
      <trkpt lat="43.71702" lon="3.50541">
        <ele>276.17</ele>
      </trkpt>
      <trkpt lat="43.71719" lon="3.50571">
        <ele>279.18</ele>
      </trkpt>
      <trkpt lat="43.71734" lon="3.50603">
        <ele>283.58</ele>
      </trkpt>
      <trkpt lat="43.71737" lon="3.50615">
        <ele>284.14</ele>
      </trkpt>
      <trkpt lat="43.71734" lon="3.50624">
        <ele>285.71</ele>
      </trkpt>
      <trkpt lat="43.71699" lon="3.50629">
        <ele>287.9</ele>
      </trkpt>
      <trkpt lat="43.7168" lon="3.50635">
        <ele>288.75</ele>
      </trkpt>
      <trkpt lat="43.71647" lon="3.50656">
        <ele>289.13</ele>
      </trkpt>
      <trkpt lat="43.71593" lon="3.50676">
        <ele>289.13</ele>
      </trkpt>
      <trkpt lat="43.71538" lon="3.50695">
        <ele>289.61</ele>
      </trkpt>
      <trkpt lat="43.71514" lon="3.50716">
        <ele>289.61</ele>
      </trkpt>
      <trkpt lat="43.71494" lon="3.50727">
        <ele>289.61</ele>
      </trkpt>
      <trkpt lat="43.71469" lon="3.50734">
        <ele>289.69</ele>
      </trkpt>
      <trkpt lat="43.71415" lon="3.50762">
        <ele>292.38</ele>
      </trkpt>
      <trkpt lat="43.71331" lon="3.50797">
        <ele>295.74</ele>
      </trkpt>
      <trkpt lat="43.71309" lon="3.50794">
        <ele>296.01</ele>
      </trkpt>
      <trkpt lat="43.71289" lon="3.50781">
        <ele>296.03</ele>
      </trkpt>
      <trkpt lat="43.71259" lon="3.50777">
        <ele>295.45</ele>
      </trkpt>
      <trkpt lat="43.7122" lon="3.5078">
        <ele>293.71</ele>
      </trkpt>
      <trkpt lat="43.71191" lon="3.5078">
        <ele>293.21</ele>
      </trkpt>
      <trkpt lat="43.71171" lon="3.50773">
        <ele>292.56</ele>
      </trkpt>
      <trkpt lat="43.71148" lon="3.50747">
        <ele>291.48</ele>
      </trkpt>
      <trkpt lat="43.71096" lon="3.50662">
        <ele>293.62</ele>
      </trkpt>
      <trkpt lat="43.71043" lon="3.50577">
        <ele>295.57</ele>
      </trkpt>
      <trkpt lat="43.71013" lon="3.50522">
        <ele>296.36</ele>
      </trkpt>
      <trkpt lat="43.70983" lon="3.50467">
        <ele>298.07</ele>
      </trkpt>
      <trkpt lat="43.70965" lon="3.50453">
        <ele>300.78</ele>
      </trkpt>
      <trkpt lat="43.70949" lon="3.50451">
        <ele>302.76</ele>
      </trkpt>
      <trkpt lat="43.70918" lon="3.50468">
        <ele>308.1</ele>
      </trkpt>
      <trkpt lat="43.70905" lon="3.50485">
        <ele>308.41</ele>
      </trkpt>
      <trkpt lat="43.709" lon="3.50501">
        <ele>309.56</ele>
      </trkpt>
      <trkpt lat="43.70894" lon="3.50532">
        <ele>310.21</ele>
      </trkpt>
      <trkpt lat="43.70896" lon="3.50557">
        <ele>311.44</ele>
      </trkpt>
      <trkpt lat="43.709" lon="3.50575">
        <ele>312.3</ele>
      </trkpt>
      <trkpt lat="43.70914" lon="3.506">
        <ele>312.71</ele>
      </trkpt>
      <trkpt lat="43.70939" lon="3.50633">
        <ele>314.43</ele>
      </trkpt>
      <trkpt lat="43.70962" lon="3.50669">
        <ele>315.7</ele>
      </trkpt>
      <trkpt lat="43.70981" lon="3.50692">
        <ele>316.27</ele>
      </trkpt>
      <trkpt lat="43.70997" lon="3.50707">
        <ele>318.03</ele>
      </trkpt>
      <trkpt lat="43.71014" lon="3.50733">
        <ele>319.06</ele>
      </trkpt>
      <trkpt lat="43.71061" lon="3.50829">
        <ele>324.39</ele>
      </trkpt>
      <trkpt lat="43.71064" lon="3.50841">
        <ele>325.71</ele>
      </trkpt>
      <trkpt lat="43.71064" lon="3.50855">
        <ele>328.25</ele>
      </trkpt>
      <trkpt lat="43.71051" lon="3.5089">
        <ele>331.15</ele>
      </trkpt>
      <trkpt lat="43.71052" lon="3.50941">
        <ele>334.1</ele>
      </trkpt>
      <trkpt lat="43.71054" lon="3.50958">
        <ele>337.25</ele>
      </trkpt>
      <trkpt lat="43.71066" lon="3.50993">
        <ele>341.24</ele>
      </trkpt>
      <trkpt lat="43.71069" lon="3.51006">
        <ele>343.06</ele>
      </trkpt>
      <trkpt lat="43.71069" lon="3.51047">
        <ele>347.42</ele>
      </trkpt>
      <trkpt lat="43.71071" lon="3.51059">
        <ele>348.92</ele>
      </trkpt>
      <trkpt lat="43.71091" lon="3.51089">
        <ele>353.65</ele>
      </trkpt>
      <trkpt lat="43.71103" lon="3.51118">
        <ele>356.77</ele>
      </trkpt>
      <trkpt lat="43.7113" lon="3.51162">
        <ele>361.35</ele>
      </trkpt>
      <trkpt lat="43.7113" lon="3.51163">
        <ele>361.39</ele>
      </trkpt>
      <trkpt lat="43.71151" lon="3.51196">
        <ele>364</ele>
      </trkpt>
      <trkpt lat="43.71171" lon="3.51238">
        <ele>367.35</ele>
      </trkpt>
      <trkpt lat="43.7118" lon="3.51252">
        <ele>368.58</ele>
      </trkpt>
      <trkpt lat="43.71185" lon="3.51289">
        <ele>372.31</ele>
      </trkpt>
      <trkpt lat="43.7119" lon="3.51305">
        <ele>372.31</ele>
      </trkpt>
      <trkpt lat="43.71204" lon="3.51325">
        <ele>374.19</ele>
      </trkpt>
      <trkpt lat="43.71224" lon="3.51348">
        <ele>377.2</ele>
      </trkpt>
      <trkpt lat="43.71241" lon="3.51381">
        <ele>381.08</ele>
      </trkpt>
      <trkpt lat="43.71233" lon="3.51315">
        <ele>380.53</ele>
      </trkpt>
      <trkpt lat="43.71225" lon="3.51248">
        <ele>380.12</ele>
      </trkpt>
      <trkpt lat="43.71212" lon="3.51219">
        <ele>380.67</ele>
      </trkpt>
      <trkpt lat="43.71214" lon="3.5116">
        <ele>381.87</ele>
      </trkpt>
      <trkpt lat="43.71225" lon="3.51127">
        <ele>384.37</ele>
      </trkpt>
      <trkpt lat="43.71235" lon="3.51115">
        <ele>385.29</ele>
      </trkpt>
      <trkpt lat="43.71247" lon="3.51127">
        <ele>386.62</ele>
      </trkpt>
      <trkpt lat="43.71252" lon="3.51136">
        <ele>388.42</ele>
      </trkpt>
      <trkpt lat="43.7125" lon="3.51172">
        <ele>392.06</ele>
      </trkpt>
      <trkpt lat="43.71256" lon="3.51198">
        <ele>394.66</ele>
      </trkpt>
      <trkpt lat="43.71274" lon="3.51217">
        <ele>396.03</ele>
      </trkpt>
      <trkpt lat="43.71277" lon="3.51235">
        <ele>398.58</ele>
      </trkpt>
      <trkpt lat="43.71285" lon="3.51231">
        <ele>399.92</ele>
      </trkpt>
      <trkpt lat="43.71291" lon="3.51216">
        <ele>402.71</ele>
      </trkpt>
      <trkpt lat="43.71296" lon="3.51192">
        <ele>404.42</ele>
      </trkpt>
      <trkpt lat="43.71305" lon="3.51192">
        <ele>406.32</ele>
      </trkpt>
      <trkpt lat="43.71325" lon="3.51201">
        <ele>407.9</ele>
      </trkpt>
      <trkpt lat="43.7136" lon="3.51186">
        <ele>419.03</ele>
      </trkpt>
      <trkpt lat="43.7139" lon="3.5121">
        <ele>424.35</ele>
      </trkpt>
      <trkpt lat="43.71409" lon="3.51241">
        <ele>428.42</ele>
      </trkpt>
      <trkpt lat="43.71476" lon="3.51307">
        <ele>439.81</ele>
      </trkpt>
      <trkpt lat="43.71529" lon="3.51345">
        <ele>441.69</ele>
      </trkpt>
      <trkpt lat="43.71567" lon="3.51351">
        <ele>442.2</ele>
      </trkpt>
      <trkpt lat="43.71612" lon="3.5134">
        <ele>442</ele>
      </trkpt>
      <trkpt lat="43.71637" lon="3.51328">
        <ele>441.07</ele>
      </trkpt>
      <trkpt lat="43.71668" lon="3.51354">
        <ele>437.99</ele>
      </trkpt>
      <trkpt lat="43.71691" lon="3.51439">
        <ele>430.16</ele>
      </trkpt>
      <trkpt lat="43.717" lon="3.51486">
        <ele>427.3</ele>
      </trkpt>
      <trkpt lat="43.71726" lon="3.51532">
        <ele>426.41</ele>
      </trkpt>
      <trkpt lat="43.71779" lon="3.51495">
        <ele>426.49</ele>
      </trkpt>
      <trkpt lat="43.71832" lon="3.51457">
        <ele>427.26</ele>
      </trkpt>
      <trkpt lat="43.7188" lon="3.51414">
        <ele>428.58</ele>
      </trkpt>
      <trkpt lat="43.71905" lon="3.51409">
        <ele>430.35</ele>
      </trkpt>
      <trkpt lat="43.71933" lon="3.51398">
        <ele>433.72</ele>
      </trkpt>
      <trkpt lat="43.71979" lon="3.51364">
        <ele>439.08</ele>
      </trkpt>
      <trkpt lat="43.72024" lon="3.5133">
        <ele>444.17</ele>
      </trkpt>
      <trkpt lat="43.72058" lon="3.51327">
        <ele>449.92</ele>
      </trkpt>
      <trkpt lat="43.72102" lon="3.513">
        <ele>454.75</ele>
      </trkpt>
      <trkpt lat="43.72123" lon="3.51284">
        <ele>457.67</ele>
      </trkpt>
      <trkpt lat="43.72158" lon="3.51272">
        <ele>460.8</ele>
      </trkpt>
      <trkpt lat="43.72164" lon="3.51266">
        <ele>463.26</ele>
      </trkpt>
      <trkpt lat="43.72174" lon="3.51265">
        <ele>463.26</ele>
      </trkpt>
      <trkpt lat="43.72174" lon="3.51302">
        <ele>467.22</ele>
      </trkpt>
      <trkpt lat="43.7218" lon="3.51314">
        <ele>467.97</ele>
      </trkpt>
      <trkpt lat="43.72194" lon="3.51327">
        <ele>469.8</ele>
      </trkpt>
      <trkpt lat="43.72209" lon="3.51333">
        <ele>470.83</ele>
      </trkpt>
      <trkpt lat="43.72229" lon="3.51333">
        <ele>474.37</ele>
      </trkpt>
      <trkpt lat="43.72243" lon="3.51338">
        <ele>476.77</ele>
      </trkpt>
      <trkpt lat="43.72278" lon="3.51369">
        <ele>480.67</ele>
      </trkpt>
      <trkpt lat="43.7229" lon="3.51385">
        <ele>482.14</ele>
      </trkpt>
      <trkpt lat="43.72295" lon="3.51401">
        <ele>483.36</ele>
      </trkpt>
      <trkpt lat="43.72296" lon="3.51401">
        <ele>483.33</ele>
      </trkpt>
      <trkpt lat="43.72303" lon="3.5142">
        <ele>484.8</ele>
      </trkpt>
      <trkpt lat="43.72307" lon="3.51442">
        <ele>486.98</ele>
      </trkpt>
      <trkpt lat="43.7229" lon="3.51506">
        <ele>491.73</ele>
      </trkpt>
      <trkpt lat="43.72291" lon="3.51529">
        <ele>492.98</ele>
      </trkpt>
      <trkpt lat="43.72297" lon="3.5155">
        <ele>494.46</ele>
      </trkpt>
      <trkpt lat="43.72312" lon="3.51559">
        <ele>496.37</ele>
      </trkpt>
      <trkpt lat="43.72326" lon="3.51558">
        <ele>496.37</ele>
      </trkpt>
      <trkpt lat="43.72335" lon="3.51551">
        <ele>497.08</ele>
      </trkpt>
      <trkpt lat="43.72346" lon="3.5155">
        <ele>497.61</ele>
      </trkpt>
      <trkpt lat="43.72369" lon="3.51561">
        <ele>497.85</ele>
      </trkpt>
      <trkpt lat="43.72397" lon="3.5157">
        <ele>497.67</ele>
      </trkpt>
      <trkpt lat="43.72429" lon="3.5157">
        <ele>495.4</ele>
      </trkpt>
      <trkpt lat="43.72442" lon="3.51565">
        <ele>493.92</ele>
      </trkpt>
      <trkpt lat="43.72455" lon="3.51563">
        <ele>493.92</ele>
      </trkpt>
      <trkpt lat="43.72495" lon="3.51571">
        <ele>491.89</ele>
      </trkpt>
      <trkpt lat="43.72509" lon="3.5158">
        <ele>491.4</ele>
      </trkpt>
      <trkpt lat="43.72514" lon="3.516">
        <ele>491.1</ele>
      </trkpt>
      <trkpt lat="43.72516" lon="3.51628">
        <ele>490.89</ele>
      </trkpt>
      <trkpt lat="43.72506" lon="3.51647">
        <ele>491.06</ele>
      </trkpt>
      <trkpt lat="43.72489" lon="3.51668">
        <ele>491.47</ele>
      </trkpt>
      <trkpt lat="43.72484" lon="3.51696">
        <ele>491.93</ele>
      </trkpt>
      <trkpt lat="43.72473" lon="3.51725">
        <ele>492.7</ele>
      </trkpt>
      <trkpt lat="43.7243" lon="3.51812">
        <ele>499.59</ele>
      </trkpt>
      <trkpt lat="43.72427" lon="3.51829">
        <ele>500.51</ele>
      </trkpt>
      <trkpt lat="43.72431" lon="3.5188">
        <ele>502.4</ele>
      </trkpt>
      <trkpt lat="43.72436" lon="3.51896">
        <ele>503.05</ele>
      </trkpt>
      <trkpt lat="43.72444" lon="3.51902">
        <ele>503.05</ele>
      </trkpt>
      <trkpt lat="43.72455" lon="3.51901">
        <ele>503.7</ele>
      </trkpt>
      <trkpt lat="43.72477" lon="3.51905">
        <ele>504.61</ele>
      </trkpt>
      <trkpt lat="43.72495" lon="3.5192">
        <ele>505.25</ele>
      </trkpt>
      <trkpt lat="43.72538" lon="3.51972">
        <ele>508.54</ele>
      </trkpt>
      <trkpt lat="43.72557" lon="3.51989">
        <ele>510.18</ele>
      </trkpt>
      <trkpt lat="43.72585" lon="3.52001">
        <ele>512.26</ele>
      </trkpt>
      <trkpt lat="43.72612" lon="3.52">
        <ele>513.96</ele>
      </trkpt>
      <trkpt lat="43.72636" lon="3.51981">
        <ele>516.1</ele>
      </trkpt>
      <trkpt lat="43.72675" lon="3.51935">
        <ele>521.11</ele>
      </trkpt>
      <trkpt lat="43.72696" lon="3.51904">
        <ele>522.99</ele>
      </trkpt>
      <trkpt lat="43.72714" lon="3.51883">
        <ele>525.15</ele>
      </trkpt>
      <trkpt lat="43.72722" lon="3.51879">
        <ele>525.15</ele>
      </trkpt>
      <trkpt lat="43.72734" lon="3.51883">
        <ele>526.71</ele>
      </trkpt>
      <trkpt lat="43.72744" lon="3.51895">
        <ele>528.43</ele>
      </trkpt>
      <trkpt lat="43.72751" lon="3.51925">
        <ele>530.51</ele>
      </trkpt>
      <trkpt lat="43.72754" lon="3.51994">
        <ele>532.65</ele>
      </trkpt>
      <trkpt lat="43.72763" lon="3.51994">
        <ele>532.63</ele>
      </trkpt>
      <trkpt lat="43.72776" lon="3.51994">
        <ele>532.62</ele>
      </trkpt>
      <trkpt lat="43.7281" lon="3.52004">
        <ele>531.93</ele>
      </trkpt>
      <trkpt lat="43.72823" lon="3.52009">
        <ele>531.47</ele>
      </trkpt>
      <trkpt lat="43.72835" lon="3.5202">
        <ele>530.99</ele>
      </trkpt>
      <trkpt lat="43.72842" lon="3.52022">
        <ele>530.99</ele>
      </trkpt>
      <trkpt lat="43.72854" lon="3.52015">
        <ele>530.36</ele>
      </trkpt>
      <trkpt lat="43.72875" lon="3.51979">
        <ele>529.22</ele>
      </trkpt>
      <trkpt lat="43.72881" lon="3.51977">
        <ele>528.66</ele>
      </trkpt>
      <trkpt lat="43.72887" lon="3.51985">
        <ele>528.66</ele>
      </trkpt>
      <trkpt lat="43.72887" lon="3.51994">
        <ele>528.23</ele>
      </trkpt>
      <trkpt lat="43.7288" lon="3.52006">
        <ele>527.91</ele>
      </trkpt>
      <trkpt lat="43.72878" lon="3.52021">
        <ele>527.58</ele>
      </trkpt>
      <trkpt lat="43.72885" lon="3.52044">
        <ele>526.93</ele>
      </trkpt>
      <trkpt lat="43.72898" lon="3.52056">
        <ele>526.21</ele>
      </trkpt>
      <trkpt lat="43.72913" lon="3.52054">
        <ele>525.36</ele>
      </trkpt>
      <trkpt lat="43.72919" lon="3.52059">
        <ele>524.73</ele>
      </trkpt>
      <trkpt lat="43.72921" lon="3.52072">
        <ele>524.73</ele>
      </trkpt>
      <trkpt lat="43.72917" lon="3.52082">
        <ele>523.46</ele>
      </trkpt>
      <trkpt lat="43.72918" lon="3.52114">
        <ele>522.42</ele>
      </trkpt>
      <trkpt lat="43.7292" lon="3.52125">
        <ele>521.6</ele>
      </trkpt>
      <trkpt lat="43.72932" lon="3.52132">
        <ele>521.6</ele>
      </trkpt>
      <trkpt lat="43.72951" lon="3.52129">
        <ele>519.42</ele>
      </trkpt>
      <trkpt lat="43.72961" lon="3.52125">
        <ele>519.42</ele>
      </trkpt>
      <trkpt lat="43.72969" lon="3.52125">
        <ele>517.24</ele>
      </trkpt>
      <trkpt lat="43.72972" lon="3.5213">
        <ele>517.24</ele>
      </trkpt>
      <trkpt lat="43.7297" lon="3.52137">
        <ele>516.35</ele>
      </trkpt>
      <trkpt lat="43.72963" lon="3.5214">
        <ele>516.35</ele>
      </trkpt>
      <trkpt lat="43.72957" lon="3.52145">
        <ele>513.65</ele>
      </trkpt>
      <trkpt lat="43.72937" lon="3.52165">
        <ele>511.41</ele>
      </trkpt>
      <trkpt lat="43.72918" lon="3.52176">
        <ele>510.22</ele>
      </trkpt>
      <trkpt lat="43.72899" lon="3.52182">
        <ele>507.91</ele>
      </trkpt>
      <trkpt lat="43.72865" lon="3.52212">
        <ele>503.48</ele>
      </trkpt>
      <trkpt lat="43.72852" lon="3.52226">
        <ele>501.53</ele>
      </trkpt>
      <trkpt lat="43.72836" lon="3.52239">
        <ele>500.66</ele>
      </trkpt>
      <trkpt lat="43.72813" lon="3.5227">
        <ele>497.38</ele>
      </trkpt>
      <trkpt lat="43.72795" lon="3.52309">
        <ele>493.68</ele>
      </trkpt>
      <trkpt lat="43.72789" lon="3.52341">
        <ele>490.88</ele>
      </trkpt>
      <trkpt lat="43.72761" lon="3.5238">
        <ele>488.15</ele>
      </trkpt>
      <trkpt lat="43.72743" lon="3.52396">
        <ele>487.49</ele>
      </trkpt>
      <trkpt lat="43.7269" lon="3.5243">
        <ele>484.23</ele>
      </trkpt>
      <trkpt lat="43.72664" lon="3.5247">
        <ele>481.83</ele>
      </trkpt>
      <trkpt lat="43.7264" lon="3.52526">
        <ele>478.93</ele>
      </trkpt>
      <trkpt lat="43.72612" lon="3.52562">
        <ele>476.9</ele>
      </trkpt>
      <trkpt lat="43.7255" lon="3.52639">
        <ele>470.86</ele>
      </trkpt>
      <trkpt lat="43.72535" lon="3.52662">
        <ele>468.16</ele>
      </trkpt>
      <trkpt lat="43.72521" lon="3.52708">
        <ele>465.05</ele>
      </trkpt>
      <trkpt lat="43.7252" lon="3.52727">
        <ele>463.79</ele>
      </trkpt>
      <trkpt lat="43.72523" lon="3.5274">
        <ele>463.09</ele>
      </trkpt>
      <trkpt lat="43.72531" lon="3.5276">
        <ele>460.21</ele>
      </trkpt>
      <trkpt lat="43.72532" lon="3.52769">
        <ele>460.21</ele>
      </trkpt>
      <trkpt lat="43.72515" lon="3.52817">
        <ele>457.43</ele>
      </trkpt>
      <trkpt lat="43.7251" lon="3.52875">
        <ele>453.97</ele>
      </trkpt>
      <trkpt lat="43.72494" lon="3.52972">
        <ele>442.44</ele>
      </trkpt>
      <trkpt lat="43.72494" lon="3.52994">
        <ele>442.44</ele>
      </trkpt>
      <trkpt lat="43.72491" lon="3.52996">
        <ele>438.83</ele>
      </trkpt>
      <trkpt lat="43.72485" lon="3.52991">
        <ele>438.83</ele>
      </trkpt>
      <trkpt lat="43.72477" lon="3.52958">
        <ele>438.83</ele>
      </trkpt>
      <trkpt lat="43.72478" lon="3.52946">
        <ele>440.46</ele>
      </trkpt>
      <trkpt lat="43.72475" lon="3.5294">
        <ele>440.46</ele>
      </trkpt>
      <trkpt lat="43.72471" lon="3.52943">
        <ele>440.46</ele>
      </trkpt>
      <trkpt lat="43.7246" lon="3.52982">
        <ele>435</ele>
      </trkpt>
      <trkpt lat="43.72438" lon="3.53016">
        <ele>430.09</ele>
      </trkpt>
      <trkpt lat="43.72431" lon="3.53043">
        <ele>425.53</ele>
      </trkpt>
      <trkpt lat="43.72434" lon="3.53057">
        <ele>424.3</ele>
      </trkpt>
      <trkpt lat="43.72443" lon="3.53069">
        <ele>423.6</ele>
      </trkpt>
      <trkpt lat="43.7245" lon="3.53087">
        <ele>422.96</ele>
      </trkpt>
      <trkpt lat="43.72441" lon="3.53093">
        <ele>422.41</ele>
      </trkpt>
      <trkpt lat="43.72408" lon="3.53076">
        <ele>420.15</ele>
      </trkpt>
      <trkpt lat="43.72401" lon="3.53072">
        <ele>420.15</ele>
      </trkpt>
      <trkpt lat="43.72393" lon="3.53064">
        <ele>419.1</ele>
      </trkpt>
      <trkpt lat="43.72385" lon="3.53051">
        <ele>418.02</ele>
      </trkpt>
      <trkpt lat="43.72383" lon="3.53038">
        <ele>418.02</ele>
      </trkpt>
      <trkpt lat="43.7239" lon="3.52975">
        <ele>414.86</ele>
      </trkpt>
      <trkpt lat="43.72402" lon="3.52951">
        <ele>414.52</ele>
      </trkpt>
      <trkpt lat="43.72406" lon="3.5293">
        <ele>414.28</ele>
      </trkpt>
      <trkpt lat="43.72404" lon="3.52921">
        <ele>413.82</ele>
      </trkpt>
      <trkpt lat="43.72398" lon="3.52921">
        <ele>413.52</ele>
      </trkpt>
      <trkpt lat="43.72388" lon="3.52931">
        <ele>412.73</ele>
      </trkpt>
      <trkpt lat="43.72384" lon="3.52958">
        <ele>411.02</ele>
      </trkpt>
      <trkpt lat="43.7237" lon="3.52977">
        <ele>410.15</ele>
      </trkpt>
      <trkpt lat="43.72336" lon="3.53046">
        <ele>405.74</ele>
      </trkpt>
      <trkpt lat="43.72335" lon="3.53067">
        <ele>405.34</ele>
      </trkpt>
      <trkpt lat="43.72323" lon="3.53123">
        <ele>402.44</ele>
      </trkpt>
      <trkpt lat="43.72329" lon="3.53199">
        <ele>398.34</ele>
      </trkpt>
      <trkpt lat="43.72342" lon="3.53261">
        <ele>387.6</ele>
      </trkpt>
      <trkpt lat="43.72367" lon="3.53296">
        <ele>382.2</ele>
      </trkpt>
      <trkpt lat="43.72389" lon="3.533">
        <ele>380.06</ele>
      </trkpt>
      <trkpt lat="43.72396" lon="3.53308">
        <ele>379.45</ele>
      </trkpt>
      <trkpt lat="43.72393" lon="3.53313">
        <ele>379.45</ele>
      </trkpt>
      <trkpt lat="43.72347" lon="3.53314">
        <ele>377.01</ele>
      </trkpt>
      <trkpt lat="43.72327" lon="3.53324">
        <ele>376</ele>
      </trkpt>
      <trkpt lat="43.72311" lon="3.53325">
        <ele>376</ele>
      </trkpt>
      <trkpt lat="43.72293" lon="3.53318">
        <ele>374.09</ele>
      </trkpt>
      <trkpt lat="43.72262" lon="3.53261">
        <ele>371.47</ele>
      </trkpt>
      <trkpt lat="43.72233" lon="3.53237">
        <ele>369.61</ele>
      </trkpt>
      <trkpt lat="43.72225" lon="3.53226">
        <ele>369.06</ele>
      </trkpt>
      <trkpt lat="43.72219" lon="3.5323">
        <ele>368.28</ele>
      </trkpt>
      <trkpt lat="43.72219" lon="3.53246">
        <ele>368.28</ele>
      </trkpt>
      <trkpt lat="43.72229" lon="3.5327">
        <ele>367.09</ele>
      </trkpt>
      <trkpt lat="43.72226" lon="3.53332">
        <ele>364.48</ele>
      </trkpt>
      <trkpt lat="43.7224" lon="3.53431">
        <ele>360.84</ele>
      </trkpt>
      <trkpt lat="43.72237" lon="3.53442">
        <ele>360.48</ele>
      </trkpt>
      <trkpt lat="43.72234" lon="3.53453">
        <ele>360.28</ele>
      </trkpt>
      <trkpt lat="43.72195" lon="3.53498">
        <ele>358.76</ele>
      </trkpt>
      <trkpt lat="43.72149" lon="3.53547">
        <ele>355.26</ele>
      </trkpt>
      <trkpt lat="43.72103" lon="3.53595">
        <ele>351.91</ele>
      </trkpt>
      <trkpt lat="43.7209" lon="3.53613">
        <ele>351.43</ele>
      </trkpt>
      <trkpt lat="43.72085" lon="3.53662">
        <ele>350.8</ele>
      </trkpt>
      <trkpt lat="43.72047" lon="3.5368">
        <ele>350.71</ele>
      </trkpt>
      <trkpt lat="43.71963" lon="3.53699">
        <ele>351.57</ele>
      </trkpt>
      <trkpt lat="43.7188" lon="3.53719">
        <ele>351.38</ele>
      </trkpt>
      <trkpt lat="43.71796" lon="3.53738">
        <ele>352.04</ele>
      </trkpt>
      <trkpt lat="43.71712" lon="3.53757">
        <ele>351</ele>
      </trkpt>
      <trkpt lat="43.71678" lon="3.53755">
        <ele>350.21</ele>
      </trkpt>
      <trkpt lat="43.71596" lon="3.53736">
        <ele>347.81</ele>
      </trkpt>
      <trkpt lat="43.71542" lon="3.53727">
        <ele>345.96</ele>
      </trkpt>
      <trkpt lat="43.71517" lon="3.53726">
        <ele>344.8</ele>
      </trkpt>
      <trkpt lat="43.71445" lon="3.53739">
        <ele>340.24</ele>
      </trkpt>
      <trkpt lat="43.71372" lon="3.53752">
        <ele>333.92</ele>
      </trkpt>
      <trkpt lat="43.71293" lon="3.53763">
        <ele>327.99</ele>
      </trkpt>
      <trkpt lat="43.71214" lon="3.53774">
        <ele>321.61</ele>
      </trkpt>
      <trkpt lat="43.71135" lon="3.53784">
        <ele>314.44</ele>
      </trkpt>
      <trkpt lat="43.71056" lon="3.53795">
        <ele>307.07</ele>
      </trkpt>
      <trkpt lat="43.70977" lon="3.53806">
        <ele>301.8</ele>
      </trkpt>
      <trkpt lat="43.7089" lon="3.53818">
        <ele>295.19</ele>
      </trkpt>
      <trkpt lat="43.70803" lon="3.53829">
        <ele>290.16</ele>
      </trkpt>
      <trkpt lat="43.70791" lon="3.5383">
        <ele>289.49</ele>
      </trkpt>
      <trkpt lat="43.70783" lon="3.53827">
        <ele>289.22</ele>
      </trkpt>
      <trkpt lat="43.70772" lon="3.53811">
        <ele>288.55</ele>
      </trkpt>
      <trkpt lat="43.70759" lon="3.53775">
        <ele>287.88</ele>
      </trkpt>
      <trkpt lat="43.70752" lon="3.53743">
        <ele>286.82</ele>
      </trkpt>
      <trkpt lat="43.70751" lon="3.53713">
        <ele>285.13</ele>
      </trkpt>
      <trkpt lat="43.70753" lon="3.53696">
        <ele>284.43</ele>
      </trkpt>
      <trkpt lat="43.70758" lon="3.53682">
        <ele>283.78</ele>
      </trkpt>
      <trkpt lat="43.7077" lon="3.53668">
        <ele>282.92</ele>
      </trkpt>
      <trkpt lat="43.70785" lon="3.53663">
        <ele>282.51</ele>
      </trkpt>
      <trkpt lat="43.70785" lon="3.53657">
        <ele>282.07</ele>
      </trkpt>
      <trkpt lat="43.70782" lon="3.53654">
        <ele>282.07</ele>
      </trkpt>
      <trkpt lat="43.70764" lon="3.5365">
        <ele>279.56</ele>
      </trkpt>
      <trkpt lat="43.70739" lon="3.53639">
        <ele>275.1</ele>
      </trkpt>
      <trkpt lat="43.70726" lon="3.53641">
        <ele>274.18</ele>
      </trkpt>
      <trkpt lat="43.70713" lon="3.53649">
        <ele>271.91</ele>
      </trkpt>
      <trkpt lat="43.70696" lon="3.53673">
        <ele>269.94</ele>
      </trkpt>
      <trkpt lat="43.70675" lon="3.53714">
        <ele>267.19</ele>
      </trkpt>
      <trkpt lat="43.70643" lon="3.53798">
        <ele>261.5</ele>
      </trkpt>
      <trkpt lat="43.70635" lon="3.53832">
        <ele>260.03</ele>
      </trkpt>
      <trkpt lat="43.70629" lon="3.53869">
        <ele>258.14</ele>
      </trkpt>
      <trkpt lat="43.70631" lon="3.53903">
        <ele>254.7</ele>
      </trkpt>
      <trkpt lat="43.70641" lon="3.53974">
        <ele>248.39</ele>
      </trkpt>
      <trkpt lat="43.70661" lon="3.54077">
        <ele>244.97</ele>
      </trkpt>
      <trkpt lat="43.70668" lon="3.54098">
        <ele>244.15</ele>
      </trkpt>
      <trkpt lat="43.70681" lon="3.54114">
        <ele>243.28</ele>
      </trkpt>
      <trkpt lat="43.70729" lon="3.54139">
        <ele>241.11</ele>
      </trkpt>
      <trkpt lat="43.70751" lon="3.54143">
        <ele>240.15</ele>
      </trkpt>
      <trkpt lat="43.70762" lon="3.54141">
        <ele>239.75</ele>
      </trkpt>
      <trkpt lat="43.70766" lon="3.54143">
        <ele>239.47</ele>
      </trkpt>
      <trkpt lat="43.70764" lon="3.5415">
        <ele>239.47</ele>
      </trkpt>
      <trkpt lat="43.70753" lon="3.54154">
        <ele>238.19</ele>
      </trkpt>
      <trkpt lat="43.70695" lon="3.54172">
        <ele>230.48</ele>
      </trkpt>
      <trkpt lat="43.7065" lon="3.54182">
        <ele>225.43</ele>
      </trkpt>
      <trkpt lat="43.70621" lon="3.54177">
        <ele>222.5</ele>
      </trkpt>
      <trkpt lat="43.706" lon="3.54169">
        <ele>219.5</ele>
      </trkpt>
      <trkpt lat="43.70578" lon="3.5415">
        <ele>216.55</ele>
      </trkpt>
      <trkpt lat="43.70566" lon="3.54133">
        <ele>215.67</ele>
      </trkpt>
      <trkpt lat="43.70533" lon="3.54038">
        <ele>208.65</ele>
      </trkpt>
      <trkpt lat="43.70507" lon="3.53989">
        <ele>205.24</ele>
      </trkpt>
      <trkpt lat="43.70484" lon="3.53932">
        <ele>201.42</ele>
      </trkpt>
      <trkpt lat="43.70474" lon="3.53896">
        <ele>199.76</ele>
      </trkpt>
      <trkpt lat="43.70475" lon="3.53896">
        <ele>199.73</ele>
      </trkpt>
      <trkpt lat="43.7047" lon="3.53856">
        <ele>198.22</ele>
      </trkpt>
      <trkpt lat="43.70473" lon="3.53802">
        <ele>196.36</ele>
      </trkpt>
      <trkpt lat="43.70478" lon="3.53776">
        <ele>194.74</ele>
      </trkpt>
      <trkpt lat="43.70478" lon="3.53762">
        <ele>194.74</ele>
      </trkpt>
      <trkpt lat="43.70476" lon="3.53755">
        <ele>194.09</ele>
      </trkpt>
      <trkpt lat="43.70469" lon="3.53751">
        <ele>194.09</ele>
      </trkpt>
      <trkpt lat="43.70453" lon="3.53753">
        <ele>193.08</ele>
      </trkpt>
      <trkpt lat="43.70438" lon="3.53751">
        <ele>192.08</ele>
      </trkpt>
      <trkpt lat="43.70421" lon="3.53741">
        <ele>190.86</ele>
      </trkpt>
      <trkpt lat="43.70405" lon="3.53725">
        <ele>189.82</ele>
      </trkpt>
      <trkpt lat="43.70398" lon="3.53707">
        <ele>188.15</ele>
      </trkpt>
      <trkpt lat="43.70392" lon="3.53701">
        <ele>188.15</ele>
      </trkpt>
      <trkpt lat="43.70375" lon="3.53698">
        <ele>187.44</ele>
      </trkpt>
      <trkpt lat="43.70355" lon="3.53692">
        <ele>186.41</ele>
      </trkpt>
      <trkpt lat="43.70332" lon="3.53668">
        <ele>184.6</ele>
      </trkpt>
      <trkpt lat="43.7032" lon="3.53648">
        <ele>184.21</ele>
      </trkpt>
      <trkpt lat="43.70294" lon="3.5355">
        <ele>180.53</ele>
      </trkpt>
      <trkpt lat="43.7028" lon="3.53519">
        <ele>179.56</ele>
      </trkpt>
      <trkpt lat="43.70263" lon="3.53489">
        <ele>178.62</ele>
      </trkpt>
      <trkpt lat="43.70254" lon="3.53466">
        <ele>177.63</ele>
      </trkpt>
      <trkpt lat="43.70256" lon="3.53436">
        <ele>177.07</ele>
      </trkpt>
      <trkpt lat="43.70254" lon="3.53427">
        <ele>176.79</ele>
      </trkpt>
      <trkpt lat="43.70249" lon="3.53429">
        <ele>176.79</ele>
      </trkpt>
      <trkpt lat="43.70243" lon="3.53449">
        <ele>176.32</ele>
      </trkpt>
      <trkpt lat="43.70247" lon="3.53484">
        <ele>174.96</ele>
      </trkpt>
      <trkpt lat="43.70262" lon="3.53541">
        <ele>171.58</ele>
      </trkpt>
      <trkpt lat="43.70275" lon="3.53632">
        <ele>168.69</ele>
      </trkpt>
      <trkpt lat="43.70287" lon="3.53723">
        <ele>164.19</ele>
      </trkpt>
      <trkpt lat="43.70295" lon="3.53745">
        <ele>162.7</ele>
      </trkpt>
      <trkpt lat="43.70331" lon="3.53798">
        <ele>159.24</ele>
      </trkpt>
      <trkpt lat="43.70335" lon="3.53816">
        <ele>158.72</ele>
      </trkpt>
      <trkpt lat="43.70331" lon="3.5383">
        <ele>158.72</ele>
      </trkpt>
      <trkpt lat="43.70312" lon="3.53868">
        <ele>155.25</ele>
      </trkpt>
      <trkpt lat="43.70306" lon="3.53933">
        <ele>153.33</ele>
      </trkpt>
      <trkpt lat="43.70304" lon="3.54001">
        <ele>149.93</ele>
      </trkpt>
      <trkpt lat="43.70281" lon="3.54053">
        <ele>146.21</ele>
      </trkpt>
      <trkpt lat="43.70266" lon="3.54095">
        <ele>144.81</ele>
      </trkpt>
      <trkpt lat="43.70244" lon="3.54125">
        <ele>142.94</ele>
      </trkpt>
      <trkpt lat="43.70231" lon="3.54148">
        <ele>141.64</ele>
      </trkpt>
      <trkpt lat="43.70222" lon="3.54157">
        <ele>141.64</ele>
      </trkpt>
      <trkpt lat="43.70205" lon="3.54165">
        <ele>141</ele>
      </trkpt>
      <trkpt lat="43.70168" lon="3.5417">
        <ele>137.54</ele>
      </trkpt>
      <trkpt lat="43.70154" lon="3.54166">
        <ele>135.62</ele>
      </trkpt>
      <trkpt lat="43.7016" lon="3.54261">
        <ele>135.37</ele>
      </trkpt>
      <trkpt lat="43.7016" lon="3.54298">
        <ele>133.44</ele>
      </trkpt>
      <trkpt lat="43.70156" lon="3.54328">
        <ele>131.91</ele>
      </trkpt>
      <trkpt lat="43.70156" lon="3.54343">
        <ele>131.59</ele>
      </trkpt>
      <trkpt lat="43.70167" lon="3.5439">
        <ele>129.08</ele>
      </trkpt>
      <trkpt lat="43.70169" lon="3.5444">
        <ele>125.76</ele>
      </trkpt>
      <trkpt lat="43.70166" lon="3.54466">
        <ele>124.74</ele>
      </trkpt>
      <trkpt lat="43.70149" lon="3.54526">
        <ele>120.53</ele>
      </trkpt>
      <trkpt lat="43.70151" lon="3.54568">
        <ele>118.66</ele>
      </trkpt>
      <trkpt lat="43.70161" lon="3.54639">
        <ele>115.52</ele>
      </trkpt>
      <trkpt lat="43.70162" lon="3.54662">
        <ele>114.88</ele>
      </trkpt>
      <trkpt lat="43.70162" lon="3.54663">
        <ele>114.88</ele>
      </trkpt>
      <trkpt lat="43.70168" lon="3.54781">
        <ele>111.25</ele>
      </trkpt>
      <trkpt lat="43.70158" lon="3.54834">
        <ele>108.96</ele>
      </trkpt>
      <trkpt lat="43.70144" lon="3.54892">
        <ele>108.6</ele>
      </trkpt>
      <trkpt lat="43.70138" lon="3.54909">
        <ele>107.39</ele>
      </trkpt>
      <trkpt lat="43.70131" lon="3.54915">
        <ele>106.75</ele>
      </trkpt>
      <trkpt lat="43.70138" lon="3.5496">
        <ele>105.7</ele>
      </trkpt>
      <trkpt lat="43.70138" lon="3.54961">
        <ele>105.69</ele>
      </trkpt>
      <trkpt lat="43.70147" lon="3.55023">
        <ele>105.35</ele>
      </trkpt>
      <trkpt lat="43.70177" lon="3.55094">
        <ele>104.54</ele>
      </trkpt>
      <trkpt lat="43.70207" lon="3.55165">
        <ele>101.72</ele>
      </trkpt>
      <trkpt lat="43.70224" lon="3.55208">
        <ele>100.12</ele>
      </trkpt>
      <trkpt lat="43.70231" lon="3.55259">
        <ele>98.14</ele>
      </trkpt>
      <trkpt lat="43.7024" lon="3.55268">
        <ele>97.56</ele>
      </trkpt>
      <trkpt lat="43.70294" lon="3.55307">
        <ele>93.12</ele>
      </trkpt>
      <trkpt lat="43.70347" lon="3.55345">
        <ele>92.46</ele>
      </trkpt>
      <trkpt lat="43.70381" lon="3.5538">
        <ele>91.52</ele>
      </trkpt>
      <trkpt lat="43.70417" lon="3.5542">
        <ele>90.12</ele>
      </trkpt>
      <trkpt lat="43.70453" lon="3.55459">
        <ele>88.2</ele>
      </trkpt>
      <trkpt lat="43.70525" lon="3.55526">
        <ele>82.56</ele>
      </trkpt>
      <trkpt lat="43.70535" lon="3.55532">
        <ele>81.3</ele>
      </trkpt>
      <trkpt lat="43.70536" lon="3.55532">
        <ele>81.26</ele>
      </trkpt>
      <trkpt lat="43.70548" lon="3.55538">
        <ele>80.61</ele>
      </trkpt>
      <trkpt lat="43.70571" lon="3.55538">
        <ele>78.01</ele>
      </trkpt>
      <trkpt lat="43.70603" lon="3.55536">
        <ele>80.29</ele>
      </trkpt>
      <trkpt lat="43.70614" lon="3.55537">
        <ele>81.61</ele>
      </trkpt>
      <trkpt lat="43.70626" lon="3.55542">
        <ele>81.09</ele>
      </trkpt>
      <trkpt lat="43.70654" lon="3.55565">
        <ele>78.8</ele>
      </trkpt>
      <trkpt lat="43.70715" lon="3.55606">
        <ele>70.12</ele>
      </trkpt>
      <trkpt lat="43.70728" lon="3.55622">
        <ele>69.06</ele>
      </trkpt>
      <trkpt lat="43.70738" lon="3.5564">
        <ele>68.29</ele>
      </trkpt>
      <trkpt lat="43.70751" lon="3.55673">
        <ele>67.71</ele>
      </trkpt>
      <trkpt lat="43.7076" lon="3.55682">
        <ele>67.48</ele>
      </trkpt>
      <trkpt lat="43.70767" lon="3.55685">
        <ele>67.23</ele>
      </trkpt>
      <trkpt lat="43.70777" lon="3.55686">
        <ele>66.96</ele>
      </trkpt>
      <trkpt lat="43.70787" lon="3.55682">
        <ele>66.35</ele>
      </trkpt>
      <trkpt lat="43.70823" lon="3.55763">
        <ele>62.9</ele>
      </trkpt>
      <trkpt lat="43.70687" lon="3.55971">
        <ele>70.2</ele>
      </trkpt>
      <trkpt lat="43.70547" lon="3.56106">
        <ele>67.9</ele>
      </trkpt>
      <trkpt lat="43.70422" lon="3.56183">
        <ele>66.8</ele>
      </trkpt>
      <trkpt lat="43.70345" lon="3.56248">
        <ele>66.6</ele>
      </trkpt>
      <trkpt lat="43.70256" lon="3.56485">
        <ele>67.6</ele>
      </trkpt>
      <trkpt lat="43.70147" lon="3.56802">
        <ele>63.4</ele>
      </trkpt>
      <trkpt lat="43.70052" lon="3.57024">
        <ele>62.9</ele>
      </trkpt>
      <trkpt lat="43.69956" lon="3.57307">
        <ele>62</ele>
      </trkpt>
      <trkpt lat="43.69883" lon="3.57477">
        <ele>62.5</ele>
      </trkpt>
      <trkpt lat="43.69788" lon="3.5762">
        <ele>64.8</ele>
      </trkpt>
      <trkpt lat="43.69652" lon="3.57768">
        <ele>63.8</ele>
      </trkpt>
      <trkpt lat="43.69491" lon="3.57895">
        <ele>59.4</ele>
      </trkpt>
      <trkpt lat="43.69343" lon="3.58024">
        <ele>59.3</ele>
      </trkpt>
      <trkpt lat="43.69266" lon="3.58159">
        <ele>59.6</ele>
      </trkpt>
      <trkpt lat="43.69229" lon="3.5819">
        <ele>60.4</ele>
      </trkpt>
      <trkpt lat="43.69213" lon="3.5818">
        <ele>60.6</ele>
      </trkpt>
      <trkpt lat="43.69203" lon="3.58201">
        <ele>61</ele>
      </trkpt>
      <trkpt lat="43.69199" lon="3.58229">
        <ele>61.4</ele>
      </trkpt>
      <trkpt lat="43.69161" lon="3.58251">
        <ele>63.5</ele>
      </trkpt>
      <trkpt lat="43.69034" lon="3.58344">
        <ele>67.6</ele>
      </trkpt>
      <trkpt lat="43.68566" lon="3.58617">
        <ele>72.2</ele>
      </trkpt>
      <trkpt lat="43.68554" lon="3.58715">
        <ele>73.9</ele>
      </trkpt>
      <trkpt lat="43.68513" lon="3.58867">
        <ele>79.9</ele>
      </trkpt>
      <trkpt lat="43.68451" lon="3.59">
        <ele>80.3</ele>
      </trkpt>
      <trkpt lat="43.68451" lon="3.59108">
        <ele>79.8</ele>
      </trkpt>
      <trkpt lat="43.68462" lon="3.59263">
        <ele>77.8</ele>
      </trkpt>
      <trkpt lat="43.68482" lon="3.59344">
        <ele>77.2</ele>
      </trkpt>
      <trkpt lat="43.68487" lon="3.59355">
        <ele>77.1</ele>
      </trkpt>
      <trkpt lat="43.68451" lon="3.59418">
        <ele>77.3</ele>
      </trkpt>
      <trkpt lat="43.68406" lon="3.59432">
        <ele>76.950073</ele>
        <time>2019-03-01T10:44:19Z</time>
      </trkpt>
      <trkpt lat="43.68381" lon="3.59432">
        <ele>78.02459</ele>
        <time>2019-03-01T10:44:26Z</time>
      </trkpt>
      <trkpt lat="43.68369" lon="3.59422">
        <ele>78.033348</ele>
        <time>2019-03-01T10:44:29Z</time>
      </trkpt>
      <trkpt lat="43.68311" lon="3.59391">
        <ele>80.202942</ele>
        <time>2019-03-01T10:44:46Z</time>
      </trkpt>
      <trkpt lat="43.68209" lon="3.59364">
        <ele>87.606247</ele>
        <time>2019-03-01T10:45:16Z</time>
      </trkpt>
      <trkpt lat="43.68189" lon="3.59364">
        <ele>89.344727</ele>
        <time>2019-03-01T10:45:22Z</time>
      </trkpt>
      <trkpt lat="43.68179" lon="3.59369">
        <ele>90.143753</ele>
        <time>2019-03-01T10:45:25Z</time>
      </trkpt>
      <trkpt lat="43.68177" lon="3.59377">
        <ele>90.688385</ele>
        <time>2019-03-01T10:45:28Z</time>
      </trkpt>
      <trkpt lat="43.68179" lon="3.59384">
        <ele>91.06929</ele>
        <time>2019-03-01T10:45:31Z</time>
      </trkpt>
      <trkpt lat="43.68194" lon="3.59392">
        <ele>90.611511</ele>
        <time>2019-03-01T10:45:37Z</time>
      </trkpt>
      <trkpt lat="43.68207" lon="3.59409">
        <ele>90.718925</ele>
        <time>2019-03-01T10:45:43Z</time>
      </trkpt>
      <trkpt lat="43.6825" lon="3.59449">
        <ele>91.561638</ele>
        <time>2019-03-01T10:46:01Z</time>
      </trkpt>
      <trkpt lat="43.68275" lon="3.59463">
        <ele>92.673485</ele>
        <time>2019-03-01T10:46:07Z</time>
      </trkpt>
      <trkpt lat="43.68308" lon="3.59478">
        <ele>91.419998</ele>
        <time>2019-03-01T10:46:16Z</time>
      </trkpt>
      <trkpt lat="43.68352" lon="3.59505">
        <ele>90.639999</ele>
        <time>2019-03-01T10:46:28Z</time>
      </trkpt>
      <trkpt lat="43.68366" lon="3.59519">
        <ele>91.416862</ele>
        <time>2019-03-01T10:46:31Z</time>
      </trkpt>
      <trkpt lat="43.68366" lon="3.59519">
        <ele>91.416862</ele>
        <time>2019-03-01T10:46:31Z</time>
      </trkpt>
      <trkpt lat="43.68374" lon="3.59534">
        <ele>92.715698</ele>
        <time>2019-03-01T10:46:34Z</time>
      </trkpt>
      <trkpt lat="43.68397" lon="3.59557">
        <ele>91.817253</ele>
        <time>2019-03-01T10:46:40Z</time>
      </trkpt>
      <trkpt lat="43.68434" lon="3.59615">
        <ele>89.857498</ele>
        <time>2019-03-01T10:46:52Z</time>
      </trkpt>
      <trkpt lat="43.68469" lon="3.59685">
        <ele>92.147285</ele>
        <time>2019-03-01T10:47:07Z</time>
      </trkpt>
      <trkpt lat="43.685" lon="3.59729">
        <ele>92.75547</ele>
        <time>2019-03-01T10:47:16Z</time>
      </trkpt>
      <trkpt lat="43.68527" lon="3.59777">
        <ele>91.894569</ele>
        <time>2019-03-01T10:47:25Z</time>
      </trkpt>
      <trkpt lat="43.68543" lon="3.59811">
        <ele>92.4375</ele>
        <time>2019-03-01T10:47:31Z</time>
      </trkpt>
      <trkpt lat="43.68561" lon="3.59838">
        <ele>93.089195</ele>
        <time>2019-03-01T10:47:37Z</time>
      </trkpt>
      <trkpt lat="43.68582" lon="3.59875">
        <ele>95.117439</ele>
        <time>2019-03-01T10:47:46Z</time>
      </trkpt>
      <trkpt lat="43.68628" lon="3.59918">
        <ele>99.587502</ele>
        <time>2019-03-01T10:48:01Z</time>
      </trkpt>
      <trkpt lat="43.68637" lon="3.59924">
        <ele>100.099983</ele>
        <time>2019-03-01T10:48:04Z</time>
      </trkpt>
      <trkpt lat="43.68666" lon="3.59951">
        <ele>104.327347</ele>
        <time>2019-03-01T10:48:13Z</time>
      </trkpt>
      <trkpt lat="43.6869" lon="3.59963">
        <ele>106.949265</ele>
        <time>2019-03-01T10:48:19Z</time>
      </trkpt>
      <trkpt lat="43.68735" lon="3.59978">
        <ele>108.7705</ele>
        <time>2019-03-01T10:48:31Z</time>
      </trkpt>
      <trkpt lat="43.68744" lon="3.59987">
        <ele>109.165955</ele>
        <time>2019-03-01T10:48:34Z</time>
      </trkpt>
      <trkpt lat="43.6877" lon="3.59996">
        <ele>105.950676</ele>
        <time>2019-03-01T10:48:40Z</time>
      </trkpt>
      <trkpt lat="43.68785" lon="3.60005">
        <ele>101.275497</ele>
        <time>2019-03-01T10:48:43Z</time>
      </trkpt>
      <trkpt lat="43.68803" lon="3.59999">
        <ele>94.817101</ele>
        <time>2019-03-01T10:48:49Z</time>
      </trkpt>
      <trkpt lat="43.68844" lon="3.60029">
        <ele>93.400688</ele>
        <time>2019-03-01T10:49:23Z</time>
      </trkpt>
      <trkpt lat="43.6885" lon="3.60029">
        <ele>93.629501</ele>
        <time>2019-03-01T10:52:43Z</time>
      </trkpt>
      <trkpt lat="43.68852" lon="3.60026">
        <ele>93.356003</ele>
        <time>2019-03-01T10:52:45Z</time>
      </trkpt>
      <trkpt lat="43.68879" lon="3.60042">
        <ele>95.225899</ele>
        <time>2019-03-01T10:52:58Z</time>
      </trkpt>
      <trkpt lat="43.68926" lon="3.60062">
        <ele>97.985756</ele>
        <time>2019-03-01T10:53:11Z</time>
      </trkpt>
      <trkpt lat="43.68942" lon="3.60073">
        <ele>99.493759</ele>
        <time>2019-03-01T10:53:16Z</time>
      </trkpt>
      <trkpt lat="43.68992" lon="3.60122">
        <ele>117.295425</ele>
        <time>2019-03-01T10:53:33Z</time>
      </trkpt>
      <trkpt lat="43.69006" lon="3.6013">
        <ele>120.973434</ele>
        <time>2019-03-01T10:54:01Z</time>
      </trkpt>
      <trkpt lat="43.69059" lon="3.60431">
        <ele>119.272636</ele>
        <time>2019-03-01T10:56:44Z</time>
      </trkpt>
      <trkpt lat="43.69038" lon="3.60471">
        <ele>123.344002</ele>
        <time>2019-03-01T10:56:57Z</time>
      </trkpt>
      <trkpt lat="43.69047" lon="3.60477">
        <ele>117.584747</ele>
        <time>2019-03-01T10:57:24Z</time>
      </trkpt>
      <trkpt lat="43.69048" lon="3.60489">
        <ele>114.461296</ele>
        <time>2019-03-01T10:57:30Z</time>
      </trkpt>
      <trkpt lat="43.69039" lon="3.60507">
        <ele>115.169998</ele>
        <time>2019-03-01T10:57:36Z</time>
      </trkpt>
      <trkpt lat="43.69011" lon="3.60543">
        <ele>120.79422</ele>
        <time>2019-03-01T10:57:45Z</time>
      </trkpt>
      <trkpt lat="43.68998" lon="3.60566">
        <ele>121.924545</ele>
        <time>2019-03-01T10:57:51Z</time>
      </trkpt>
      <trkpt lat="43.68983" lon="3.60598">
        <ele>121.470192</ele>
        <time>2019-03-01T10:58:00Z</time>
      </trkpt>
      <trkpt lat="43.6896" lon="3.60666">
        <ele>116.041656</ele>
        <time>2019-03-01T10:58:15Z</time>
      </trkpt>
      <trkpt lat="43.68952" lon="3.60703">
        <ele>113.724892</ele>
        <time>2019-03-01T10:58:24Z</time>
      </trkpt>
      <trkpt lat="43.68947" lon="3.60757">
        <ele>111.208252</ele>
        <time>2019-03-01T10:58:36Z</time>
      </trkpt>
      <trkpt lat="43.68942" lon="3.60782">
        <ele>114.066055</ele>
        <time>2019-03-01T10:58:42Z</time>
      </trkpt>
      <trkpt lat="43.68942" lon="3.60802">
        <ele>117.433243</ele>
        <time>2019-03-01T10:58:47Z</time>
      </trkpt>
      <trkpt lat="43.6895" lon="3.6086">
        <ele>128.000748</ele>
        <time>2019-03-01T10:58:59Z</time>
      </trkpt>
      <trkpt lat="43.6897" lon="3.60914">
        <ele>134.511871</ele>
        <time>2019-03-01T10:59:09Z</time>
      </trkpt>
      <trkpt lat="43.68971" lon="3.60931">
        <ele>132.452225</ele>
        <time>2019-03-01T10:59:12Z</time>
      </trkpt>
      <trkpt lat="43.68967" lon="3.60943">
        <ele>129.503601</ele>
        <time>2019-03-01T10:59:15Z</time>
      </trkpt>
      <trkpt lat="43.68968" lon="3.60956">
        <ele>127.793312</ele>
        <time>2019-03-01T10:59:18Z</time>
      </trkpt>
      <trkpt lat="43.68966" lon="3.60965">
        <ele>125.879303</ele>
        <time>2019-03-01T10:59:20Z</time>
      </trkpt>
      <trkpt lat="43.68966" lon="3.61015">
        <ele>121.825378</ele>
        <time>2019-03-01T10:59:32Z</time>
      </trkpt>
      <trkpt lat="43.6897" lon="3.61033">
        <ele>122.325249</ele>
        <time>2019-03-01T10:59:38Z</time>
      </trkpt>
      <trkpt lat="43.68972" lon="3.61133">
        <ele>130.5</ele>
        <time>2019-03-01T10:59:59Z</time>
      </trkpt>
      <trkpt lat="43.68967" lon="3.61187">
        <ele>132.396225</ele>
        <time>2019-03-01T11:00:11Z</time>
      </trkpt>
      <trkpt lat="43.68952" lon="3.61237">
        <ele>134.616699</ele>
        <time>2019-03-01T11:00:23Z</time>
      </trkpt>
      <trkpt lat="43.68928" lon="3.61286">
        <ele>134.833801</ele>
        <time>2019-03-01T11:00:32Z</time>
      </trkpt>
      <trkpt lat="43.68897" lon="3.61328">
        <ele>136.563522</ele>
        <time>2019-03-01T11:00:41Z</time>
      </trkpt>
      <trkpt lat="43.68887" lon="3.61334">
        <ele>137.360367</ele>
        <time>2019-03-01T11:00:44Z</time>
      </trkpt>
      <trkpt lat="43.68858" lon="3.61369">
        <ele>134.266678</ele>
        <time>2019-03-01T11:00:53Z</time>
      </trkpt>
      <trkpt lat="43.68794" lon="3.61412">
        <ele>138.507141</ele>
        <time>2019-03-01T11:01:08Z</time>
      </trkpt>
      <trkpt lat="43.68763" lon="3.6142">
        <ele>139.516006</ele>
        <time>2019-03-01T11:01:14Z</time>
      </trkpt>
      <trkpt lat="43.68738" lon="3.61414">
        <ele>140.237503</ele>
        <time>2019-03-01T11:01:20Z</time>
      </trkpt>
      <trkpt lat="43.68683" lon="3.61428">
        <ele>140.000443</ele>
        <time>2019-03-01T11:01:32Z</time>
      </trkpt>
      <trkpt lat="43.68647" lon="3.61432">
        <ele>140.490662</ele>
        <time>2019-03-01T11:01:41Z</time>
      </trkpt>
      <trkpt lat="43.68606" lon="3.61449">
        <ele>141.682175</ele>
        <time>2019-03-01T11:01:50Z</time>
      </trkpt>
      <trkpt lat="43.68539" lon="3.61456">
        <ele>141.345032</ele>
        <time>2019-03-01T11:02:02Z</time>
      </trkpt>
      <trkpt lat="43.68507" lon="3.61463">
        <ele>142.121689</ele>
        <time>2019-03-01T11:02:08Z</time>
      </trkpt>
      <trkpt lat="43.68453" lon="3.61488">
        <ele>143.67041</ele>
        <time>2019-03-01T11:02:20Z</time>
      </trkpt>
      <trkpt lat="43.68433" lon="3.61504">
        <ele>144.632278</ele>
        <time>2019-03-01T11:02:26Z</time>
      </trkpt>
      <trkpt lat="43.68389" lon="3.61555">
        <ele>144.305801</ele>
        <time>2019-03-01T11:02:37Z</time>
      </trkpt>
      <trkpt lat="43.68334" lon="3.61648">
        <ele>142.740005</ele>
        <time>2019-03-01T11:02:52Z</time>
      </trkpt>
      <trkpt lat="43.68326" lon="3.61674">
        <ele>142.309998</ele>
        <time>2019-03-01T11:02:55Z</time>
      </trkpt>
      <trkpt lat="43.68309" lon="3.61793">
        <ele>140.323746</ele>
        <time>2019-03-01T11:03:10Z</time>
      </trkpt>
      <trkpt lat="43.68276" lon="3.61973">
        <ele>142.149002</ele>
        <time>2019-03-01T11:03:31Z</time>
      </trkpt>
      <trkpt lat="43.68264" lon="3.6202">
        <ele>144.534943</ele>
        <time>2019-03-01T11:03:37Z</time>
      </trkpt>
      <trkpt lat="43.68257" lon="3.62093">
        <ele>146.225708</ele>
        <time>2019-03-01T11:03:46Z</time>
      </trkpt>
      <trkpt lat="43.68215" lon="3.62329">
        <ele>140.689728</ele>
        <time>2019-03-01T11:04:16Z</time>
      </trkpt>
      <trkpt lat="43.68193" lon="3.62419">
        <ele>140.346405</ele>
        <time>2019-03-01T11:04:28Z</time>
      </trkpt>
      <trkpt lat="43.68179" lon="3.62458">
        <ele>144.648804</ele>
        <time>2019-03-01T11:04:34Z</time>
      </trkpt>
      <trkpt lat="43.68156" lon="3.62495">
        <ele>148.786774</ele>
        <time>2019-03-01T11:04:40Z</time>
      </trkpt>
      <trkpt lat="43.68102" lon="3.62639">
        <ele>151.48645</ele>
        <time>2019-03-01T11:05:01Z</time>
      </trkpt>
      <trkpt lat="43.68041" lon="3.62775">
        <ele>153.854996</ele>
        <time>2019-03-01T11:05:22Z</time>
      </trkpt>
      <trkpt lat="43.68031" lon="3.62793">
        <ele>153.846252</ele>
        <time>2019-03-01T11:05:25Z</time>
      </trkpt>
      <trkpt lat="43.67964" lon="3.62948">
        <ele>155.843796</ele>
        <time>2019-03-01T11:05:49Z</time>
      </trkpt>
      <trkpt lat="43.67956" lon="3.62963">
        <ele>156.840347</ele>
        <time>2019-03-01T11:05:52Z</time>
      </trkpt>
      <trkpt lat="43.6795" lon="3.62981">
        <ele>157.867874</ele>
        <time>2019-03-01T11:05:55Z</time>
      </trkpt>
      <trkpt lat="43.6794" lon="3.62997">
        <ele>158.688492</ele>
        <time>2019-03-01T11:05:58Z</time>
      </trkpt>
      <trkpt lat="43.67917" lon="3.63019">
        <ele>159.779846</ele>
        <time>2019-03-01T11:06:04Z</time>
      </trkpt>
      <trkpt lat="43.67904" lon="3.63026">
        <ele>159.729462</ele>
        <time>2019-03-01T11:06:07Z</time>
      </trkpt>
      <trkpt lat="43.67897" lon="3.63045">
        <ele>159.726929</ele>
        <time>2019-03-01T11:06:10Z</time>
      </trkpt>
      <trkpt lat="43.67896" lon="3.63095">
        <ele>160.003983</ele>
        <time>2019-03-01T11:06:16Z</time>
      </trkpt>
      <trkpt lat="43.67893" lon="3.63117">
        <ele>159.947205</ele>
        <time>2019-03-01T11:06:19Z</time>
      </trkpt>
      <trkpt lat="43.67826" lon="3.63254">
        <ele>162.381256</ele>
        <time>2019-03-01T11:06:45Z</time>
      </trkpt>
      <trkpt lat="43.67804" lon="3.63294">
        <ele>162.631866</ele>
        <time>2019-03-01T11:06:53Z</time>
      </trkpt>
      <trkpt lat="43.67782" lon="3.63325">
        <ele>163.854782</ele>
        <time>2019-03-01T11:06:59Z</time>
      </trkpt>
      <trkpt lat="43.67774" lon="3.63343">
        <ele>164.405197</ele>
        <time>2019-03-01T11:07:03Z</time>
      </trkpt>
      <trkpt lat="43.67755" lon="3.63365">
        <ele>164.524368</ele>
        <time>2019-03-01T11:07:09Z</time>
      </trkpt>
      <trkpt lat="43.67717" lon="3.63422">
        <ele>166.858124</ele>
        <time>2019-03-01T11:07:23Z</time>
      </trkpt>
      <trkpt lat="43.67712" lon="3.63426">
        <ele>166.897171</ele>
        <time>2019-03-01T11:07:25Z</time>
      </trkpt>
      <trkpt lat="43.67691" lon="3.63428">
        <ele>166.047241</ele>
        <time>2019-03-01T11:07:31Z</time>
      </trkpt>
      <trkpt lat="43.67686" lon="3.6342">
        <ele>165.0354</ele>
        <time>2019-03-01T11:07:56Z</time>
      </trkpt>
      <trkpt lat="43.67687" lon="3.63409">
        <ele>164.032501</ele>
        <time>2019-03-01T11:08:04Z</time>
      </trkpt>
      <trkpt lat="43.67691" lon="3.63408">
        <ele>164.098221</ele>
        <time>2019-03-01T11:08:16Z</time>
      </trkpt>
      <trkpt lat="43.67688" lon="3.63404">
        <ele>163.580917</ele>
        <time>2019-03-01T11:08:48Z</time>
      </trkpt>
      <trkpt lat="43.67691" lon="3.634">
        <ele>163.262527</ele>
        <time>2019-03-01T11:09:08Z</time>
      </trkpt>
      <trkpt lat="43.67693" lon="3.63404">
        <ele>163.811691</ele>
        <time>2019-03-01T11:09:30Z</time>
      </trkpt>
      <trkpt lat="43.6769" lon="3.63418">
        <ele>165.038742</ele>
        <time>2019-03-01T11:09:51Z</time>
      </trkpt>
      <trkpt lat="43.67679" lon="3.63447">
        <ele>167.384293</ele>
        <time>2019-03-01T11:09:55Z</time>
      </trkpt>
      <trkpt lat="43.6765" lon="3.63488">
        <ele>170.779999</ele>
        <time>2019-03-01T11:10:04Z</time>
      </trkpt>
      <trkpt lat="43.67569" lon="3.63542">
        <ele>173.833923</ele>
        <time>2019-03-01T11:10:22Z</time>
      </trkpt>
      <trkpt lat="43.67507" lon="3.63576">
        <ele>175.703094</ele>
        <time>2019-03-01T11:10:36Z</time>
      </trkpt>
      <trkpt lat="43.67478" lon="3.63587">
        <ele>176.845032</ele>
        <time>2019-03-01T11:10:42Z</time>
      </trkpt>
      <trkpt lat="43.67437" lon="3.63594">
        <ele>177.936249</ele>
        <time>2019-03-01T11:10:52Z</time>
      </trkpt>
      <trkpt lat="43.67422" lon="3.63593">
        <ele>178.305618</ele>
        <time>2019-03-01T11:10:55Z</time>
      </trkpt>
      <trkpt lat="43.6738" lon="3.63603">
        <ele>178.932968</ele>
        <time>2019-03-01T11:11:04Z</time>
      </trkpt>
      <trkpt lat="43.67327" lon="3.63596">
        <ele>179.010025</ele>
        <time>2019-03-01T11:11:16Z</time>
      </trkpt>
      <trkpt lat="43.67256" lon="3.63581">
        <ele>179.884232</ele>
        <time>2019-03-01T11:11:31Z</time>
      </trkpt>
      <trkpt lat="43.67218" lon="3.63579">
        <ele>180.869995</ele>
        <time>2019-03-01T11:11:39Z</time>
      </trkpt>
      <trkpt lat="43.67188" lon="3.6357">
        <ele>182.122681</ele>
        <time>2019-03-01T11:11:46Z</time>
      </trkpt>
      <trkpt lat="43.67075" lon="3.6357">
        <ele>185.964996</ele>
        <time>2019-03-01T11:12:12Z</time>
      </trkpt>
      <trkpt lat="43.67024" lon="3.63576">
        <ele>186.817886</ele>
        <time>2019-03-01T11:12:23Z</time>
      </trkpt>
      <trkpt lat="43.66973" lon="3.63588">
        <ele>187.964447</ele>
        <time>2019-03-01T11:12:34Z</time>
      </trkpt>
      <trkpt lat="43.66949" lon="3.63597">
        <ele>188.340424</ele>
        <time>2019-03-01T11:12:40Z</time>
      </trkpt>
      <trkpt lat="43.66917" lon="3.63615">
        <ele>188.736465</ele>
        <time>2019-03-01T11:12:47Z</time>
      </trkpt>
      <trkpt lat="43.66865" lon="3.63636">
        <ele>188.776291</ele>
        <time>2019-03-01T11:13:00Z</time>
      </trkpt>
      <trkpt lat="43.66871" lon="3.63634">
        <ele>188.786377</ele>
        <time>2019-03-01T11:13:05Z</time>
      </trkpt>
      <trkpt lat="43.66854" lon="3.63644">
        <ele>188.882187</ele>
        <time>2019-03-01T11:17:36Z</time>
      </trkpt>
      <trkpt lat="43.66847" lon="3.63645">
        <ele>188.767242</ele>
        <time>2019-03-01T11:17:47Z</time>
      </trkpt>
      <trkpt lat="43.66793" lon="3.63676">
        <ele>188.994995</ele>
        <time>2019-03-01T11:17:59Z</time>
      </trkpt>
      <trkpt lat="43.66736" lon="3.6372">
        <ele>190.623611</ele>
        <time>2019-03-01T11:18:11Z</time>
      </trkpt>
      <trkpt lat="43.66724" lon="3.63734">
        <ele>191.322174</ele>
        <time>2019-03-01T11:18:14Z</time>
      </trkpt>
      <trkpt lat="43.66631" lon="3.6396">
        <ele>197.638748</ele>
        <time>2019-03-01T11:18:46Z</time>
      </trkpt>
      <trkpt lat="43.66619" lon="3.63984">
        <ele>198.030151</ele>
        <time>2019-03-01T11:18:49Z</time>
      </trkpt>
      <trkpt lat="43.66585" lon="3.64071">
        <ele>199.895004</ele>
        <time>2019-03-01T11:19:01Z</time>
      </trkpt>
      <trkpt lat="43.66512" lon="3.64236">
        <ele>206.118744</ele>
        <time>2019-03-01T11:19:25Z</time>
      </trkpt>
      <trkpt lat="43.66499" lon="3.64274">
        <ele>206.823059</ele>
        <time>2019-03-01T11:19:31Z</time>
      </trkpt>
      <trkpt lat="43.66489" lon="3.64297">
        <ele>207.128754</ele>
        <time>2019-03-01T11:19:34Z</time>
      </trkpt>
      <trkpt lat="43.66481" lon="3.6432">
        <ele>207.503754</ele>
        <time>2019-03-01T11:19:37Z</time>
      </trkpt>
      <trkpt lat="43.66452" lon="3.6437">
        <ele>208.647507</ele>
        <time>2019-03-01T11:19:46Z</time>
      </trkpt>
      <trkpt lat="43.6644" lon="3.64385">
        <ele>209.142502</ele>
        <time>2019-03-01T11:19:49Z</time>
      </trkpt>
      <trkpt lat="43.66359" lon="3.64422">
        <ele>209.220688</ele>
        <time>2019-03-01T11:20:07Z</time>
      </trkpt>
      <trkpt lat="43.66346" lon="3.64423">
        <ele>208.921783</ele>
        <time>2019-03-01T11:20:56Z</time>
      </trkpt>
      <trkpt lat="43.66343" lon="3.64428">
        <ele>209.018173</ele>
        <time>2019-03-01T11:22:56Z</time>
      </trkpt>
      <trkpt lat="43.66311" lon="3.64445">
        <ele>208.339157</ele>
        <time>2019-03-01T11:23:05Z</time>
      </trkpt>
      <trkpt lat="43.66272" lon="3.64456">
        <ele>206.263306</ele>
        <time>2019-03-01T11:23:11Z</time>
      </trkpt>
      <trkpt lat="43.66255" lon="3.64456">
        <ele>205.227753</ele>
        <time>2019-03-01T11:23:14Z</time>
      </trkpt>
      <trkpt lat="43.66216" lon="3.64466">
        <ele>203.535004</ele>
        <time>2019-03-01T11:23:20Z</time>
      </trkpt>
      <trkpt lat="43.66199" lon="3.64467">
        <ele>203.146255</ele>
        <time>2019-03-01T11:23:23Z</time>
      </trkpt>
      <trkpt lat="43.66187" lon="3.64463">
        <ele>202.946396</ele>
        <time>2019-03-01T11:23:26Z</time>
      </trkpt>
      <trkpt lat="43.66166" lon="3.64463">
        <ele>202.501328</ele>
        <time>2019-03-01T11:23:32Z</time>
      </trkpt>
      <trkpt lat="43.66163" lon="3.64458">
        <ele>202.555161</ele>
        <time>2019-03-01T11:23:34Z</time>
      </trkpt>
      <trkpt lat="43.66162" lon="3.6446">
        <ele>202.473923</ele>
        <time>2019-03-01T11:23:37Z</time>
      </trkpt>
      <trkpt lat="43.66167" lon="3.64474">
        <ele>201.685318</ele>
        <time>2019-03-01T11:23:40Z</time>
      </trkpt>
      <trkpt lat="43.66188" lon="3.64505">
        <ele>199.239273</ele>
        <time>2019-03-01T11:23:46Z</time>
      </trkpt>
      <trkpt lat="43.66209" lon="3.64549">
        <ele>196.445755</ele>
        <time>2019-03-01T11:23:52Z</time>
      </trkpt>
      <trkpt lat="43.66244" lon="3.64601">
        <ele>194.9133</ele>
        <time>2019-03-01T11:24:01Z</time>
      </trkpt>
      <trkpt lat="43.66361" lon="3.64811">
        <ele>183.266037</ele>
        <time>2019-03-01T11:24:28Z</time>
      </trkpt>
      <trkpt lat="43.66369" lon="3.64836">
        <ele>182.355591</ele>
        <time>2019-03-01T11:24:31Z</time>
      </trkpt>
      <trkpt lat="43.66365" lon="3.64863">
        <ele>181.262619</ele>
        <time>2019-03-01T11:24:34Z</time>
      </trkpt>
      <trkpt lat="43.66344" lon="3.64903">
        <ele>180.024673</ele>
        <time>2019-03-01T11:24:40Z</time>
      </trkpt>
      <trkpt lat="43.6632" lon="3.6494">
        <ele>180.00798</ele>
        <time>2019-03-01T11:24:46Z</time>
      </trkpt>
      <trkpt lat="43.66287" lon="3.64999">
        <ele>181.319992</ele>
        <time>2019-03-01T11:24:55Z</time>
      </trkpt>
      <trkpt lat="43.6626" lon="3.65037">
        <ele>182.347504</ele>
        <time>2019-03-01T11:25:04Z</time>
      </trkpt>
      <trkpt lat="43.66259" lon="3.65036">
        <ele>182.289993</ele>
        <time>2019-03-01T11:25:09Z</time>
      </trkpt>
      <trkpt lat="43.66265" lon="3.6504">
        <ele>182.422501</ele>
        <time>2019-03-01T11:25:25Z</time>
      </trkpt>
      <trkpt lat="43.66253" lon="3.65043">
        <ele>182.529999</ele>
        <time>2019-03-01T11:25:50Z</time>
      </trkpt>
      <trkpt lat="43.66259" lon="3.65056">
        <ele>182.962494</ele>
        <time>2019-03-01T11:25:53Z</time>
      </trkpt>
      <trkpt lat="43.66256" lon="3.6507">
        <ele>183.419998</ele>
        <time>2019-03-01T11:25:56Z</time>
      </trkpt>
      <trkpt lat="43.66154" lon="3.65269">
        <ele>190.188293</ele>
        <time>2019-03-01T11:26:28Z</time>
      </trkpt>
      <trkpt lat="43.66129" lon="3.65327">
        <ele>196.580002</ele>
        <time>2019-03-01T11:26:37Z</time>
      </trkpt>
      <trkpt lat="43.6611" lon="3.65356">
        <ele>199.023407</ele>
        <time>2019-03-01T11:26:43Z</time>
      </trkpt>
      <trkpt lat="43.66069" lon="3.65433">
        <ele>197.921585</ele>
        <time>2019-03-01T11:26:55Z</time>
      </trkpt>
      <trkpt lat="43.6606" lon="3.65456">
        <ele>196.145004</ele>
        <time>2019-03-01T11:26:58Z</time>
      </trkpt>
      <trkpt lat="43.66045" lon="3.6552">
        <ele>190.878265</ele>
        <time>2019-03-01T11:27:03Z</time>
      </trkpt>
      <trkpt lat="43.66024" lon="3.65761">
        <ele>193.677551</ele>
        <time>2019-03-01T11:27:25Z</time>
      </trkpt>
      <trkpt lat="43.66024" lon="3.65806">
        <ele>197.193756</ele>
        <time>2019-03-01T11:27:31Z</time>
      </trkpt>
      <trkpt lat="43.66031" lon="3.65873">
        <ele>202.034378</ele>
        <time>2019-03-01T11:27:40Z</time>
      </trkpt>
      <trkpt lat="43.6605" lon="3.65949">
        <ele>207.441254</ele>
        <time>2019-03-01T11:27:53Z</time>
      </trkpt>
      <trkpt lat="43.66053" lon="3.65984">
        <ele>209.068756</ele>
        <time>2019-03-01T11:27:59Z</time>
      </trkpt>
      <trkpt lat="43.66052" lon="3.66007">
        <ele>210.183746</ele>
        <time>2019-03-01T11:28:03Z</time>
      </trkpt>
      <trkpt lat="43.66046" lon="3.6604">
        <ele>211.666946</ele>
        <time>2019-03-01T11:28:09Z</time>
      </trkpt>
      <trkpt lat="43.66038" lon="3.66062">
        <ele>212.612503</ele>
        <time>2019-03-01T11:28:13Z</time>
      </trkpt>
      <trkpt lat="43.66016" lon="3.66099">
        <ele>213.214371</ele>
        <time>2019-03-01T11:28:21Z</time>
      </trkpt>
      <trkpt lat="43.65976" lon="3.66125">
        <ele>214.193115</ele>
        <time>2019-03-01T11:28:31Z</time>
      </trkpt>
      <trkpt lat="43.65928" lon="3.66162">
        <ele>217.039246</ele>
        <time>2019-03-01T11:28:41Z</time>
      </trkpt>
      <trkpt lat="43.65908" lon="3.66172">
        <ele>218.583298</ele>
        <time>2019-03-01T11:28:45Z</time>
      </trkpt>
      <trkpt lat="43.65842" lon="3.66214">
        <ele>223.213562</ele>
        <time>2019-03-01T11:28:59Z</time>
      </trkpt>
      <trkpt lat="43.65833" lon="3.66224">
        <ele>224.125549</ele>
        <time>2019-03-01T11:29:02Z</time>
      </trkpt>
      <trkpt lat="43.65809" lon="3.66276">
        <ele>228.156906</ele>
        <time>2019-03-01T11:29:14Z</time>
      </trkpt>
      <trkpt lat="43.65788" lon="3.6628">
        <ele>229.001953</ele>
        <time>2019-03-01T11:29:17Z</time>
      </trkpt>
      <trkpt lat="43.65779" lon="3.66298">
        <ele>230.37944</ele>
        <time>2019-03-01T11:29:20Z</time>
      </trkpt>
      <trkpt lat="43.65768" lon="3.66361">
        <ele>235.463379</ele>
        <time>2019-03-01T11:29:31Z</time>
      </trkpt>
      <trkpt lat="43.65751" lon="3.66372">
        <ele>237.277756</ele>
        <time>2019-03-01T11:29:34Z</time>
      </trkpt>
      <trkpt lat="43.65727" lon="3.66473">
        <ele>244.373749</ele>
        <time>2019-03-01T11:29:48Z</time>
      </trkpt>
      <trkpt lat="43.65725" lon="3.66496">
        <ele>245.573746</ele>
        <time>2019-03-01T11:29:51Z</time>
      </trkpt>
      <trkpt lat="43.65696" lon="3.66617">
        <ele>247.903748</ele>
        <time>2019-03-01T11:30:07Z</time>
      </trkpt>
      <trkpt lat="43.65677" lon="3.66656">
        <ele>249.123505</ele>
        <time>2019-03-01T11:30:14Z</time>
      </trkpt>
      <trkpt lat="43.65649" lon="3.66695">
        <ele>248.734955</ele>
        <time>2019-03-01T11:30:20Z</time>
      </trkpt>
      <trkpt lat="43.6562" lon="3.66768">
        <ele>247.675842</ele>
        <time>2019-03-01T11:30:29Z</time>
      </trkpt>
      <trkpt lat="43.65593" lon="3.66878">
        <ele>243.956253</ele>
        <time>2019-03-01T11:30:40Z</time>
      </trkpt>
      <trkpt lat="43.65588" lon="3.66921">
        <ele>242.461243</ele>
        <time>2019-03-01T11:30:44Z</time>
      </trkpt>
      <trkpt lat="43.65569" lon="3.67009">
        <ele>242.523621</ele>
        <time>2019-03-01T11:30:52Z</time>
      </trkpt>
      <trkpt lat="43.65527" lon="3.67087">
        <ele>246.519501</ele>
        <time>2019-03-01T11:31:04Z</time>
      </trkpt>
      <trkpt lat="43.65503" lon="3.67125">
        <ele>249.305893</ele>
        <time>2019-03-01T11:31:12Z</time>
      </trkpt>
      <trkpt lat="43.65476" lon="3.67152">
        <ele>251.34845</ele>
        <time>2019-03-01T11:31:20Z</time>
      </trkpt>
      <trkpt lat="43.6546" lon="3.67177">
        <ele>252.078415</ele>
        <time>2019-03-01T11:31:25Z</time>
      </trkpt>
      <trkpt lat="43.6545" lon="3.67208">
        <ele>252.740173</ele>
        <time>2019-03-01T11:31:30Z</time>
      </trkpt>
      <trkpt lat="43.65434" lon="3.67284">
        <ele>253.874207</ele>
        <time>2019-03-01T11:31:41Z</time>
      </trkpt>
      <trkpt lat="43.65376" lon="3.67667">
        <ele>255.306244</ele>
        <time>2019-03-01T11:32:28Z</time>
      </trkpt>
      <trkpt lat="43.65361" lon="3.67738">
        <ele>260.394989</ele>
        <time>2019-03-01T11:32:39Z</time>
      </trkpt>
      <trkpt lat="43.65344" lon="3.67784">
        <ele>261.52179</ele>
        <time>2019-03-01T11:32:48Z</time>
      </trkpt>
      <trkpt lat="43.65344" lon="3.67784">
        <ele>261.52179</ele>
        <time>2019-03-01T11:32:48Z</time>
      </trkpt>
      <trkpt lat="43.65345" lon="3.6779">
        <ele>262.032501</ele>
        <time>2019-03-01T11:32:50Z</time>
      </trkpt>
    </trkseg>
  </trk>
</gpx>